Provisional Data: Starrucca Creek near Stevens Point, PA


Please select a monitoring station.
Please select start date.
Please select start date.

<
Toggle Unit: C/F Toggle Unit: C/F
Sample Time Temperature (C) Temperature (F) Specific Conductivity (mS/cm) pH   Turbidity (NTU+) DO (mg/L)
12/11/2021 12:00:00 AM 2.89 37.202 0.075 7.33 1.41 12.77
12/11/2021 12:15:00 AM 2.91 37.238 0.075 7.32 1.38 12.76
12/11/2021 12:30:00 AM 2.93 37.274 0.075 7.31 1.37 12.76
12/11/2021 12:45:00 AM 2.95 37.31 0.075 7.33 1.4 12.75
12/11/2021 1:00:00 AM 2.97 37.346 0.075 7.32 1.38 12.73
12/11/2021 1:15:00 AM 2.98 37.364 0.075 7.33 1.37 12.74
12/11/2021 1:30:00 AM 2.99 37.382 0.075 7.32 1.35 12.73
12/11/2021 1:45:00 AM 3.01 37.418 0.075 7.32 1.34 12.7
12/11/2021 2:00:00 AM 3.02 37.436 0.075 7.32 1.36 12.71
12/11/2021 2:15:00 AM 3.03 37.454 0.075 7.32 1.38 12.7
12/11/2021 2:30:00 AM 3.05 37.49 0.075 7.31 1.38 12.7
12/11/2021 2:45:00 AM 3.07 37.526 0.075 7.32 1.34 12.68
12/11/2021 3:00:00 AM 3.09 37.562 0.075 7.32 1.35 12.67
12/11/2021 3:15:00 AM 3.1 37.58 0.075 7.32 1.33 12.65
12/11/2021 3:30:00 AM 3.11 37.598 0.075 7.33 1.37 12.65
12/11/2021 3:45:00 AM 3.14 37.652 0.075 7.32 1.35 12.63
12/11/2021 4:00:00 AM 3.15 37.67 0.075 7.33 1.41 12.64
12/11/2021 4:15:00 AM 3.17 37.706 0.075 7.32 1.38 12.61
12/11/2021 4:30:00 AM 3.18 37.724 0.075 7.32 1.34 12.61
12/11/2021 4:45:00 AM 3.19 37.742 0.075 7.33 1.33 12.61
12/11/2021 5:00:00 AM 3.22 37.796 0.075 7.32 1.34 12.59
12/11/2021 5:15:00 AM 3.23 37.814 0.075 7.32 1.36 12.58
12/11/2021 5:30:00 AM 3.25 37.85 0.075 7.32 1.36 12.57
12/11/2021 5:45:00 AM 3.27 37.886 0.075 7.33 1.32 12.56
12/11/2021 6:00:00 AM 3.28 37.904 0.075 7.32 1.33 12.55
12/11/2021 6:15:00 AM 3.29 37.922 0.075 7.33 1.35 12.54
12/11/2021 6:30:00 AM 3.31 37.958 0.075 7.31 1.37 12.53
12/11/2021 6:45:00 AM 3.32 37.976 0.075 7.31 1.4 12.53
12/11/2021 7:00:00 AM 3.34 38.012 0.075 7.32 1.38 12.52
12/11/2021 7:15:00 AM 3.35 38.03 0.075 7.32 1.48 12.51
12/11/2021 7:30:00 AM 3.37 38.066 0.075 7.32 1.79 12.51
12/11/2021 7:45:00 AM 3.39 38.102 0.074 7.31 2.67 12.51
12/11/2021 8:00:00 AM 3.41 38.138 0.075 7.31 4.77 12.5
12/11/2021 8:15:00 AM 3.44 38.192 0.074 7.31 5.56 12.5
12/11/2021 8:30:00 AM 3.47 38.246 0.073 7.3 3.46 12.52
12/11/2021 8:45:00 AM 3.5 38.3 0.073 7.32 3.68 12.58
12/11/2021 9:00:00 AM 3.55 38.39 0.072 7.34 3.32 12.64
12/11/2021 9:15:00 AM 3.58 38.444 0.072 7.36 3.15 12.71
12/11/2021 9:30:00 AM 3.61 38.498 0.072 7.38 3.17 12.77
12/11/2021 9:45:00 AM 3.63 38.534 0.073 7.45 4.92 12.84
12/11/2021 10:00:00 AM 3.66 38.588 0.073 7.48 5.67 12.89
12/11/2021 10:15:00 AM 3.69 38.642 0.073 7.51 7.55 12.91
12/11/2021 10:30:00 AM 3.73 38.714 0.073 7.5 13.29 12.85
12/11/2021 10:45:00 AM 3.78 38.804 0.072 7.46 17.71 12.74
12/11/2021 11:00:00 AM 3.82 38.876 0.071 7.45 20.25 12.68
12/11/2021 11:15:00 AM 3.85 38.93 0.071 7.44 20.73 12.65
12/11/2021 11:30:00 AM 3.89 39.002 0.071 7.43 19.54 12.65
12/11/2021 11:45:00 AM 3.92 39.056 0.072 7.44 20.22 12.61
12/11/2021 12:00:00 PM 3.95 39.11 0.073 7.44 20.63 12.58
12/11/2021 12:15:00 PM 3.99 39.182 0.073 7.44 17.88 12.59
12/11/2021 12:30:00 PM 4.04 39.272 0.072 7.44 17.31 12.59
12/11/2021 12:45:00 PM 4.11 39.398 0.073 7.44 21.53 12.52
12/11/2021 1:00:00 PM 4.19 39.542 0.073 7.42 25.66 12.47
12/11/2021 1:15:00 PM 4.27 39.686 0.072 7.42 25.58 12.43
12/11/2021 1:30:00 PM 4.34 39.812 0.071 7.41 22.06 12.41
12/11/2021 1:45:00 PM 4.42 39.956 0.07 7.41 18.72 12.38
12/11/2021 2:00:00 PM 4.49 40.082 0.07 7.4 15.3 12.36
12/11/2021 2:15:00 PM 4.55 40.19 0.069 7.4 12.92 12.33
12/11/2021 2:30:00 PM 4.62 40.316 0.069 7.39 11.75 12.3
12/11/2021 2:45:00 PM 4.68 40.424 0.069 7.38 11.21 12.25
12/11/2021 3:00:00 PM 4.76 40.568 0.069 7.37 11.89 12.19
12/11/2021 3:15:00 PM 4.83 40.694 0.069 7.37 12.51 12.15
12/11/2021 3:30:00 PM 4.9 40.82 0.07 7.36 12.27 12.11
12/11/2021 3:45:00 PM 4.97 40.946 0.069 7.35 11.59 12.08
12/11/2021 4:00:00 PM 5.05 41.09 0.069 7.36 10.6 12.07
12/11/2021 4:15:00 PM 5.1 41.18 0.069 7.35 9.58 12.03
12/11/2021 4:30:00 PM 5.14 41.252 0.069 7.34 8.65 11.99
12/11/2021 4:45:00 PM 5.2 41.36 0.069 7.33 8.13 11.94
12/11/2021 5:00:00 PM 5.25 41.45 0.069 7.33 7.45 11.9
12/11/2021 5:15:00 PM 5.3 41.54 0.069 7.31 7.1 11.86
12/11/2021 5:30:00 PM 5.36 41.648 0.069 7.31 6.62 11.84
12/11/2021 5:45:00 PM 5.43 41.774 0.069 7.3 6.2 11.8
12/11/2021 6:00:00 PM 5.49 41.882 0.069 7.3 6 11.78
12/11/2021 6:15:00 PM 5.53 41.954 0.069 7.3 5.76 11.75
12/11/2021 6:30:00 PM 5.59 42.062 0.07 7.3 5.62 11.73
12/11/2021 6:45:00 PM 5.67 42.206 0.07 7.3 5.41 11.7
12/11/2021 7:00:00 PM 5.74 42.332 0.07 7.3 5.3 11.68
12/11/2021 7:15:00 PM 5.8 42.44 0.071 7.3 5.23 11.66
12/11/2021 7:30:00 PM 5.87 42.566 0.071 7.3 5.04 11.64
12/11/2021 7:45:00 PM 5.93 42.674 0.071 7.3 4.9 11.62
12/11/2021 8:00:00 PM 6.01 42.818 0.072 7.29 4.87 11.6
12/11/2021 8:15:00 PM 6.05 42.89 0.072 7.3 4.85 11.58
12/11/2021 8:30:00 PM 6.08 42.944 0.072 7.3 4.71 11.57
12/11/2021 8:45:00 PM 6.1 42.98 0.072 7.3 4.58 11.57
12/11/2021 9:00:00 PM 6.11 42.998 0.071 7.3 4.45 11.56
12/11/2021 9:15:00 PM 6.11 42.998 0.071 7.29 4.92 11.56
12/11/2021 9:30:00 PM 6.11 42.998 0.071 7.3 4.92 11.56
12/11/2021 9:45:00 PM 6.1 42.98 0.071 7.3 4.8 11.57
12/11/2021 10:00:00 PM 6.09 42.962 0.071 7.3 4.83 11.57
12/11/2021 10:15:00 PM 6.05 42.89 0.07 7.3 4.95 11.58
12/11/2021 10:30:00 PM 6.02 42.836 0.071 7.3 5.63 11.6
12/11/2021 10:45:00 PM 6 42.8 0.07 7.3 5.81 11.61
12/11/2021 11:00:00 PM 5.94 42.692 0.07 7.3 5.79 11.63
12/11/2021 11:15:00 PM 5.89 42.602 0.07 7.3 5.33 11.65
12/11/2021 11:30:00 PM 5.85 42.53 0.07 7.3 4.96 11.67
12/11/2021 11:45:00 PM 5.8 42.44 0.07 7.3 4.67 11.68
12/12/2021 12:00:00 AM 5.74 42.332 0.07 7.3 4.49 11.71
12/12/2021 12:15:00 AM 5.68 42.224 0.07 7.31 4.38 11.73
12/12/2021 12:30:00 AM 5.63 42.134 0.07 7.3 4.26 11.76
12/12/2021 12:45:00 AM 5.58 42.044 0.07 7.31 4.2 11.77
12/12/2021 1:00:00 AM 5.5 41.9 0.07 7.31 4.16 11.81
12/12/2021 1:15:00 AM 5.43 41.774 0.07 7.31 4.29 11.82
12/12/2021 1:30:00 AM 5.36 41.648 0.071 7.31 4.28 11.86
12/12/2021 1:45:00 AM 5.3 41.54 0.071 7.3 4.31 11.87
12/12/2021 2:00:00 AM 5.24 41.432 0.071 7.3 4.36 11.91
12/12/2021 2:15:00 AM 5.18 41.324 0.071 7.3 4.18 11.93
12/12/2021 2:30:00 AM 5.13 41.234 0.071 7.3 3.97 11.94
12/12/2021 2:45:00 AM 5.07 41.126 0.071 7.3 3.85 11.97
12/12/2021 3:00:00 AM 5 41 0.071 7.3 3.79 12
12/12/2021 3:15:00 AM 4.92 40.856 0.071 7.29 3.83 12.02
12/12/2021 3:30:00 AM 4.84 40.712 0.071 7.29 3.63 12.05
12/12/2021 3:45:00 AM 4.77 40.586 0.071 7.29 3.54 12.08
12/12/2021 4:00:00 AM 4.68 40.424 0.071 7.29 3.54 12.11
12/12/2021 4:15:00 AM 4.6 40.28 0.071 7.29 3.48 12.15
12/12/2021 4:30:00 AM 4.52 40.136 0.071 7.29 3.34 12.17
12/12/2021 4:45:00 AM 4.44 39.992 0.071 7.29 3.31 12.21
12/12/2021 5:00:00 AM 4.36 39.848 0.071 7.29 3.21 12.24
12/12/2021 5:15:00 AM 4.28 39.704 0.071 7.28 3.21 12.27
12/12/2021 5:30:00 AM 4.2 39.56 0.071 7.28 3.15 12.29
12/12/2021 5:45:00 AM 4.12 39.416 0.071 7.29 3.06 12.32
12/12/2021 6:00:00 AM 4.05 39.29 0.071 7.28 3.04 12.35
12/12/2021 6:15:00 AM 3.98 39.164 0.071 7.28 2.95 12.38
12/12/2021 6:30:00 AM 3.91 39.038 0.071 7.28 2.94 12.41
12/12/2021 6:45:00 AM 3.85 38.93 0.071 7.28 2.92 12.43
12/12/2021 7:00:00 AM 3.79 38.822 0.071 7.28 2.86 12.46
12/12/2021 7:15:00 AM 3.72 38.696 0.071 7.28 2.74 12.49
12/12/2021 7:30:00 AM 3.66 38.588 0.071 7.29 2.71 12.53
12/12/2021 7:45:00 AM 3.6 38.48 0.071 7.29 2.64 12.59
12/12/2021 8:00:00 AM 3.55 38.39 0.071 7.31 2.55 12.67
12/12/2021 8:15:00 AM 3.5 38.3 0.071 7.33 2.57 12.76
12/12/2021 8:30:00 AM 3.46 38.228 0.071 7.36 2.52 12.86
12/12/2021 8:45:00 AM 3.43 38.174 0.071 7.39 2.48 12.98
12/12/2021 9:00:00 AM 3.41 38.138 0.071 7.44 2.43 13.1
12/12/2021 9:15:00 AM 3.4 38.12 0.07 7.48 2.36 13.21
12/12/2021 9:30:00 AM 3.4 38.12 0.07 7.53 2.36 13.32
12/12/2021 9:45:00 AM 3.43 38.174 0.07 7.58 2.32 13.41
12/12/2021 10:00:00 AM 3.47 38.246 0.07 7.64 2.26 13.48
12/12/2021 10:15:00 AM 3.51 38.318 0.07 7.69 2.2 13.53
12/12/2021 10:30:00 AM 3.57 38.426 0.07 7.74 2.2 13.57
12/12/2021 10:45:00 AM 3.63 38.534 0.07 7.8 2.11 13.59
12/12/2021 11:00:00 AM 3.69 38.642 0.07 7.84 2.13 13.61
12/12/2021 11:15:00 AM 3.75 38.75 0.07 7.9 2.07 13.61
12/12/2021 11:30:00 AM 3.81 38.858 0.07 7.93 2.06 13.61
12/12/2021 11:45:00 AM 3.87 38.966 0.069 7.97 2.01 13.6
12/12/2021 12:00:00 PM 3.93 39.074 0.069 8 1.96 13.57
12/12/2021 12:15:00 PM 3.97 39.146 0.069 8.02 2.03 13.56
12/12/2021 12:30:00 PM 4 39.2 0.069 8.03 2.02 13.53
12/12/2021 12:45:00 PM 4.03 39.254 0.069 8.02 1.98 13.5
12/12/2021 1:00:00 PM 4.04 39.272 0.069 8.01 1.95 13.47
12/12/2021 1:15:00 PM 4.05 39.29 0.069 7.99 1.98 13.44
12/12/2021 1:30:00 PM 4.04 39.272 0.069 7.97 2.01 13.41
12/12/2021 1:45:00 PM 4.04 39.272 0.069 7.95 1.92 13.38
12/12/2021 2:00:00 PM 4.05 39.29 0.069 7.92 1.89 13.35
12/12/2021 2:15:00 PM 4.04 39.272 0.069 7.89 1.9 13.31
12/12/2021 2:30:00 PM 4.03 39.254 0.069 7.84 1.93 13.27
12/12/2021 2:45:00 PM 4.01 39.218 0.069 7.8 1.89 13.21
12/12/2021 3:00:00 PM 3.99 39.182 0.069 7.74 1.89 13.16
12/12/2021 3:15:00 PM 3.95 39.11 0.069 7.69 1.89 13.11
12/12/2021 3:30:00 PM 3.93 39.074 0.069 7.66 1.83 13.06
12/12/2021 3:45:00 PM 3.92 39.056 0.069 7.62 1.86 13.02
12/12/2021 4:00:00 PM 3.89 39.002 0.069 7.58 1.87 12.97
12/12/2021 4:15:00 PM 3.85 38.93 0.069 7.54 1.85 12.9
12/12/2021 4:30:00 PM 3.81 38.858 0.07 7.49 1.85 12.83
12/12/2021 4:45:00 PM 3.78 38.804 0.07 7.45 1.86 12.76
12/12/2021 5:00:00 PM 3.74 38.732 0.07 7.42 1.84 12.71
12/12/2021 5:15:00 PM 3.7 38.66 0.07 7.38 1.86 12.66
12/12/2021 5:30:00 PM 3.66 38.588 0.07 7.36 1.86 12.64
12/12/2021 5:45:00 PM 3.61 38.498 0.07 7.35 1.89 12.63
12/12/2021 6:00:00 PM 3.56 38.408 0.07 7.33 1.86 12.63
12/12/2021 6:15:00 PM 3.51 38.318 0.07 7.32 1.83 12.64
12/12/2021 6:30:00 PM 3.45 38.21 0.07 7.31 1.87 12.65
12/12/2021 6:45:00 PM 3.39 38.102 0.071 7.31 1.9 12.67
12/12/2021 7:00:00 PM 3.32 37.976 0.071 7.3 1.86 12.69
12/12/2021 7:15:00 PM 3.27 37.886 0.071 7.3 1.85 12.71
12/12/2021 7:30:00 PM 3.21 37.778 0.071 7.29 1.84 12.72
12/12/2021 7:45:00 PM 3.16 37.688 0.071 7.29 1.87 12.74
12/12/2021 8:00:00 PM 3.11 37.598 0.071 7.29 1.86 12.76
12/12/2021 8:15:00 PM 3.06 37.508 0.071 7.28 1.9 12.78
12/12/2021 8:30:00 PM 3.01 37.418 0.071 7.28 1.83 12.8
12/12/2021 8:45:00 PM 2.96 37.328 0.071 7.28 1.87 12.82
12/12/2021 9:00:00 PM 2.91 37.238 0.071 7.28 1.84 12.83
12/12/2021 9:15:00 PM 2.87 37.166 0.071 7.28 1.88 12.85
12/12/2021 9:30:00 PM 2.83 37.094 0.071 7.27 1.88 12.87
12/12/2021 9:45:00 PM 2.78 37.004 0.071 7.27 1.83 12.89
12/12/2021 10:00:00 PM 2.74 36.932 0.071 7.27 1.85 12.91
12/12/2021 10:15:00 PM 2.7 36.86 0.071 7.27 1.84 12.92
12/12/2021 10:30:00 PM 2.66 36.788 0.071 7.27 1.82 12.92
12/12/2021 10:45:00 PM 2.62 36.716 0.071 7.27 1.79 12.94
12/12/2021 11:00:00 PM 2.58 36.644 0.071 7.27 1.86 12.96
12/12/2021 11:15:00 PM 2.55 36.59 0.071 7.27 1.81 12.97
12/12/2021 11:30:00 PM 2.51 36.518 0.071 7.27 1.84 12.99
12/12/2021 11:45:00 PM 2.47 36.446 0.071 7.27 1.86 13
12/13/2021 12:00:00 AM 2.43 36.374 0.071 7.26 1.84 13.01
12/13/2021 12:15:00 AM 2.39 36.302 0.071 7.26 1.86 13.02
12/13/2021 12:30:00 AM 2.36 36.248 0.071 7.27 1.83 13.04
12/13/2021 12:45:00 AM 2.33 36.194 0.071 7.26 1.82 13.06
12/13/2021 1:00:00 AM 2.3 36.14 0.071 7.26 1.81 13.07
12/13/2021 1:15:00 AM 2.27 36.086 0.071 7.26 1.79 13.08
12/13/2021 1:30:00 AM 2.24 36.032 0.071 7.26 1.79 13.09
12/13/2021 1:45:00 AM 2.22 35.996 0.071 7.26 1.76 13.1
12/13/2021 2:00:00 AM 2.21 35.978 0.071 7.26 1.79 13.11
12/13/2021 2:15:00 AM 2.2 35.96 0.072 7.26 1.82 13.12
12/13/2021 2:30:00 AM 2.2 35.96 0.072 7.26 1.79 13.13
12/13/2021 2:45:00 AM 2.2 35.96 0.072 7.25 1.7 13.14
12/13/2021 3:00:00 AM 2.19 35.942 0.072 7.26 1.77 13.14
12/13/2021 3:15:00 AM 2.18 35.924 0.071 7.25 1.77 13.14
12/13/2021 3:30:00 AM 2.17 35.906 0.071 7.26 1.82 13.14
12/13/2021 3:45:00 AM 2.17 35.906 0.071 7.26 1.76 13.15
12/13/2021 4:00:00 AM 2.16 35.888 0.071 7.25 1.77 13.15
12/13/2021 4:15:00 AM 2.15 35.87 0.071 7.25 1.73 13.15
12/13/2021 4:30:00 AM 2.15 35.87 0.071 7.25 1.75 13.16
12/13/2021 4:45:00 AM 2.14 35.852 0.071 7.25 1.75 13.16
12/13/2021 5:00:00 AM 2.14 35.852 0.071 7.25 1.72 13.16
12/13/2021 5:15:00 AM 2.15 35.87 0.071 7.25 1.71 13.15
12/13/2021 5:30:00 AM 2.16 35.888 0.071 7.25 1.64 13.15
12/13/2021 5:45:00 AM 2.17 35.906 0.071 7.25 1.69 13.15
12/13/2021 6:00:00 AM 2.18 35.924 0.071 7.25 1.72 13.14
12/13/2021 6:15:00 AM 2.19 35.942 0.071 7.25 1.71 13.14
12/13/2021 6:30:00 AM 2.2 35.96 0.071 7.24 1.7 13.14
12/13/2021 6:45:00 AM 2.21 35.978 0.071 7.25 1.69 13.13
12/13/2021 7:00:00 AM 2.21 35.978 0.071 7.25 1.67 13.13
12/13/2021 7:15:00 AM 2.23 36.014 0.071 7.25 1.6 13.13
12/13/2021 7:30:00 AM 2.24 36.032 0.071 7.25 1.67 13.13
12/13/2021 7:45:00 AM 2.26 36.068 0.071 7.26 1.64 13.16
12/13/2021 8:00:00 AM 2.29 36.122 0.071 7.27 1.6 13.21
12/13/2021 8:15:00 AM 2.32 36.176 0.071 7.28 1.66 13.27
12/13/2021 8:30:00 AM 2.35 36.23 0.071 7.32 1.67 13.35
12/13/2021 8:45:00 AM 2.39 36.302 0.071 7.36 1.69 13.49
12/13/2021 9:00:00 AM 2.44 36.392 0.071 7.42 1.61 13.62
12/13/2021 9:15:00 AM 2.49 36.482 0.07 7.48 1.62 13.74
12/13/2021 9:30:00 AM 2.56 36.608 0.07 7.54 1.6 13.84
12/13/2021 9:45:00 AM 2.64 36.752 0.07 7.61 1.62 13.93
12/13/2021 10:00:00 AM 2.71 36.878 0.07 7.67 1.59 13.96
12/13/2021 10:15:00 AM 2.79 37.022 0.07 7.74 1.61 13.98
12/13/2021 10:30:00 AM 2.89 37.202 0.07 7.8 1.62 14.01
12/13/2021 10:45:00 AM 3 37.4 0.07 7.85 1.56 14
12/13/2021 11:00:00 AM 3.12 37.616 0.069 7.94 1.55 13.98
12/13/2021 11:15:00 AM 3.24 37.832 0.069 7.98 1.53 13.96
12/13/2021 11:30:00 AM 3.36 38.048 0.069 8.04 1.56 13.93
12/13/2021 11:45:00 AM 3.47 38.246 0.069 8.09 1.59 13.9
12/13/2021 12:00:00 PM 3.57 38.426 0.069 8.14 1.55 13.85
12/13/2021 12:15:00 PM 3.66 38.588 0.069 8.15 1.65 13.81
12/13/2021 12:30:00 PM 3.72 38.696 0.069 8.14 1.66 13.76
12/13/2021 12:45:00 PM 3.78 38.804 0.069 8.14 1.61 13.7
12/13/2021 1:00:00 PM 3.83 38.894 0.069 8.12 1.56 13.65
12/13/2021 1:15:00 PM 3.87 38.966 0.069 8.11 1.65 13.59
12/13/2021 1:30:00 PM 3.91 39.038 0.069 8.06 1.59 13.55
12/13/2021 1:45:00 PM 3.94 39.092 0.069 8.04 1.63 13.5
12/13/2021 2:00:00 PM 3.97 39.146 0.069 7.99 1.58 13.44
12/13/2021 2:15:00 PM 3.99 39.182 0.069 7.95 1.61 13.39
12/13/2021 2:30:00 PM 4.01 39.218 0.069 7.9 1.54 13.33
12/13/2021 2:45:00 PM 4.02 39.236 0.069 7.85 1.56 13.26
12/13/2021 3:00:00 PM 4.02 39.236 0.069 7.78 1.53 13.19
12/13/2021 3:15:00 PM 4.02 39.236 0.069 7.73 1.55 13.11
12/13/2021 3:30:00 PM 4.02 39.236 0.069 7.67 1.53 13.05
12/13/2021 3:45:00 PM 4.01 39.218 0.069 7.63 1.58 13.01
12/13/2021 4:00:00 PM 4 39.2 0.069 7.59 1.45 12.94
12/13/2021 4:15:00 PM 3.98 39.164 0.069 7.55 1.5 12.88
12/13/2021 4:30:00 PM 3.96 39.128 0.069 7.5 1.48 12.79
12/13/2021 4:45:00 PM 3.94 39.092 0.069 7.45 1.54 12.71
12/13/2021 5:00:00 PM 3.92 39.056 0.069 7.42 1.52 12.64
12/13/2021 5:15:00 PM 3.89 39.002 0.07 7.39 1.53 12.59
12/13/2021 5:30:00 PM 3.86 38.948 0.07 7.37 1.55 12.56
12/13/2021 5:45:00 PM 3.82 38.876 0.07 7.35 1.52 12.54
12/13/2021 6:00:00 PM 3.78 38.804 0.07 7.34 1.52 12.53
12/13/2021 6:15:00 PM 3.74 38.732 0.07 7.31 1.54 12.52
12/13/2021 6:30:00 PM 3.7 38.66 0.07 7.3 1.58 12.52
12/13/2021 6:45:00 PM 3.65 38.57 0.07 7.3 1.55 12.55
12/13/2021 7:00:00 PM 3.6 38.48 0.071 7.29 1.53 12.56
12/13/2021 7:15:00 PM 3.54 38.372 0.071 7.29 1.61 12.58
12/13/2021 7:30:00 PM 3.49 38.282 0.071 7.29 1.53 12.6
12/13/2021 7:45:00 PM 3.45 38.21 0.071 7.27 1.52 12.61
12/13/2021 8:00:00 PM 3.39 38.102 0.071 7.28 1.56 12.64
12/13/2021 8:15:00 PM 3.34 38.012 0.071 7.28 1.55 12.66
12/13/2021 8:30:00 PM 3.29 37.922 0.071 7.27 1.55 12.68
12/13/2021 8:45:00 PM 3.24 37.832 0.071 7.28 1.6 12.7
12/13/2021 9:00:00 PM 3.2 37.76 0.071 7.28 1.64 12.72
12/13/2021 9:15:00 PM 3.16 37.688 0.071 7.28 1.6 12.73
12/13/2021 9:30:00 PM 3.12 37.616 0.071 7.27 1.65 12.75
12/13/2021 9:45:00 PM 3.07 37.526 0.071 7.27 1.76 12.77
12/13/2021 10:00:00 PM 3.03 37.454 0.071 7.26 1.76 12.78
12/13/2021 10:15:00 PM 2.99 37.382 0.071 7.26 1.79 12.79
12/13/2021 10:30:00 PM 2.95 37.31 0.071 7.26 1.85 12.81
12/13/2021 10:45:00 PM 2.9 37.22 0.071 7.26 1.73 12.83
12/13/2021 11:00:00 PM 2.87 37.166 0.071 7.26 1.77 12.84
12/13/2021 11:15:00 PM 2.83 37.094 0.071 7.26 1.72 12.86
12/13/2021 11:30:00 PM 2.79 37.022 0.072 7.25 1.73 12.87
12/13/2021 11:45:00 PM 2.76 36.968 0.072 7.25 1.74 12.9
12/14/2021 12:00:00 AM 2.73 36.914 0.072 7.24 1.61 12.9
12/14/2021 12:15:00 AM 2.69 36.842 0.072 7.24 1.65 12.92
12/14/2021 12:30:00 AM 2.65 36.77 0.072 7.25 1.59 12.93
12/14/2021 12:45:00 AM 2.61 36.698 0.072 7.24 1.61 12.95
12/14/2021 1:00:00 AM 2.58 36.644 0.072 7.25 1.61 12.97
12/14/2021 1:15:00 AM 2.54 36.572 0.072 7.25 1.56 12.98
12/14/2021 1:30:00 AM 2.51 36.518 0.071 7.25 1.61 13
12/14/2021 1:45:00 AM 2.47 36.446 0.071 7.25 1.55 13.01
12/14/2021 2:00:00 AM 2.43 36.374 0.071 7.25 1.57 13.03
12/14/2021 2:15:00 AM 2.4 36.32 0.071 7.25 1.59 13.05
12/14/2021 2:30:00 AM 2.36 36.248 0.071 7.25 1.6 13.06
12/14/2021 2:45:00 AM 2.33 36.194 0.071 7.25 1.62 13.08
12/14/2021 3:00:00 AM 2.29 36.122 0.071 7.25 1.59 13.1
12/14/2021 3:15:00 AM 2.26 36.068 0.071 7.25 1.55 13.11
12/14/2021 3:30:00 AM 2.23 36.014 0.071 7.25 1.6 13.13
12/14/2021 3:45:00 AM 2.19 35.942 0.071 7.25 1.58 13.14
12/14/2021 4:00:00 AM 2.16 35.888 0.071 7.24 1.56 13.15
12/14/2021 4:15:00 AM 2.14 35.852 0.071 7.23 1.58 13.16
12/14/2021 4:30:00 AM 2.1 35.78 0.071 7.24 1.54 13.18
12/14/2021 4:45:00 AM 2.07 35.726 0.072 7.23 1.57 13.19
12/14/2021 5:00:00 AM 2.05 35.69 0.072 7.23 1.57 13.2
12/14/2021 5:15:00 AM 2.02 35.636 0.072 7.23 1.58 13.21
12/14/2021 5:30:00 AM 1.99 35.582 0.072 7.23 1.59 13.22
12/14/2021 5:45:00 AM 1.97 35.546 0.072 7.23 1.61 13.23
12/14/2021 6:00:00 AM 1.94 35.492 0.072 7.23 1.61 13.25
12/14/2021 6:15:00 AM 1.92 35.456 0.072 7.23 1.57 13.25
12/14/2021 6:30:00 AM 1.9 35.42 0.072 7.22 1.56 13.26
12/14/2021 6:45:00 AM 1.87 35.366 0.072 7.23 1.59 13.28
12/14/2021 7:00:00 AM 1.84 35.312 0.072 7.23 1.57 13.29
12/14/2021 7:15:00 AM 1.83 35.294 0.072 7.22 1.61 13.31
12/14/2021 7:30:00 AM 1.83 35.294 0.072 7.24 1.63 13.35
12/14/2021 7:45:00 AM 1.83 35.294 0.072 7.24 1.61 13.39
12/14/2021 8:00:00 AM 1.84 35.312 0.072 7.26 1.6 13.46
12/14/2021 8:15:00 AM 1.84 35.312 0.071 7.28 1.59 13.58
12/14/2021 8:30:00 AM 1.86 35.348 0.071 7.32 1.59 13.71
12/14/2021 8:45:00 AM 1.9 35.42 0.071 7.35 1.61 13.83
12/14/2021 9:00:00 AM 1.92 35.456 0.071 7.42 1.56 13.99
12/14/2021 9:15:00 AM 1.99 35.582 0.07 7.47 1.6 14.14
12/14/2021 9:30:00 AM 2.06 35.708 0.07 7.55 1.58 14.26
12/14/2021 9:45:00 AM 2.14 35.852 0.07 7.64 1.55 14.37
12/14/2021 10:00:00 AM 2.23 36.014 0.07 7.72 1.59 14.41
12/14/2021 10:15:00 AM 2.34 36.212 0.07 7.8 1.58 14.43
12/14/2021 10:30:00 AM 2.45 36.41 0.07 7.91 1.57 14.46
12/14/2021 10:45:00 AM 2.57 36.626 0.069 8.01 1.58 14.48
12/14/2021 11:00:00 AM 2.67 36.806 0.069 8.09 1.54 14.46
12/14/2021 11:15:00 AM 2.75 36.95 0.069 8.11 1.54 14.39
12/14/2021 11:30:00 AM 2.87 37.166 0.069 8.16 1.53 14.34
12/14/2021 11:45:00 AM 3 37.4 0.069 8.18 1.49 14.28
12/14/2021 12:00:00 PM 3.14 37.652 0.069 8.21 1.45 14.19
12/14/2021 12:15:00 PM 3.22 37.796 0.069 8.23 1.5 14.16
12/14/2021 12:30:00 PM 3.31 37.958 0.068 8.21 1.54 14.1
12/14/2021 12:45:00 PM 3.39 38.102 0.068 8.23 1.5 14.04
12/14/2021 1:00:00 PM 3.47 38.246 0.068 8.22 1.55 13.98
12/14/2021 1:15:00 PM 3.55 38.39 0.068 8.18 1.53 13.91
12/14/2021 1:30:00 PM 3.6 38.48 0.068 8.15 1.59 13.85
12/14/2021 1:45:00 PM 3.65 38.57 0.068 8.13 1.62 13.8
12/14/2021 2:00:00 PM 3.69 38.642 0.068 8.1 1.52 13.75
12/14/2021 2:15:00 PM 3.71 38.678 0.068 8.05 1.53 13.69
12/14/2021 2:30:00 PM 3.72 38.696 0.068 7.97 1.59 13.62
12/14/2021 2:45:00 PM 3.72 38.696 0.068 7.89 1.65 13.56
12/14/2021 3:00:00 PM 3.72 38.696 0.068 7.82 1.6 13.49
12/14/2021 3:15:00 PM 3.71 38.678 0.068 7.74 1.57 13.4
12/14/2021 3:30:00 PM 3.7 38.66 0.068 7.69 1.6 13.34
12/14/2021 3:45:00 PM 3.7 38.66 0.068 7.65 1.52 13.29
12/14/2021 4:00:00 PM 3.7 38.66 0.068 7.61 1.51 13.23
12/14/2021 4:15:00 PM 3.69 38.642 0.069 7.55 1.57 13.15
12/14/2021 4:30:00 PM 3.67 38.606 0.069 7.49 1.52 13.05
12/14/2021 4:45:00 PM 3.65 38.57 0.069 7.46 1.53 12.96
12/14/2021 5:00:00 PM 3.63 38.534 0.069 7.41 1.49 12.89
12/14/2021 5:15:00 PM 3.6 38.48 0.069 7.37 1.47 12.83
12/14/2021 5:30:00 PM 3.56 38.408 0.069 7.35 1.48 12.8
12/14/2021 5:45:00 PM 3.53 38.354 0.069 7.32 1.52 12.77
12/14/2021 6:00:00 PM 3.49 38.282 0.07 7.33 1.51 12.77
12/14/2021 6:15:00 PM 3.45 38.21 0.07 7.3 1.51 12.76
12/14/2021 6:30:00 PM 3.41 38.138 0.07 7.3 1.44 12.77
12/14/2021 6:45:00 PM 3.36 38.048 0.07 7.29 1.5 12.78
12/14/2021 7:00:00 PM 3.31 37.958 0.07 7.28 1.51 12.79
12/14/2021 7:15:00 PM 3.26 37.868 0.07 7.28 1.51 12.82
12/14/2021 7:30:00 PM 3.2 37.76 0.07 7.28 1.52 12.84
12/14/2021 7:45:00 PM 3.16 37.688 0.07 7.27 1.61 12.86
12/14/2021 8:00:00 PM 3.11 37.598 0.071 7.27 1.55 12.88
12/14/2021 8:15:00 PM 3.06 37.508 0.071 7.26 1.52 12.9
12/14/2021 8:30:00 PM 3.01 37.418 0.071 7.27 1.5 12.91
12/14/2021 8:45:00 PM 2.97 37.346 0.071 7.26 1.55 12.94
12/14/2021 9:00:00 PM 2.93 37.274 0.071 7.26 1.51 12.94
12/14/2021 9:15:00 PM 2.88 37.184 0.071 7.26 1.52 12.96
12/14/2021 9:30:00 PM 2.84 37.112 0.071 7.26 1.61 12.99
12/14/2021 9:45:00 PM 2.8 37.04 0.071 7.25 1.63 13
12/14/2021 10:00:00 PM 2.75 36.95 0.071 7.25 1.93 13.02
12/14/2021 10:15:00 PM 2.71 36.878 0.071 7.25 2.32 13.04
12/14/2021 10:30:00 PM 2.67 36.806 0.071 7.25 2.75 13.05
12/14/2021 10:45:00 PM 2.64 36.752 0.071 7.24 3.19 13.06
12/14/2021 11:00:00 PM 2.59 36.662 0.071 7.25 3.13 13.09
12/14/2021 11:15:00 PM 2.54 36.572 0.071 7.24 3.04 13.09
12/14/2021 11:30:00 PM 2.5 36.5 0.071 7.16 2.75 13.11
12/14/2021 11:45:00 PM 2.45 36.41 0.071 7.21 2.54 13.14
12/15/2021 12:00:00 AM 2.41 36.338 0.071 7.22 2.23 13.14
12/15/2021 12:15:00 AM 2.36 36.248 0.071 7.23 2.11 13.17
12/15/2021 12:30:00 AM 2.33 36.194 0.072 7.21 1.91 13.18
12/15/2021 12:45:00 AM 2.27 36.086 0.072 7.22 1.85 13.21
12/15/2021 1:00:00 AM 2.24 36.032 0.072 7.21 1.78 13.21
12/15/2021 1:15:00 AM 2.19 35.942 0.072 7.22 1.76 13.23
12/15/2021 1:30:00 AM 2.17 35.906 0.072 7.21 1.74 13.24
12/15/2021 1:45:00 AM 2.12 35.816 0.072 7.22 1.73 13.27
12/15/2021 2:00:00 AM 2.09 35.762 0.072 7.22 1.8 13.28
12/15/2021 2:15:00 AM 2.04 35.672 0.072 7.23 1.79 13.3
12/15/2021 2:30:00 AM 2.01 35.618 0.072 7.22 1.8 13.31
12/15/2021 2:45:00 AM 1.96 35.528 0.072 7.22 1.81 13.33
12/15/2021 3:00:00 AM 1.94 35.492 0.072 7.21 1.77 13.33
12/15/2021 3:15:00 AM 1.89 35.402 0.072 7.23 1.72 13.36
12/15/2021 3:30:00 AM 1.86 35.348 0.072 7.22 1.65 13.37
12/15/2021 3:45:00 AM 1.83 35.294 0.072 7.22 1.64 13.37
12/15/2021 4:00:00 AM 1.8 35.24 0.072 7.22 1.64 13.4
12/15/2021 4:15:00 AM 1.78 35.204 0.072 7.22 1.57 13.41
12/15/2021 4:30:00 AM 1.76 35.168 0.072 7.23 1.6 13.41
12/15/2021 4:45:00 AM 1.73 35.114 0.072 7.22 1.56 13.42
12/15/2021 5:00:00 AM 1.71 35.078 0.072 7.22 1.54 13.43
12/15/2021 5:15:00 AM 1.69 35.042 0.072 7.23 1.59 13.44
12/15/2021 5:30:00 AM 1.68 35.024 0.072 7.22 1.55 13.45
12/15/2021 5:45:00 AM 1.67 35.006 0.072 7.21 1.57 13.44
12/15/2021 6:00:00 AM 1.65 34.97 0.072 7.22 1.52 13.46
12/15/2021 6:15:00 AM 1.63 34.934 0.072 7.22 1.53 13.47
12/15/2021 6:30:00 AM 1.62 34.916 0.072 7.23 1.54 13.48
12/15/2021 6:45:00 AM 1.61 34.898 0.072 7.23 1.53 13.48
12/15/2021 7:00:00 AM 1.61 34.898 0.072 7.22 1.51 13.47
12/15/2021 7:15:00 AM 1.61 34.898 0.072 7.22 1.52 13.48
12/15/2021 7:30:00 AM 1.6 34.88 0.072 7.24 1.53 13.5
12/15/2021 7:45:00 AM 1.61 34.898 0.072 7.25 1.51 13.52
12/15/2021 8:00:00 AM 1.64 34.952 0.072 7.27 1.51 13.58
12/15/2021 8:15:00 AM 1.67 35.006 0.071 7.3 1.48 13.71
12/15/2021 8:30:00 AM 1.71 35.078 0.071 7.36 1.5 13.88
12/15/2021 8:45:00 AM 1.75 35.15 0.071 7.41 1.5 14.01
12/15/2021 9:00:00 AM 1.81 35.258 0.071 7.47 1.48 14.16
12/15/2021 9:15:00 AM 1.86 35.348 0.071 7.53 1.47 14.28
12/15/2021 9:30:00 AM 1.9 35.42 0.071 7.61 1.47 14.39
12/15/2021 9:45:00 AM 1.95 35.51 0.07 7.71 1.45 14.49
12/15/2021 10:00:00 AM 2.01 35.618 0.07 7.78 1.49 14.54
12/15/2021 10:15:00 AM 2.07 35.726 0.07 7.9 1.49 14.58
12/15/2021 10:30:00 AM 2.13 35.834 0.07 7.99 1.48 14.61
12/15/2021 10:45:00 AM 2.19 35.942 0.07 8.06 1.43 14.61
12/15/2021 11:00:00 AM 2.27 36.086 0.07 8.2 1.47 14.63
12/15/2021 11:15:00 AM 2.36 36.248 0.07 8.29 1.44 14.62
12/15/2021 11:30:00 AM 2.45 36.41 0.069 8.39 1.46 14.6
12/15/2021 11:45:00 AM 2.51 36.518 0.069 8.36 1.47 14.5
12/15/2021 12:00:00 PM 2.58 36.644 0.069 8.22 1.42 14.35
12/15/2021 12:15:00 PM 2.64 36.752 0.069 8.29 1.46 14.33
12/15/2021 12:30:00 PM 2.72 36.896 0.069 8.31 1.45 14.31
12/15/2021 12:45:00 PM 2.79 37.022 0.069 8.31 1.38 14.25
12/15/2021 1:00:00 PM 2.83 37.094 0.069 8.16 1.44 14.1
12/15/2021 1:15:00 PM 2.87 37.166 0.069 8.07 1.43 14.01
12/15/2021 1:30:00 PM 2.92 37.256 0.069 8.06 1.44 13.99
12/15/2021 1:45:00 PM 2.96 37.328 0.069 7.98 1.45 13.91
12/15/2021 2:00:00 PM 3.01 37.418 0.069 7.84 1.45 13.75
12/15/2021 2:15:00 PM 3.03 37.454 0.069 7.74 1.5 13.63
12/15/2021 2:30:00 PM 3.05 37.49 0.069 7.66 1.47 13.51
12/15/2021 2:45:00 PM 3.09 37.562 0.069 7.61 1.48 13.43
12/15/2021 3:00:00 PM 3.13 37.634 0.069 7.56 1.5 13.35
12/15/2021 3:15:00 PM 3.15 37.67 0.069 7.54 1.55 13.28
12/15/2021 3:30:00 PM 3.19 37.742 0.069 7.5 1.56 13.19
12/15/2021 3:45:00 PM 3.22 37.796 0.069 7.45 1.56 13.11
12/15/2021 4:00:00 PM 3.26 37.868 0.069 7.41 1.52 13.04
12/15/2021 4:15:00 PM 3.29 37.922 0.069 7.4 1.68 12.99
12/15/2021 4:30:00 PM 3.33 37.994 0.07 7.37 1.62 12.92
12/15/2021 4:45:00 PM 3.36 38.048 0.07 7.36 1.69 12.87
12/15/2021 5:00:00 PM 3.38 38.084 0.07 7.34 1.65 12.83
12/15/2021 5:15:00 PM 3.41 38.138 0.07 7.33 1.76 12.78
12/15/2021 5:30:00 PM 3.43 38.174 0.07 7.33 1.91 12.76
12/15/2021 5:45:00 PM 3.46 38.228 0.07 7.31 1.94 12.72
12/15/2021 6:00:00 PM 3.48 38.264 0.07 7.3 1.94 12.71
12/15/2021 6:15:00 PM 3.51 38.318 0.07 7.3 1.97 12.68
12/15/2021 6:30:00 PM 3.54 38.372 0.07 7.29 2.05 12.66
12/15/2021 6:45:00 PM 3.57 38.426 0.07 7.28 2.24 12.65
12/15/2021 7:00:00 PM 3.6 38.48 0.07 7.29 2.49 12.63
12/15/2021 7:15:00 PM 3.64 38.552 0.07 7.28 2.67 12.61
12/15/2021 7:30:00 PM 3.66 38.588 0.07 7.29 2.76 12.6
12/15/2021 7:45:00 PM 3.69 38.642 0.07 7.28 2.82 12.59
12/15/2021 8:00:00 PM 3.72 38.696 0.07 7.28 2.66 12.58
12/15/2021 8:15:00 PM 3.75 38.75 0.07 7.29 2.54 12.57
12/15/2021 8:30:00 PM 3.78 38.804 0.07 7.29 2.43 12.56
12/15/2021 8:45:00 PM 3.8 38.84 0.07 7.28 2.39 12.54
12/15/2021 9:00:00 PM 3.84 38.912 0.071 7.29 2.28 12.53
12/15/2021 9:15:00 PM 3.87 38.966 0.071 7.29 2.33 12.52
12/15/2021 9:30:00 PM 3.89 39.002 0.071 7.29 2.34 12.51
12/15/2021 9:45:00 PM 3.92 39.056 0.071 7.29 2.39 12.49
12/15/2021 10:00:00 PM 3.95 39.11 0.071 7.29 2.37 12.49
12/15/2021 10:15:00 PM 3.98 39.164 0.071 7.29 2.29 12.47
12/15/2021 10:30:00 PM 4.02 39.236 0.071 7.29 2.36 12.45
12/15/2021 10:45:00 PM 4.06 39.308 0.071 7.29 2.27 12.44
12/15/2021 11:00:00 PM 4.09 39.362 0.071 7.3 2.25 12.42
12/15/2021 11:15:00 PM 4.12 39.416 0.071 7.3 2.17 12.41
12/15/2021 11:30:00 PM 4.16 39.488 0.071 7.29 2.14 12.39
12/15/2021 11:45:00 PM 4.19 39.542 0.071 7.29 2.28 12.38
12/16/2021 12:00:00 AM 4.23 39.614 0.071 7.29 2.29 12.36
12/16/2021 12:15:00 AM 4.26 39.668 0.071 7.3 2.39 12.35
12/16/2021 12:30:00 AM 4.27 39.686 0.071 7.29 2.46 12.34
12/16/2021 12:45:00 AM 4.3 39.74 0.071 7.29 2.4 12.33
12/16/2021 1:00:00 AM 4.33 39.794 0.071 7.29 2.37 12.31
12/16/2021 1:15:00 AM 4.35 39.83 0.071 7.29 2.3 12.3
12/16/2021 1:30:00 AM 4.38 39.884 0.071 7.29 2.19 12.29
12/16/2021 1:45:00 AM 4.41 39.938 0.071 7.29 2.1 12.28
12/16/2021 2:00:00 AM 4.45 40.01 0.071 7.28 2 12.26
12/16/2021 2:15:00 AM 4.48 40.064 0.072 7.28 2 12.25
12/16/2021 2:30:00 AM 4.51 40.118 0.071 7.28 1.93 12.23
12/16/2021 2:45:00 AM 4.53 40.154 0.071 7.28 1.92 12.22
12/16/2021 3:00:00 AM 4.54 40.172 0.071 7.28 1.88 12.21
12/16/2021 3:15:00 AM 4.56 40.208 0.071 7.28 1.85 12.2
12/16/2021 3:30:00 AM 4.59 40.262 0.071 7.28 1.86 12.2
12/16/2021 3:45:00 AM 4.61 40.298 0.071 7.27 1.84 12.18
12/16/2021 4:00:00 AM 4.61 40.298 0.071 7.28 1.83 12.19
12/16/2021 4:15:00 AM 4.63 40.334 0.071 7.28 1.75 12.18
12/16/2021 4:30:00 AM 4.66 40.388 0.071 7.28 1.82 12.17
12/16/2021 4:45:00 AM 4.68 40.424 0.071 7.27 1.75 12.15
12/16/2021 5:00:00 AM 4.69 40.442 0.071 7.26 1.74 12.15
12/16/2021 5:15:00 AM 4.7 40.46 0.071 7.28 1.7 12.14
12/16/2021 5:30:00 AM 4.71 40.478 0.071 7.27 1.75 12.14
12/16/2021 5:45:00 AM 4.72 40.496 0.071 7.27 1.72 12.13
12/16/2021 6:00:00 AM 4.73 40.514 0.071 7.27 1.65 12.13
12/16/2021 6:15:00 AM 4.74 40.532 0.071 7.26 1.62 12.11
12/16/2021 6:30:00 AM 4.75 40.55 0.071 7.27 1.67 12.12
12/16/2021 6:45:00 AM 4.77 40.586 0.071 7.25 1.65 12.1
12/16/2021 7:00:00 AM 4.79 40.622 0.071 7.25 1.65 12.09
12/16/2021 7:15:00 AM 4.79 40.622 0.071 7.26 1.63 12.1
12/16/2021 7:30:00 AM 4.8 40.64 0.071 7.25 1.6 12.11
12/16/2021 7:45:00 AM 4.82 40.676 0.071 7.27 1.62 12.15
12/16/2021 8:00:00 AM 4.85 40.73 0.071 7.29 1.59 12.21
12/16/2021 8:15:00 AM 4.87 40.766 0.071 7.31 1.6 12.29
12/16/2021 8:30:00 AM 4.89 40.802 0.071 7.35 1.58 12.42
12/16/2021 8:45:00 AM 4.92 40.856 0.07 7.4 1.54 12.57
12/16/2021 9:00:00 AM 4.96 40.928 0.07 7.48 1.58 12.75
12/16/2021 9:15:00 AM 5 41 0.07 7.57 1.52 12.9
12/16/2021 9:30:00 AM 5.03 41.054 0.07 7.64 1.53 12.99
12/16/2021 9:45:00 AM 5.08 41.144 0.07 7.72 1.54 13.08
12/16/2021 10:00:00 AM 5.17 41.306 0.07 7.91 1.54 13.21
12/16/2021 10:15:00 AM 5.26 41.468 0.069 8.09 1.5 13.28
12/16/2021 10:30:00 AM 5.35 41.63 0.069 8.28 1.5 13.34
12/16/2021 10:45:00 AM 5.43 41.774 0.069 8.45 1.47 13.37
12/16/2021 11:00:00 AM 5.55 41.99 0.069 8.56 1.54 13.37
12/16/2021 11:15:00 AM 5.67 42.206 0.069 8.67 1.5 13.36
12/16/2021 11:30:00 AM 5.78 42.404 0.069 8.75 1.46 13.33
12/16/2021 11:45:00 AM 5.88 42.584 0.069 8.82 1.48 13.31
12/16/2021 12:00:00 PM 5.99 42.782 0.069 8.87 1.46 13.28
12/16/2021 12:15:00 PM 6.09 42.962 0.068 8.89 1.48 13.23
12/16/2021 12:30:00 PM 6.19 43.142 0.068 8.92 1.51 13.18
12/16/2021 12:45:00 PM 6.24 43.232 0.068 8.93 1.41 13.12
12/16/2021 1:00:00 PM 6.3 43.34 0.068 8.97 1.48 13.1
12/16/2021 1:15:00 PM 6.36 43.448 0.068 9 1.5 13.05
12/16/2021 1:30:00 PM 6.41 43.538 0.068 9 1.49 12.99
12/16/2021 1:45:00 PM 6.46 43.628 0.068 9.05 1.49 12.97
12/16/2021 2:00:00 PM 6.51 43.718 0.067 9.06 1.48 12.92
12/16/2021 2:15:00 PM 6.55 43.79 0.067 9.06 1.43 12.86
12/16/2021 2:30:00 PM 6.58 43.844 0.067 9.07 1.48 12.81
12/16/2021 2:45:00 PM 6.64 43.952 0.067 9.07 1.45 12.74
12/16/2021 3:00:00 PM 6.67 44.006 0.067 9.04 1.43 12.67
12/16/2021 3:15:00 PM 6.7 44.06 0.067 9.03 1.47 12.6
12/16/2021 3:30:00 PM 6.71 44.078 0.067 9.01 1.49 12.53
12/16/2021 3:45:00 PM 6.72 44.096 0.067 8.93 1.48 12.41
12/16/2021 4:00:00 PM 6.72 44.096 0.067 8.76 1.51 12.27
12/16/2021 4:15:00 PM 6.71 44.078 0.068 8.53 1.45 12.11
12/16/2021 4:30:00 PM 6.69 44.042 0.068 8.2 1.5 11.95
12/16/2021 4:45:00 PM 6.68 44.024 0.068 7.86 1.5 11.79
12/16/2021 5:00:00 PM 6.66 43.988 0.068 7.7 1.47 11.68
12/16/2021 5:15:00 PM 6.63 43.934 0.069 7.58 1.53 11.61
12/16/2021 5:30:00 PM 6.61 43.898 0.069 7.5 1.56 11.54
12/16/2021 5:45:00 PM 6.58 43.844 0.07 7.45 1.51 11.51
12/16/2021 6:00:00 PM 6.55 43.79 0.07 7.43 1.49 11.49
12/16/2021 6:15:00 PM 6.54 43.772 0.07 7.4 1.5 11.47
12/16/2021 6:30:00 PM 6.53 43.754 0.07 7.38 1.54 11.46
12/16/2021 6:45:00 PM 6.52 43.736 0.07 7.37 1.5 11.46
12/16/2021 7:00:00 PM 6.52 43.736 0.071 7.37 1.5 11.45
12/16/2021 7:15:00 PM 6.52 43.736 0.071 7.35 1.48 11.46
12/16/2021 7:30:00 PM 6.52 43.736 0.071 7.33 1.51 11.45
12/16/2021 7:45:00 PM 6.52 43.736 0.071 7.34 1.52 11.45
12/16/2021 8:00:00 PM 6.52 43.736 0.071 7.34 1.49 11.46
12/16/2021 8:15:00 PM 6.53 43.754 0.071 7.33 1.54 11.45
12/16/2021 8:30:00 PM 6.54 43.772 0.071 7.32 1.51 11.43
12/16/2021 8:45:00 PM 6.55 43.79 0.071 7.31 1.52 11.43
12/16/2021 9:00:00 PM 6.54 43.772 0.071 7.32 1.51 11.44
12/16/2021 9:15:00 PM 6.53 43.754 0.071 7.31 1.58 11.43
12/16/2021 9:30:00 PM 6.52 43.736 0.071 7.31 1.56 11.44
12/16/2021 9:45:00 PM 6.52 43.736 0.071 7.3 1.53 11.43
12/16/2021 10:00:00 PM 6.52 43.736 0.071 7.3 1.49 11.44
12/16/2021 10:15:00 PM 6.53 43.754 0.071 7.29 1.5 11.42
12/16/2021 10:30:00 PM 6.52 43.736 0.071 7.3 1.54 11.42
12/16/2021 10:45:00 PM 6.53 43.754 0.071 7.3 1.53 11.43
12/16/2021 11:00:00 PM 6.53 43.754 0.071 7.3 1.57 11.43
12/16/2021 11:15:00 PM 6.54 43.772 0.071 7.29 1.54 11.42
12/16/2021 11:30:00 PM 6.55 43.79 0.072 7.29 1.57 11.41
12/16/2021 11:45:00 PM 6.56 43.808 0.072 7.31 1.59 11.42
12/17/2021 12:00:00 AM 6.57 43.826 0.072 7.3 1.53 11.42
12/17/2021 12:15:00 AM 6.58 43.844 0.072 7.29 1.52 11.41
12/17/2021 12:30:00 AM 6.59 43.862 0.072 7.28 1.46 11.4
12/17/2021 12:45:00 AM 6.58 43.844 0.072 7.29 1.52 11.41
12/17/2021 1:00:00 AM 6.57 43.826 0.072 7.29 1.53 11.41
12/17/2021 1:15:00 AM 6.56 43.808 0.072 7.29 1.51 11.41
12/17/2021 1:30:00 AM 6.54 43.772 0.072 7.29 1.53 11.41
12/17/2021 1:45:00 AM 6.52 43.736 0.072 7.28 1.51 11.41
12/17/2021 2:00:00 AM 6.51 43.718 0.072 7.29 1.56 11.42
12/17/2021 2:15:00 AM 6.5 43.7 0.072 7.29 1.49 11.43
12/17/2021 2:30:00 AM 6.49 43.682 0.072 7.3 1.45 11.44
12/17/2021 2:45:00 AM 6.48 43.664 0.072 7.29 1.46 11.44
12/17/2021 3:00:00 AM 6.47 43.646 0.072 7.3 1.49 11.45
12/17/2021 3:15:00 AM 6.45 43.61 0.072 7.29 1.48 11.45
12/17/2021 3:30:00 AM 6.42 43.556 0.072 7.3 1.53 11.47
12/17/2021 3:45:00 AM 6.39 43.502 0.072 7.29 1.45 11.47
12/17/2021 4:00:00 AM 6.34 43.412 0.072 7.29 1.53 11.49
12/17/2021 4:15:00 AM 6.3 43.34 0.072 7.29 1.48 11.5
12/17/2021 4:30:00 AM 6.24 43.232 0.072 7.29 1.51 11.52
12/17/2021 4:45:00 AM 6.19 43.142 0.072 7.29 1.51 11.54
12/17/2021 5:00:00 AM 6.15 43.07 0.072 7.28 1.48 11.55
12/17/2021 5:15:00 AM 6.1 42.98 0.072 7.28 1.51 11.57
12/17/2021 5:30:00 AM 6.04 42.872 0.072 7.29 1.53 11.59
12/17/2021 5:45:00 AM 5.99 42.782 0.072 7.28 1.51 11.61
12/17/2021 6:00:00 AM 5.94 42.692 0.072 7.28 1.55 11.63
12/17/2021 6:15:00 AM 5.88 42.584 0.072 7.28 1.56 11.65
12/17/2021 6:30:00 AM 5.81 42.458 0.072 7.3 1.51 11.68
12/17/2021 6:45:00 AM 5.76 42.368 0.072 7.28 1.55 11.69
12/17/2021 7:00:00 AM 5.7 42.26 0.072 7.28 1.52 11.72
12/17/2021 7:15:00 AM 5.64 42.152 0.072 7.28 1.5 11.73
12/17/2021 7:30:00 AM 5.58 42.044 0.072 7.28 1.53 11.77
12/17/2021 7:45:00 AM 5.51 41.918 0.072 7.3 1.5 11.85
12/17/2021 8:00:00 AM 5.44 41.792 0.072 7.33 1.49 11.96
12/17/2021 8:15:00 AM 5.38 41.684 0.072 7.34 1.48 12.07
12/17/2021 8:30:00 AM 5.33 41.594 0.071 7.38 1.44 12.22
12/17/2021 8:45:00 AM 5.3 41.54 0.071 7.42 1.46 12.37
12/17/2021 9:00:00 AM 5.29 41.522 0.071 7.5 1.49 12.57
12/17/2021 9:15:00 AM 5.29 41.522 0.071 7.57 1.48 12.75
12/17/2021 9:30:00 AM 5.3 41.54 0.071 7.66 1.53 12.9
12/17/2021 9:45:00 AM 5.32 41.576 0.071 7.82 1.5 13.06
12/17/2021 10:00:00 AM 5.38 41.684 0.07 7.94 1.49 13.16
12/17/2021 10:15:00 AM 5.42 41.756 0.07 8.14 1.43 13.23
12/17/2021 10:30:00 AM 5.47 41.846 0.07 8.31 1.49 13.3
12/17/2021 10:45:00 AM 5.53 41.954 0.07 8.41 1.49 13.32
12/17/2021 11:00:00 AM 5.6 42.08 0.07 8.54 1.48 13.34
12/17/2021 11:15:00 AM 5.67 42.206 0.07 8.6 1.48 13.33
12/17/2021 11:30:00 AM 5.75 42.35 0.069 8.72 1.44 13.32
12/17/2021 11:45:00 AM 5.82 42.476 0.069 8.79 1.44 13.31
12/17/2021 12:00:00 PM 5.88 42.584 0.069 8.81 1.45 13.29
12/17/2021 12:15:00 PM 5.93 42.674 0.069 8.85 1.48 13.26
12/17/2021 12:30:00 PM 5.96 42.728 0.069 8.85 1.47 13.21
12/17/2021 12:45:00 PM 5.97 42.746 0.069 8.86 1.44 13.17
12/17/2021 1:00:00 PM 5.97 42.746 0.069 8.84 1.46 13.13
12/17/2021 1:15:00 PM 5.95 42.71 0.069 8.83 1.44 13.08
12/17/2021 1:30:00 PM 5.94 42.692 0.069 8.84 1.45 13.05
12/17/2021 1:45:00 PM 5.91 42.638 0.069 8.8 1.44 13
12/17/2021 2:00:00 PM 5.89 42.602 0.069 8.79 1.44 12.98
12/17/2021 2:15:00 PM 5.85 42.53 0.069 8.77 1.52 12.93
12/17/2021 2:30:00 PM 5.83 42.494 0.068 8.74 1.57 12.91
12/17/2021 2:45:00 PM 5.79 42.422 0.068 8.73 1.53 12.89
12/17/2021 3:00:00 PM 5.77 42.386 0.068 8.68 1.49 12.84
12/17/2021 3:15:00 PM 5.74 42.332 0.068 8.65 1.5 12.81
12/17/2021 3:30:00 PM 5.73 42.314 0.068 8.59 1.49 12.8
12/17/2021 3:45:00 PM 5.7 42.26 0.068 8.47 1.46 12.7
12/17/2021 4:00:00 PM 5.66 42.188 0.069 8.22 1.44 12.58
12/17/2021 4:15:00 PM 5.63 42.134 0.069 7.96 1.46 12.47
12/17/2021 4:30:00 PM 5.59 42.062 0.069 7.81 1.46 12.33
12/17/2021 4:45:00 PM 5.55 41.99 0.069 7.68 1.55 12.22
12/17/2021 5:00:00 PM 5.51 41.918 0.07 7.59 1.52 12.11
12/17/2021 5:15:00 PM 5.46 41.828 0.07 7.52 1.44 12.06
12/17/2021 5:30:00 PM 5.42 41.756 0.07 7.47 1.5 12.02
12/17/2021 5:45:00 PM 5.36 41.648 0.07 7.44 1.46 11.99
12/17/2021 6:00:00 PM 5.3 41.54 0.071 7.4 1.49 11.97
12/17/2021 6:15:00 PM 5.25 41.45 0.071 7.38 1.46 11.96
12/17/2021 6:30:00 PM 5.19 41.342 0.071 7.37 1.52 11.97
12/17/2021 6:45:00 PM 5.13 41.234 0.071 7.35 1.5 11.99
12/17/2021 7:00:00 PM 5.06 41.108 0.071 7.34 1.48 12
12/17/2021 7:15:00 PM 5.01 41.018 0.071 7.33 1.52 12.02
12/17/2021 7:30:00 PM 4.94 40.892 0.072 7.33 1.46 12.05
12/17/2021 7:45:00 PM 4.88 40.784 0.072 7.33 1.5 12.06
12/17/2021 8:00:00 PM 4.82 40.676 0.072 7.32 1.47 12.09
12/17/2021 8:15:00 PM 4.75 40.55 0.072 7.31 1.51 12.1
12/17/2021 8:30:00 PM 4.68 40.424 0.072 7.31 1.51 12.12
12/17/2021 8:45:00 PM 4.61 40.298 0.072 7.32 1.55 12.15
12/17/2021 9:00:00 PM 4.55 40.19 0.072 7.3 1.55 12.18
12/17/2021 9:15:00 PM 4.49 40.082 0.072 7.31 1.5 12.2
12/17/2021 9:30:00 PM 4.44 39.992 0.072 7.31 1.51 12.21
12/17/2021 9:45:00 PM 4.39 39.902 0.072 7.29 1.5 12.23
12/17/2021 10:00:00 PM 4.33 39.794 0.073 7.3 1.55 12.27
12/17/2021 10:15:00 PM 4.29 39.722 0.073 7.29 1.59 12.27
12/17/2021 10:30:00 PM 4.24 39.632 0.073 7.3 1.61 12.3
12/17/2021 10:45:00 PM 4.21 39.578 0.073 7.3 1.73 12.3
12/17/2021 11:00:00 PM 4.18 39.524 0.073 7.29 1.78 12.32
12/17/2021 11:15:00 PM 4.17 39.506 0.073 7.3 1.84 12.33
12/17/2021 11:30:00 PM 4.14 39.452 0.073 7.29 1.86 12.34
12/17/2021 11:45:00 PM 4.11 39.398 0.073 7.29 1.83 12.35
12/18/2021 12:00:00 AM 4.08 39.344 0.073 7.29 1.7 12.37
12/18/2021 12:15:00 AM 4.06 39.308 0.073 7.29 1.73 12.38
12/18/2021 12:30:00 AM 4.04 39.272 0.073 7.29 1.65 12.38
12/18/2021 12:45:00 AM 4.01 39.218 0.073 7.29 1.71 12.4
12/18/2021 1:00:00 AM 3.99 39.182 0.073 7.29 1.65 12.4
12/18/2021 1:15:00 AM 3.98 39.164 0.073 7.29 1.63 12.4
12/18/2021 1:30:00 AM 3.97 39.146 0.073 7.29 1.61 12.41
12/18/2021 1:45:00 AM 3.96 39.128 0.073 7.28 1.57 12.41
12/18/2021 2:00:00 AM 3.95 39.11 0.073 7.29 1.55 12.41
12/18/2021 2:15:00 AM 3.95 39.11 0.073 7.28 1.53 12.42
12/18/2021 2:30:00 AM 3.94 39.092 0.073 7.29 1.55 12.42
12/18/2021 2:45:00 AM 3.93 39.074 0.073 7.29 1.48 12.42
12/18/2021 3:00:00 AM 3.93 39.074 0.073 7.29 1.5 12.43
12/18/2021 3:15:00 AM 3.92 39.056 0.073 7.28 1.46 12.43
12/18/2021 3:30:00 AM 3.91 39.038 0.073 7.29 1.52 12.43
12/18/2021 3:45:00 AM 3.91 39.038 0.073 7.29 1.47 12.42
12/18/2021 4:00:00 AM 3.92 39.056 0.073 7.27 1.47 12.42
12/18/2021 4:15:00 AM 3.92 39.056 0.073 7.29 1.46 12.42
12/18/2021 4:30:00 AM 3.91 39.038 0.073 7.29 1.51 12.42
12/18/2021 4:45:00 AM 3.91 39.038 0.073 7.29 1.47 12.42
12/18/2021 5:00:00 AM 3.92 39.056 0.073 7.29 1.41 12.41
12/18/2021 5:15:00 AM 3.91 39.038 0.073 7.29 1.44 12.42
12/18/2021 5:30:00 AM 3.92 39.056 0.073 7.29 1.48 12.42
12/18/2021 5:45:00 AM 3.92 39.056 0.073 7.27 1.52 12.42
12/18/2021 6:00:00 AM 3.93 39.074 0.073 7.3 1.46 12.42
12/18/2021 6:15:00 AM 3.93 39.074 0.073 7.29 1.49 12.41
12/18/2021 6:30:00 AM 3.93 39.074 0.073 7.29 1.46 12.41
12/18/2021 6:45:00 AM 3.93 39.074 0.073 7.29 1.5 12.42
12/18/2021 7:00:00 AM 3.93 39.074 0.073 7.29 1.45 12.42
12/18/2021 7:15:00 AM 3.93 39.074 0.073 7.28 1.46 12.41
12/18/2021 7:30:00 AM 3.94 39.092 0.073 7.28 1.44 12.41
12/18/2021 7:45:00 AM 3.94 39.092 0.073 7.29 1.37 12.45
12/18/2021 8:00:00 AM 3.94 39.092 0.073 7.31 1.48 12.48
12/18/2021 8:15:00 AM 3.96 39.128 0.073 7.33 1.48 12.56
12/18/2021 8:30:00 AM 3.96 39.128 0.073 7.35 1.47 12.68
12/18/2021 8:45:00 AM 3.98 39.164 0.073 7.4 1.45 12.77
12/18/2021 9:00:00 AM 4 39.2 0.072 7.43 1.43 12.88
12/18/2021 9:15:00 AM 4.01 39.218 0.072 7.47 1.51 12.96
12/18/2021 9:30:00 AM 4.03 39.254 0.072 7.51 1.47 13.04
12/18/2021 9:45:00 AM 4.04 39.272 0.072 7.58 1.47 13.16
12/18/2021 10:00:00 AM 4.06 39.308 0.072 7.63 1.46 13.24
12/18/2021 10:15:00 AM 4.08 39.344 0.072 7.72 1.44 13.35
12/18/2021 10:30:00 AM 4.09 39.362 0.072 7.76 1.47 13.37
12/18/2021 10:45:00 AM 4.1 39.38 0.071 7.77 1.46 13.34
12/18/2021 11:00:00 AM 4.1 39.38 0.071 7.74 1.46 13.29
12/18/2021 11:15:00 AM 4.1 39.38 0.071 7.77 1.42 13.29
12/18/2021 11:30:00 AM 4.1 39.38 0.071 7.77 1.41 13.27
12/18/2021 11:45:00 AM 4.11 39.398 0.071 7.8 1.42 13.29
12/18/2021 12:00:00 PM 4.11 39.398 0.071 7.83 1.44 13.3
12/18/2021 12:15:00 PM 4.12 39.416 0.071 7.86 1.43 13.33
12/18/2021 12:30:00 PM 4.12 39.416 0.071 7.86 1.45 13.3
12/18/2021 12:45:00 PM 4.12 39.416 0.071 7.81 1.39 13.23
12/18/2021 1:00:00 PM 4.12 39.416 0.071 7.78 1.44 13.19
12/18/2021 1:15:00 PM 4.12 39.416 0.071 7.79 1.41 13.17
12/18/2021 1:30:00 PM 4.13 39.434 0.071 7.78 1.51 13.14
12/18/2021 1:45:00 PM 4.14 39.452 0.071 7.83 1.53 13.21
12/18/2021 2:00:00 PM 4.15 39.47 0.07 7.85 1.55 13.24
12/18/2021 2:15:00 PM 4.14 39.452 0.07 7.82 1.58 13.17
12/18/2021 2:30:00 PM 4.14 39.452 0.07 7.75 1.56 13.09
12/18/2021 2:45:00 PM 4.13 39.434 0.071 7.68 1.59 12.98
12/18/2021 3:00:00 PM 4.13 39.434 0.071 7.62 1.53 12.86
12/18/2021 3:15:00 PM 4.12 39.416 0.071 7.58 1.55 12.76
12/18/2021 3:30:00 PM 4.12 39.416 0.071 7.51 1.64 12.66
12/18/2021 3:45:00 PM 4.11 39.398 0.071 7.48 1.67 12.6
12/18/2021 4:00:00 PM 4.1 39.38 0.071 7.45 1.75 12.55
12/18/2021 4:15:00 PM 4.08 39.344 0.071 7.43 1.75 12.49
12/18/2021 4:30:00 PM 4.08 39.344 0.072 7.4 1.78 12.44
12/18/2021 4:45:00 PM 4.07 39.326 0.072 7.38 1.72 12.4
12/18/2021 5:00:00 PM 4.06 39.308 0.072 7.36 1.8 12.37
12/18/2021 5:15:00 PM 4.06 39.308 0.072 7.35 1.84 12.35
12/18/2021 5:30:00 PM 4.07 39.326 0.072 7.33 1.83 12.33
12/18/2021 5:45:00 PM 4.05 39.29 0.072 7.34 1.87 12.32
12/18/2021 6:00:00 PM 4.06 39.308 0.072 7.32 1.98 12.31
12/18/2021 6:15:00 PM 4.06 39.308 0.072 7.3 2.13 12.29
12/18/2021 6:30:00 PM 4.06 39.308 0.072 7.32 2.16 12.29
12/18/2021 6:45:00 PM 4.06 39.308 0.072 7.3 2.27 12.29
12/18/2021 7:00:00 PM 4.06 39.308 0.072 7.29 2.28 12.28
12/18/2021 7:15:00 PM 4.06 39.308 0.072 7.29 2.45 12.29
12/18/2021 7:30:00 PM 4.06 39.308 0.072 7.3 2.46 12.28
12/18/2021 7:45:00 PM 4.05 39.29 0.072 7.3 2.52 12.29
12/18/2021 8:00:00 PM 4.05 39.29 0.072 7.3 2.83 12.29
12/18/2021 8:15:00 PM 4.05 39.29 0.072 7.3 2.87 12.29
12/18/2021 8:30:00 PM 4.05 39.29 0.072 7.31 2.86 12.29
12/18/2021 8:45:00 PM 4.05 39.29 0.072 7.3 2.77 12.29
12/18/2021 9:00:00 PM 4.06 39.308 0.073 7.3 2.63 12.28
12/18/2021 9:15:00 PM 4.06 39.308 0.073 7.3 2.82 12.29
12/18/2021 9:30:00 PM 4.07 39.326 0.073 7.29 2.79 12.28
12/18/2021 9:45:00 PM 4.08 39.344 0.073 7.31 2.91 12.28
12/18/2021 10:00:00 PM 4.09 39.362 0.073 7.3 2.83 12.27
12/18/2021 10:15:00 PM 4.1 39.38 0.074 7.3 2.93 12.26
12/18/2021 10:30:00 PM 4.1 39.38 0.074 7.3 2.83 12.27
12/18/2021 10:45:00 PM 4.11 39.398 0.074 7.3 2.93 12.26
12/18/2021 11:00:00 PM 4.12 39.416 0.074 7.29 2.87 12.26
12/18/2021 11:15:00 PM 4.12 39.416 0.074 7.3 2.87 12.27
12/18/2021 11:30:00 PM 4.13 39.434 0.074 7.29 2.7 12.25
12/18/2021 11:45:00 PM 4.14 39.452 0.074 7.29 2.62 12.26
12/19/2021 12:00:00 AM 4.14 39.452 0.074 7.29 2.43 12.25
12/19/2021 12:15:00 AM 4.15 39.47 0.074 7.29 2.37 12.26
12/19/2021 12:30:00 AM 4.15 39.47 0.074 7.29 2.28 12.25
12/19/2021 12:45:00 AM 4.16 39.488 0.074 7.29 2.35 12.25
12/19/2021 1:00:00 AM 4.16 39.488 0.074 7.29 2.25 12.25
12/19/2021 1:15:00 AM 4.15 39.47 0.074 7.29 2.23 12.26
12/19/2021 1:30:00 AM 4.13 39.434 0.073 7.29 2.18 12.26
12/19/2021 1:45:00 AM 4.11 39.398 0.073 7.3 2.2 12.28
12/19/2021 2:00:00 AM 4.08 39.344 0.073 7.3 2.15 12.29
12/19/2021 2:15:00 AM 4.06 39.308 0.073 7.3 2.08 12.3
12/19/2021 2:30:00 AM 4.03 39.254 0.073 7.3 2.16 12.31
12/19/2021 2:45:00 AM 4 39.2 0.074 7.3 2.13 12.32
12/19/2021 3:00:00 AM 3.97 39.146 0.073 7.31 2.1 12.34
12/19/2021 3:15:00 AM 3.94 39.092 0.073 7.3 2.11 12.35
12/19/2021 3:30:00 AM 3.91 39.038 0.073 7.31 2.09 12.36
12/19/2021 3:45:00 AM 3.88 38.984 0.073 7.31 2.06 12.38
12/19/2021 4:00:00 AM 3.85 38.93 0.074 7.31 2.04 12.39
12/19/2021 4:15:00 AM 3.82 38.876 0.074 7.31 2.04 12.41
12/19/2021 4:30:00 AM 3.77 38.786 0.074 7.31 2.02 12.43
12/19/2021 4:45:00 AM 3.73 38.714 0.074 7.31 2.07 12.44
12/19/2021 5:00:00 AM 3.69 38.642 0.074 7.31 2 12.46
12/19/2021 5:15:00 AM 3.64 38.552 0.074 7.31 2.04 12.47
12/19/2021 5:30:00 AM 3.59 38.462 0.074 7.31 2 12.49
12/19/2021 5:45:00 AM 3.54 38.372 0.074 7.31 2.04 12.51
12/19/2021 6:00:00 AM 3.49 38.282 0.074 7.31 2.04 12.54
12/19/2021 6:15:00 AM 3.44 38.192 0.074 7.31 2.02 12.55
12/19/2021 6:30:00 AM 3.39 38.102 0.074 7.31 2.02 12.58
12/19/2021 6:45:00 AM 3.34 38.012 0.074 7.31 2.04 12.6
12/19/2021 7:00:00 AM 3.29 37.922 0.074 7.3 2.08 12.63
12/19/2021 7:15:00 AM 3.22 37.796 0.074 7.31 2.11 12.65
12/19/2021 7:30:00 AM 3.17 37.706 0.074 7.31 2.12 12.68
12/19/2021 7:45:00 AM 3.13 37.634 0.074 7.31 2.11 12.72
12/19/2021 8:00:00 AM 3.08 37.544 0.074 7.31 2.03 12.76
12/19/2021 8:15:00 AM 3.04 37.472 0.074 7.32 1.97 12.8
12/19/2021 8:30:00 AM 2.99 37.382 0.074 7.33 2.02 12.84
12/19/2021 8:45:00 AM 2.94 37.292 0.074 7.33 1.9 12.9
12/19/2021 9:00:00 AM 2.9 37.22 0.074 7.36 1.91 12.99
12/19/2021 9:15:00 AM 2.87 37.166 0.074 7.37 1.9 13.03
12/19/2021 9:30:00 AM 2.84 37.112 0.074 7.39 1.88 13.13
12/19/2021 9:45:00 AM 2.81 37.058 0.074 7.43 1.86 13.25
12/19/2021 10:00:00 AM 2.78 37.004 0.073 7.48 1.93 13.4
12/19/2021 10:15:00 AM 2.74 36.932 0.073 7.53 1.84 13.52
12/19/2021 10:30:00 AM 2.72 36.896 0.073 7.6 1.82 13.64
12/19/2021 10:45:00 AM 2.7 36.86 0.073 7.65 1.84 13.74
12/19/2021 11:00:00 AM 2.69 36.842 0.073 7.7 1.81 13.81
12/19/2021 11:15:00 AM 2.67 36.806 0.073 7.76 1.74 13.89
12/19/2021 11:30:00 AM 2.66 36.788 0.073 7.8 1.76 13.92
12/19/2021 11:45:00 AM 2.64 36.752 0.072 7.84 1.68 13.94
12/19/2021 12:00:00 PM 2.64 36.752 0.072 7.94 1.73 14.04
12/19/2021 12:15:00 PM 2.64 36.752 0.072 8.05 1.67 14.09
12/19/2021 12:30:00 PM 2.65 36.77 0.072 8.18 1.66 14.18
12/19/2021 12:45:00 PM 2.66 36.788 0.072 8.34 1.64 14.25
12/19/2021 1:00:00 PM 2.69 36.842 0.072 8.45 1.67 14.3
12/19/2021 1:15:00 PM 2.72 36.896 0.071 8.58 1.64 14.34
12/19/2021 1:30:00 PM 2.73 36.914 0.071 8.64 1.63 14.33
12/19/2021 1:45:00 PM 2.75 36.95 0.071 8.72 1.64 14.35
12/19/2021 2:00:00 PM 2.76 36.968 0.071 8.75 1.59 14.31
12/19/2021 2:15:00 PM 2.76 36.968 0.071 8.79 1.63 14.3
12/19/2021 2:30:00 PM 2.75 36.95 0.071 8.79 1.59 14.27
12/19/2021 2:45:00 PM 2.72 36.896 0.071 8.75 1.55 14.2
12/19/2021 3:00:00 PM 2.69 36.842 0.071 8.71 1.51 14.13
12/19/2021 3:15:00 PM 2.65 36.77 0.071 8.57 1.54 14.01
12/19/2021 3:30:00 PM 2.6 36.68 0.071 8.44 1.53 13.92
12/19/2021 3:45:00 PM 2.57 36.626 0.071 8.22 1.53 13.82
12/19/2021 4:00:00 PM 2.53 36.554 0.071 7.97 1.52 13.71
12/19/2021 4:15:00 PM 2.49 36.482 0.071 7.78 1.54 13.6
12/19/2021 4:30:00 PM 2.46 36.428 0.071 7.66 1.55 13.48
12/19/2021 4:45:00 PM 2.44 36.392 0.071 7.56 1.49 13.37
12/19/2021 5:00:00 PM 2.39 36.302 0.072 7.5 1.55 13.29
12/19/2021 5:15:00 PM 2.36 36.248 0.072 7.45 1.53 13.23
12/19/2021 5:30:00 PM 2.32 36.176 0.072 7.42 1.53 13.18
12/19/2021 5:45:00 PM 2.29 36.122 0.072 7.38 1.55 13.15
12/19/2021 6:00:00 PM 2.25 36.05 0.072 7.34 1.6 13.13
12/19/2021 6:15:00 PM 2.19 35.942 0.073 7.34 1.58 13.14
12/19/2021 6:30:00 PM 2.14 35.852 0.073 7.31 1.73 13.15
12/19/2021 6:45:00 PM 2.09 35.762 0.073 7.31 1.81 13.15
12/19/2021 7:00:00 PM 2.06 35.708 0.074 7.31 1.84 13.17
12/19/2021 7:15:00 PM 2 35.6 0.074 7.31 1.81 13.19
12/19/2021 7:30:00 PM 1.96 35.528 0.074 7.3 1.71 13.21
12/19/2021 7:45:00 PM 1.91 35.438 0.074 7.29 1.68 13.23
12/19/2021 8:00:00 PM 1.87 35.366 0.074 7.28 1.63 13.23
12/19/2021 8:15:00 PM 1.82 35.276 0.074 7.28 1.59 13.26
12/19/2021 8:30:00 PM 1.77 35.186 0.074 7.29 1.57 13.28
12/19/2021 8:45:00 PM 1.74 35.132 0.074 7.27 1.53 13.29
12/19/2021 9:00:00 PM 1.71 35.078 0.074 7.27 1.59 13.32
12/19/2021 9:15:00 PM 1.67 35.006 0.074 7.28 1.55 13.33
12/19/2021 9:30:00 PM 1.63 34.934 0.074 7.28 1.57 13.34
12/19/2021 9:45:00 PM 1.6 34.88 0.074 7.28 1.58 13.37
12/19/2021 10:00:00 PM 1.57 34.826 0.074 7.26 1.57 13.36
12/19/2021 10:15:00 PM 1.54 34.772 0.074 7.28 1.6 13.38
12/19/2021 10:30:00 PM 1.51 34.718 0.074 7.27 1.5 13.39
12/19/2021 10:45:00 PM 1.49 34.682 0.074 7.27 1.54 13.4
12/19/2021 11:00:00 PM 1.46 34.628 0.074 7.27 1.57 13.42
12/19/2021 11:15:00 PM 1.42 34.556 0.074 7.28 1.53 13.43
12/19/2021 11:30:00 PM 1.41 34.538 0.074 7.26 1.48 13.44
12/19/2021 11:45:00 PM 1.37 34.466 0.074 7.28 1.55 13.46
12/20/2021 12:00:00 AM 1.35 34.43 0.074 7.27 1.51 13.47
12/20/2021 12:15:00 AM 1.3 34.34 0.074 7.27 1.48 13.48
12/20/2021 12:30:00 AM 1.28 34.304 0.074 7.28 1.55 13.5
12/20/2021 12:45:00 AM 1.25 34.25 0.074 7.27 1.5 13.5
12/20/2021 1:00:00 AM 1.23 34.214 0.074 7.27 1.53 13.51
12/20/2021 1:15:00 AM 1.22 34.196 0.074 7.26 1.58 13.5
12/20/2021 1:30:00 AM 1.2 34.16 0.074 7.26 1.53 13.53
12/20/2021 1:45:00 AM 1.19 34.142 0.074 7.27 1.55 13.53
12/20/2021 2:00:00 AM 1.18 34.124 0.074 7.27 1.5 13.53
12/20/2021 2:15:00 AM 1.16 34.088 0.074 7.26 1.53 13.53
12/20/2021 2:30:00 AM 1.11 33.998 0.074 7.27 1.53 13.56
12/20/2021 2:45:00 AM 1.08 33.944 0.074 7.26 1.54 13.56
12/20/2021 3:00:00 AM 1.04 33.872 0.074 7.26 1.57 13.57
12/20/2021 3:15:00 AM 1.01 33.818 0.075 7.26 1.49 13.59
12/20/2021 3:30:00 AM 0.98 33.764 0.075 7.25 1.54 13.6
12/20/2021 3:45:00 AM 0.96 33.728 0.075 7.25 1.49 13.6
12/20/2021 4:00:00 AM 0.93 33.674 0.075 7.24 1.52 13.61
12/20/2021 4:15:00 AM 0.9 33.62 0.075 7.26 1.49 13.63
12/20/2021 4:30:00 AM 0.86 33.548 0.074 7.26 1.5 13.65
12/20/2021 4:45:00 AM 0.83 33.494 0.074 7.26 1.51 13.65
12/20/2021 5:00:00 AM 0.8 33.44 0.074 7.26 1.5 13.67
12/20/2021 5:15:00 AM 0.78 33.404 0.074 7.26 1.49 13.68
12/20/2021 5:30:00 AM 0.76 33.368 0.074 7.25 1.5 13.69
12/20/2021 5:45:00 AM 0.73 33.314 0.074 7.25 1.47 13.71
12/20/2021 6:00:00 AM 0.7 33.26 0.074 7.26 1.49 13.73
12/20/2021 6:15:00 AM 0.68 33.224 0.074 7.25 1.51 13.73
12/20/2021 6:30:00 AM 0.65 33.17 0.074 7.25 1.49 13.75
12/20/2021 6:45:00 AM 0.61 33.098 0.074 7.26 1.5 13.77
12/20/2021 7:00:00 AM 0.58 33.044 0.074 7.26 1.53 13.77
12/20/2021 7:15:00 AM 0.54 32.972 0.075 7.26 1.51 13.8
12/20/2021 7:30:00 AM 0.5 32.9 0.074 7.26 1.51 13.82
12/20/2021 7:45:00 AM 0.46 32.828 0.074 7.27 1.47 13.89
12/20/2021 8:00:00 AM 0.43 32.774 0.074 7.3 1.51 14.01
12/20/2021 8:15:00 AM 0.41 32.738 0.074 7.33 1.49 14.14
12/20/2021 8:30:00 AM 0.4 32.72 0.074 7.36 1.51 14.27
12/20/2021 8:45:00 AM 0.39 32.702 0.074 7.42 1.47 14.42
12/20/2021 9:00:00 AM 0.42 32.756 0.074 7.49 1.45 14.62
12/20/2021 9:15:00 AM 0.48 32.864 0.074 7.58 1.46 14.8
12/20/2021 9:30:00 AM 0.54 32.972 0.073 7.68 1.49 14.95
12/20/2021 9:45:00 AM 0.59 33.062 0.073 7.82 1.46 15.07
12/20/2021 10:00:00 AM 0.66 33.188 0.073 7.98 1.46 15.16
12/20/2021 10:15:00 AM 0.74 33.332 0.073 8.1 1.47 15.18
12/20/2021 10:30:00 AM 0.82 33.476 0.073 8.24 1.41 15.21
12/20/2021 10:45:00 AM 0.9 33.62 0.073 8.36 1.45 15.22
12/20/2021 11:00:00 AM 0.99 33.782 0.072 8.44 1.47 15.2
12/20/2021 11:15:00 AM 1.05 33.89 0.072 8.52 1.45 15.19
12/20/2021 11:30:00 AM 1.15 34.07 0.072 8.6 1.44 15.17
12/20/2021 11:45:00 AM 1.2 34.16 0.072 8.63 1.47 15.1
12/20/2021 12:00:00 PM 1.27 34.286 0.072 8.67 1.5 15.06
12/20/2021 12:15:00 PM 1.32 34.376 0.072 8.66 1.45 15
12/20/2021 12:30:00 PM 1.37 34.466 0.072 8.65 1.43 14.94
12/20/2021 12:45:00 PM 1.46 34.628 0.072 8.65 1.48 14.86
12/20/2021 1:00:00 PM 1.54 34.772 0.072 8.63 1.44 14.77
12/20/2021 1:15:00 PM 1.58 34.844 0.072 8.59 1.46 14.7
12/20/2021 1:30:00 PM 1.61 34.898 0.071 8.54 1.43 14.63
12/20/2021 1:45:00 PM 1.65 34.97 0.071 8.5 1.47 14.56
12/20/2021 2:00:00 PM 1.68 35.024 0.071 8.46 1.43 14.51
12/20/2021 2:15:00 PM 1.69 35.042 0.071 8.44 1.45 14.48
12/20/2021 2:30:00 PM 1.71 35.078 0.071 8.45 1.48 14.49
12/20/2021 2:45:00 PM 1.72 35.096 0.071 8.44 1.46 14.48
12/20/2021 3:00:00 PM 1.72 35.096 0.071 8.48 1.51 14.51
12/20/2021 3:15:00 PM 1.74 35.132 0.071 8.49 1.46 14.5
12/20/2021 3:30:00 PM 1.73 35.114 0.071 8.38 1.45 14.41
12/20/2021 3:45:00 PM 1.7 35.06 0.072 8.22 1.47 14.29
12/20/2021 4:00:00 PM 1.69 35.042 0.072 8 1.46 14.16
12/20/2021 4:15:00 PM 1.68 35.024 0.072 7.85 1.49 14.03
12/20/2021 4:30:00 PM 1.68 35.024 0.072 7.72 1.45 13.89
12/20/2021 4:45:00 PM 1.66 34.988 0.072 7.62 1.47 13.75
12/20/2021 5:00:00 PM 1.63 34.934 0.072 7.55 1.48 13.63
12/20/2021 5:15:00 PM 1.61 34.898 0.073 7.49 1.51 13.54
12/20/2021 5:30:00 PM 1.58 34.844 0.073 7.45 1.53 13.48
12/20/2021 5:45:00 PM 1.55 34.79 0.073 7.42 1.46 13.43
12/20/2021 6:00:00 PM 1.53 34.754 0.073 7.4 1.48 13.41
12/20/2021 6:15:00 PM 1.5 34.7 0.073 7.37 1.49 13.38
12/20/2021 6:30:00 PM 1.47 34.646 0.073 7.35 1.51 13.38
12/20/2021 6:45:00 PM 1.44 34.592 0.073 7.34 1.57 13.37
12/20/2021 7:00:00 PM 1.42 34.556 0.073 7.34 1.51 13.38
12/20/2021 7:15:00 PM 1.39 34.502 0.073 7.33 1.49 13.37
12/20/2021 7:30:00 PM 1.35 34.43 0.074 7.33 1.48 13.39
12/20/2021 7:45:00 PM 1.33 34.394 0.074 7.32 1.5 13.39
12/20/2021 8:00:00 PM 1.28 34.304 0.074 7.31 1.53 13.41
12/20/2021 8:15:00 PM 1.26 34.268 0.074 7.31 1.51 13.42
12/20/2021 8:30:00 PM 1.22 34.196 0.074 7.31 1.51 13.44
12/20/2021 8:45:00 PM 1.19 34.142 0.074 7.3 1.49 13.45
12/20/2021 9:00:00 PM 1.16 34.088 0.074 7.3 1.48 13.46
12/20/2021 9:15:00 PM 1.13 34.034 0.074 7.31 1.48 13.48
12/20/2021 9:30:00 PM 1.1 33.98 0.074 7.3 1.5 13.49
12/20/2021 9:45:00 PM 1.07 33.926 0.075 7.29 1.53 13.49
12/20/2021 10:00:00 PM 1.05 33.89 0.075 7.29 1.54 13.5
12/20/2021 10:15:00 PM 1.03 33.854 0.075 7.29 1.52 13.51
12/20/2021 10:30:00 PM 1 33.8 0.075 7.29 1.52 13.52
12/20/2021 10:45:00 PM 0.97 33.746 0.075 7.29 1.5 13.53
12/20/2021 11:00:00 PM 0.94 33.692 0.075 7.28 1.49 13.55
12/20/2021 11:15:00 PM 0.91 33.638 0.075 7.28 1.5 13.55
12/20/2021 11:30:00 PM 0.87 33.566 0.075 7.29 1.51 13.57
12/20/2021 11:45:00 PM 0.84 33.512 0.075 7.29 1.53 13.58
12/21/2021 12:00:00 AM 0.8 33.44 0.075 7.29 1.52 13.59
12/21/2021 12:15:00 AM 0.77 33.386 0.075 7.29 1.49 13.61
12/21/2021 12:30:00 AM 0.74 33.332 0.075 7.28 1.5 13.61
12/21/2021 12:45:00 AM 0.72 33.296 0.075 7.28 1.47 13.61
12/21/2021 1:00:00 AM 0.68 33.224 0.076 7.29 1.5 13.63
12/21/2021 1:15:00 AM 0.65 33.17 0.076 7.29 1.52 13.65
12/21/2021 1:30:00 AM 0.63 33.134 0.076 7.28 1.51 13.64
12/21/2021 1:45:00 AM 0.61 33.098 0.076 7.28 1.52 13.65
12/21/2021 2:00:00 AM 0.59 33.062 0.076 7.28 1.5 13.66
12/21/2021 2:15:00 AM 0.55 32.99 0.075 7.28 1.48 13.68
12/21/2021 2:30:00 AM 0.54 32.972 0.075 7.28 1.48 13.68
12/21/2021 2:45:00 AM 0.51 32.918 0.075 7.28 1.5 13.69
12/21/2021 3:00:00 AM 0.5 32.9 0.075 7.28 1.53 13.69
12/21/2021 3:15:00 AM 0.47 32.846 0.075 7.27 1.56 13.7
12/21/2021 3:30:00 AM 0.45 32.81 0.075 7.28 1.49 13.71
12/21/2021 3:45:00 AM 0.42 32.756 0.075 7.28 1.5 13.73
12/21/2021 4:00:00 AM 0.4 32.72 0.075 7.27 1.46 13.73
12/21/2021 4:15:00 AM 0.37 32.666 0.075 7.28 1.46 13.74
12/21/2021 4:30:00 AM 0.36 32.648 0.075 7.27 1.46 13.74
12/21/2021 4:45:00 AM 0.33 32.594 0.075 7.25 1.48 13.76
12/21/2021 5:00:00 AM 0.33 32.594 0.075 7.27 1.5 13.77
12/21/2021 5:15:00 AM 0.32 32.576 0.075 7.27 1.5 13.78
12/21/2021 5:30:00 AM 0.33 32.594 0.075 7.27 1.5 13.77
12/21/2021 5:45:00 AM 0.33 32.594 0.075 7.28 1.5 13.78
12/21/2021 6:00:00 AM 0.34 32.612 0.075 7.28 1.48 13.79
12/21/2021 6:15:00 AM 0.36 32.648 0.075 7.27 1.46 13.78
12/21/2021 6:30:00 AM 0.36 32.648 0.075 7.28 1.43 13.78
12/21/2021 6:45:00 AM 0.38 32.684 0.075 7.28 1.45 13.77
12/21/2021 7:00:00 AM 0.39 32.702 0.075 7.27 1.44 13.77
12/21/2021 7:15:00 AM 0.39 32.702 0.075 7.27 1.44 13.77
12/21/2021 7:30:00 AM 0.38 32.684 0.075 7.28 1.47 13.8
12/21/2021 7:45:00 AM 0.39 32.702 0.075 7.28 1.41 13.84
12/21/2021 8:00:00 AM 0.38 32.684 0.075 7.32 1.42 13.93
12/21/2021 8:15:00 AM 0.38 32.684 0.075 7.32 1.46 14.08
12/21/2021 8:30:00 AM 0.39 32.702 0.074 7.41 1.41 14.28
12/21/2021 8:45:00 AM 0.4 32.72 0.074 7.46 1.43 14.43
12/21/2021 9:00:00 AM 0.42 32.756 0.074 7.54 1.4 14.59
12/21/2021 9:15:00 AM 0.48 32.864 0.074 7.63 1.47 14.76
12/21/2021 9:30:00 AM 0.55 32.99 0.074 7.74 1.46 14.89
12/21/2021 9:45:00 AM 0.65 33.17 0.073 7.85 1.42 15
12/21/2021 10:00:00 AM 0.76 33.368 0.073 8.03 1.46 15.08
12/21/2021 10:15:00 AM 0.86 33.548 0.073 8.17 1.42 15.1
12/21/2021 10:30:00 AM 0.95 33.71 0.073 8.29 1.43 15.1
12/21/2021 10:45:00 AM 1.05 33.89 0.073 8.38 1.43 15.06
12/21/2021 11:00:00 AM 1.17 34.106 0.073 8.47 1.4 15.04
12/21/2021 11:15:00 AM 1.3 34.34 0.072 8.57 1.46 15.01
12/21/2021 11:30:00 AM 1.44 34.592 0.072 8.62 1.45 14.95
12/21/2021 11:45:00 AM 1.56 34.808 0.072 8.65 1.38 14.91
12/21/2021 12:00:00 PM 1.64 34.952 0.072 8.71 1.38 14.85
12/21/2021 12:15:00 PM 1.73 35.114 0.072 8.74 1.41 14.79
12/21/2021 12:30:00 PM 1.84 35.312 0.072 8.74 1.41 14.71
12/21/2021 12:45:00 PM 1.93 35.474 0.072 8.75 1.44 14.66
12/21/2021 1:00:00 PM 1.99 35.582 0.071 8.74 1.43 14.58
12/21/2021 1:15:00 PM 2.04 35.672 0.071 8.72 1.48 14.51
12/21/2021 1:30:00 PM 2.08 35.744 0.071 8.73 1.45 14.47
12/21/2021 1:45:00 PM 2.12 35.816 0.071 8.72 1.41 14.41
12/21/2021 2:00:00 PM 2.15 35.87 0.071 8.69 1.41 14.36
12/21/2021 2:15:00 PM 2.18 35.924 0.071 8.65 1.46 14.28
12/21/2021 2:30:00 PM 2.19 35.942 0.071 8.64 1.43 14.24
12/21/2021 2:45:00 PM 2.22 35.996 0.071 8.59 1.5 14.17
12/21/2021 3:00:00 PM 2.23 36.014 0.071 8.52 1.52 14.1
12/21/2021 3:15:00 PM 2.24 36.032 0.071 8.42 1.5 14.02
12/21/2021 3:30:00 PM 2.24 36.032 0.071 8.31 1.5 13.95
12/21/2021 3:45:00 PM 2.26 36.068 0.071 8.23 1.55 13.9
12/21/2021 4:00:00 PM 2.28 36.104 0.071 8.07 1.59 13.79
12/21/2021 4:15:00 PM 2.28 36.104 0.071 7.9 1.62 13.66
12/21/2021 4:30:00 PM 2.28 36.104 0.072 7.76 1.61 13.52
12/21/2021 4:45:00 PM 2.27 36.086 0.072 7.65 1.83 13.38
12/21/2021 5:00:00 PM 2.26 36.068 0.072 7.58 1.58 13.27
12/21/2021 5:15:00 PM 2.26 36.068 0.072 7.51 1.59 13.17
12/21/2021 5:30:00 PM 2.25 36.05 0.072 7.47 1.59 13.09
12/21/2021 5:45:00 PM 2.22 35.996 0.073 7.44 1.57 13.05
12/21/2021 6:00:00 PM 2.21 35.978 0.073 7.42 1.55 13.02
12/21/2021 6:15:00 PM 2.19 35.942 0.073 7.4 1.53 13
12/21/2021 6:30:00 PM 2.17 35.906 0.073 7.37 1.52 12.97
12/21/2021 6:45:00 PM 2.13 35.834 0.073 7.37 1.53 12.97
12/21/2021 7:00:00 PM 2.1 35.78 0.073 7.36 1.56 12.98
12/21/2021 7:15:00 PM 2.07 35.726 0.074 7.35 1.49 12.99
12/21/2021 7:30:00 PM 2.04 35.672 0.074 7.34 1.47 12.99
12/21/2021 7:45:00 PM 2 35.6 0.074 7.33 1.49 13
12/21/2021 8:00:00 PM 1.96 35.528 0.074 7.34 1.51 13.02
12/21/2021 8:15:00 PM 1.93 35.474 0.074 7.33 1.49 13.03
12/21/2021 8:30:00 PM 1.89 35.402 0.074 7.32 1.5 13.04
12/21/2021 8:45:00 PM 1.85 35.33 0.074 7.32 1.51 13.06
12/21/2021 9:00:00 PM 1.81 35.258 0.074 7.32 1.53 13.07
12/21/2021 9:15:00 PM 1.77 35.186 0.074 7.32 1.53 13.08
12/21/2021 9:30:00 PM 1.74 35.132 0.074 7.32 1.52 13.1
12/21/2021 9:45:00 PM 1.71 35.078 0.074 7.3 1.5 13.11
12/21/2021 10:00:00 PM 1.68 35.024 0.074 7.32 1.46 13.11
12/21/2021 10:15:00 PM 1.66 34.988 0.074 7.32 1.5 13.12
12/21/2021 10:30:00 PM 1.65 34.97 0.075 7.31 1.5 13.11
12/21/2021 10:45:00 PM 1.62 34.916 0.075 7.31 1.51 13.13
12/21/2021 11:00:00 PM 1.6 34.88 0.075 7.31 1.53 13.14
12/21/2021 11:15:00 PM 1.56 34.808 0.075 7.29 1.57 13.14
12/21/2021 11:30:00 PM 1.53 34.754 0.075 7.31 1.57 13.15
12/21/2021 11:45:00 PM 1.5 34.7 0.075 7.3 1.58 13.16
12/22/2021 12:00:00 AM 1.47 34.646 0.075 7.31 1.67 13.17
12/22/2021 12:15:00 AM 1.45 34.61 0.075 7.3 1.7 13.18
12/22/2021 12:30:00 AM 1.44 34.592 0.075 7.29 1.72 13.19
12/22/2021 12:45:00 AM 1.44 34.592 0.075 7.3 1.66 13.18
12/22/2021 1:00:00 AM 1.44 34.592 0.075 7.3 1.61 13.18
12/22/2021 1:15:00 AM 1.43 34.574 0.075 7.3 1.6 13.18
12/22/2021 1:30:00 AM 1.42 34.556 0.075 7.3 1.56 13.18
12/22/2021 1:45:00 AM 1.42 34.556 0.075 7.29 1.51 13.17
12/22/2021 2:00:00 AM 1.41 34.538 0.075 7.3 1.5 13.18
12/22/2021 2:15:00 AM 1.4 34.52 0.075 7.27 1.45 13.17
12/22/2021 2:30:00 AM 1.39 34.502 0.075 7.29 1.52 13.16
12/22/2021 2:45:00 AM 1.36 34.448 0.075 7.29 1.49 13.17
12/22/2021 3:00:00 AM 1.33 34.394 0.075 7.29 1.49 13.18
12/22/2021 3:15:00 AM 1.31 34.358 0.075 7.28 1.47 13.19
12/22/2021 3:30:00 AM 1.29 34.322 0.076 7.28 1.43 13.18
12/22/2021 3:45:00 AM 1.27 34.286 0.076 7.28 1.47 13.19
12/22/2021 4:00:00 AM 1.25 34.25 0.076 7.29 1.46 13.21
12/22/2021 4:15:00 AM 1.23 34.214 0.076 7.28 1.45 13.2
12/22/2021 4:30:00 AM 1.21 34.178 0.076 7.29 1.44 13.21
12/22/2021 4:45:00 AM 1.2 34.16 0.076 7.28 1.48 13.22
12/22/2021 5:00:00 AM 1.18 34.124 0.076 7.29 1.48 13.22
12/22/2021 5:15:00 AM 1.16 34.088 0.076 7.28 1.45 13.22
12/22/2021 5:30:00 AM 1.14 34.052 0.076 7.29 1.49 13.24
12/22/2021 5:45:00 AM 1.12 34.016 0.076 7.27 1.49 13.23
12/22/2021 6:00:00 AM 1.1 33.98 0.076 7.28 1.49 13.24
12/22/2021 6:15:00 AM 1.07 33.926 0.076 7.27 1.5 13.25
12/22/2021 6:30:00 AM 1.05 33.89 0.076 7.26 1.51 13.26
12/22/2021 6:45:00 AM 1.03 33.854 0.076 7.28 1.4 13.27
12/22/2021 7:00:00 AM 1.04 33.872 0.076 7.27 1.44 13.27
12/22/2021 7:15:00 AM 1.01 33.818 0.076 7.28 1.43 13.29
12/22/2021 7:30:00 AM 0.98 33.764 0.076 7.28 1.45 13.31
12/22/2021 7:45:00 AM 0.95 33.71 0.076 7.29 1.44 13.37
12/22/2021 8:00:00 AM 0.93 33.674 0.075 7.3 1.4 13.47
12/22/2021 8:15:00 AM 0.92 33.656 0.075 7.35 1.41 13.62
12/22/2021 8:30:00 AM 0.91 33.638 0.075 7.39 1.43 13.78
12/22/2021 8:45:00 AM 0.92 33.656 0.075 7.46 1.41 13.98
12/22/2021 9:00:00 AM 0.95 33.71 0.075 7.53 1.44 14.18
12/22/2021 9:15:00 AM 1.01 33.818 0.074 7.63 1.44 14.36
12/22/2021 9:30:00 AM 1.05 33.89 0.074 7.74 1.44 14.48
12/22/2021 9:45:00 AM 1.14 34.052 0.074 7.88 1.43 14.62
12/22/2021 10:00:00 AM 1.22 34.196 0.074 8.03 1.45 14.68
12/22/2021 10:15:00 AM 1.33 34.394 0.073 8.18 1.45 14.7
12/22/2021 10:30:00 AM 1.42 34.556 0.073 8.36 1.43 14.74
12/22/2021 10:45:00 AM 1.52 34.736 0.073 8.5 1.44 14.76
12/22/2021 11:00:00 AM 1.62 34.916 0.073 8.58 1.41 14.72
12/22/2021 11:15:00 AM 1.77 35.186 0.073 8.7 1.36 14.73
12/22/2021 11:30:00 AM 1.89 35.402 0.072 8.75 1.45 14.66
12/22/2021 11:45:00 AM 1.95 35.51 0.072 8.73 1.44 14.55
12/22/2021 12:00:00 PM 1.92 35.456 0.072 8.62 1.48 14.37
12/22/2021 12:15:00 PM 1.95 35.51 0.072 8.55 1.42 14.29
12/22/2021 12:30:00 PM 2.02 35.636 0.072 8.66 1.39 14.33
12/22/2021 12:45:00 PM 2.09 35.762 0.072 8.75 1.44 14.37
12/22/2021 1:00:00 PM 2.1 35.78 0.072 8.7 1.44 14.26
12/22/2021 1:15:00 PM 2.06 35.708 0.072 8.59 1.44 14.15
12/22/2021 1:30:00 PM 2.04 35.672 0.072 8.6 1.47 14.15
12/22/2021 1:45:00 PM 2.05 35.69 0.072 8.58 1.42 14.12
12/22/2021 2:00:00 PM 2.09 35.762 0.071 8.63 1.46 14.15
12/22/2021 2:15:00 PM 2.1 35.78 0.071 8.68 1.42 14.18
12/22/2021 2:30:00 PM 2.12 35.816 0.071 8.73 1.51 14.18
12/22/2021 2:45:00 PM 2.12 35.816 0.071 8.68 1.49 14.14
12/22/2021 3:00:00 PM 2.11 35.798 0.071 8.66 1.44 14.13
12/22/2021 3:15:00 PM 2.11 35.798 0.071 8.62 1.45 14.1
12/22/2021 3:30:00 PM 2.08 35.744 0.071 8.5 1.47 13.98
12/22/2021 3:45:00 PM 2.06 35.708 0.071 8.28 1.55 13.84
12/22/2021 4:00:00 PM 2.02 35.636 0.072 8 1.53 13.68
12/22/2021 4:15:00 PM 1.98 35.564 0.072 7.83 1.53 13.58
12/22/2021 4:30:00 PM 1.94 35.492 0.072 7.71 1.55 13.47
12/22/2021 4:45:00 PM 1.91 35.438 0.072 7.62 1.53 13.37
12/22/2021 5:00:00 PM 1.86 35.348 0.073 7.54 1.53 13.28
12/22/2021 5:15:00 PM 1.83 35.294 0.073 7.49 1.55 13.21
12/22/2021 5:30:00 PM 1.8 35.24 0.073 7.46 1.51 13.17
12/22/2021 5:45:00 PM 1.77 35.186 0.073 7.44 1.47 13.15
12/22/2021 6:00:00 PM 1.73 35.114 0.073 7.41 1.51 13.13
12/22/2021 6:15:00 PM 1.72 35.096 0.073 7.4 1.54 13.11
12/22/2021 6:30:00 PM 1.69 35.042 0.073 7.38 1.51 13.12
12/22/2021 6:45:00 PM 1.65 34.97 0.073 7.37 1.46 13.13
12/22/2021 7:00:00 PM 1.63 34.934 0.073 7.36 1.48 13.12
12/22/2021 7:15:00 PM 1.6 34.88 0.074 7.36 1.46 13.14
12/22/2021 7:30:00 PM 1.57 34.826 0.074 7.35 1.43 13.14
12/22/2021 7:45:00 PM 1.52 34.736 0.074 7.34 1.47 13.17
12/22/2021 8:00:00 PM 1.47 34.646 0.074 7.34 1.49 13.18
12/22/2021 8:15:00 PM 1.43 34.574 0.074 7.34 1.48 13.21
12/22/2021 8:30:00 PM 1.39 34.502 0.074 7.33 1.48 13.22
12/22/2021 8:45:00 PM 1.35 34.43 0.074 7.33 1.4 13.23
12/22/2021 9:00:00 PM 1.32 34.376 0.074 7.33 1.46 13.25
12/22/2021 9:15:00 PM 1.28 34.304 0.074 7.32 1.44 13.27
12/22/2021 9:30:00 PM 1.26 34.268 0.074 7.32 1.47 13.28
12/22/2021 9:45:00 PM 1.24 34.232 0.074 7.32 1.46 13.29
12/22/2021 10:00:00 PM 1.22 34.196 0.074 7.31 1.4 13.31
12/22/2021 10:15:00 PM 1.2 34.16 0.074 7.32 1.46 13.32
12/22/2021 10:30:00 PM 1.17 34.106 0.074 7.32 1.44 13.33
12/22/2021 10:45:00 PM 1.13 34.034 0.075 7.31 1.44 13.35
12/22/2021 11:00:00 PM 1.12 34.016 0.075 7.31 1.43 13.36
12/22/2021 11:15:00 PM 1.09 33.962 0.075 7.32 1.48 13.37
12/22/2021 11:30:00 PM 1.05 33.89 0.075 7.31 1.46 13.39
12/22/2021 11:45:00 PM 1.01 33.818 0.075 7.32 1.44 13.41
12/23/2021 12:00:00 AM 0.97 33.746 0.075 7.32 1.45 13.43
12/23/2021 12:15:00 AM 0.92 33.656 0.075 7.32 1.43 13.45
12/23/2021 12:30:00 AM 0.87 33.566 0.075 7.31 1.42 13.47
12/23/2021 12:45:00 AM 0.83 33.494 0.075 7.31 1.42 13.48
12/23/2021 1:00:00 AM 0.81 33.458 0.075 7.31 1.46 13.49
12/23/2021 1:15:00 AM 0.79 33.422 0.075 7.31 1.44 13.5
12/23/2021 1:30:00 AM 0.74 33.332 0.075 7.31 1.45 13.53
12/23/2021 1:45:00 AM 0.71 33.278 0.075 7.3 1.43 13.53
12/23/2021 2:00:00 AM 0.68 33.224 0.075 7.31 1.46 13.55
12/23/2021 2:15:00 AM 0.66 33.188 0.076 7.3 1.45 13.55
12/23/2021 2:30:00 AM 0.61 33.098 0.076 7.29 1.4 13.59
12/23/2021 2:45:00 AM 0.6 33.08 0.076 7.3 1.45 13.6
12/23/2021 3:00:00 AM 0.58 33.044 0.076 7.31 1.43 13.61
12/23/2021 3:15:00 AM 0.55 32.99 0.076 7.3 1.41 13.62
12/23/2021 3:30:00 AM 0.54 32.972 0.076 7.3 1.39 13.64
12/23/2021 3:45:00 AM 0.51 32.918 0.076 7.29 1.43 13.64
12/23/2021 4:00:00 AM 0.49 32.882 0.076 7.3 1.44 13.66
12/23/2021 4:15:00 AM 0.43 32.774 0.076 7.31 1.42 13.67
12/23/2021 4:30:00 AM 0.41 32.738 0.076 7.3 1.44 13.67
12/23/2021 4:45:00 AM 0.41 32.738 0.076 7.3 1.47 13.7
12/23/2021 5:00:00 AM 0.39 32.702 0.076 7.3 1.41 13.71
12/23/2021 5:15:00 AM 0.38 32.684 0.076 7.3 1.41 13.7
12/23/2021 5:30:00 AM 0.37 32.666 0.076 7.3 1.42 13.72
12/23/2021 5:45:00 AM 0.35 32.63 0.076 7.3 1.45 13.72
12/23/2021 6:00:00 AM 0.34 32.612 0.076 7.3 1.51 13.73
12/23/2021 6:15:00 AM 0.34 32.612 0.076 7.3 1.44 13.74
12/23/2021 6:30:00 AM 0.34 32.612 0.076 7.31 1.36 13.75
12/23/2021 6:45:00 AM 0.34 32.612 0.076 7.28 1.4 13.75
12/23/2021 7:00:00 AM 0.33 32.594 0.076 7.31 1.43 13.75
12/23/2021 7:15:00 AM 0.32 32.576 0.076 7.29 1.41 13.75
12/23/2021 7:30:00 AM 0.34 32.612 0.076 7.29 1.39 13.76
12/23/2021 7:45:00 AM 0.34 32.612 0.076 7.3 1.44 13.79
12/23/2021 8:00:00 AM 0.33 32.594 0.076 7.31 1.36 13.83
12/23/2021 8:15:00 AM 0.32 32.576 0.076 7.33 1.42 13.92
12/23/2021 8:30:00 AM 0.33 32.594 0.075 7.36 1.41 14.05
12/23/2021 8:45:00 AM 0.34 32.612 0.075 7.4 1.42 14.2
12/23/2021 9:00:00 AM 0.34 32.612 0.075 7.48 1.43 14.41
12/23/2021 9:15:00 AM 0.36 32.648 0.075 7.55 1.36 14.59
12/23/2021 9:30:00 AM 0.37 32.666 0.075 7.63 1.41 14.73
12/23/2021 9:45:00 AM 0.4 32.72 0.074 7.72 1.42 14.87
12/23/2021 10:00:00 AM 0.44 32.792 0.074 7.84 1.39 15
12/23/2021 10:15:00 AM 0.48 32.864 0.074 7.97 1.4 15.08
12/23/2021 10:30:00 AM 0.54 32.972 0.074 8.09 1.44 15.14
12/23/2021 10:45:00 AM 0.57 33.026 0.074 8.29 1.43 15.21
12/23/2021 11:00:00 AM 0.64 33.152 0.073 8.44 1.39 15.26
12/23/2021 11:15:00 AM 0.69 33.242 0.073 8.54 1.45 15.27
12/23/2021 11:30:00 AM 0.73 33.314 0.073 8.6 1.42 15.24
12/23/2021 11:45:00 AM 0.77 33.386 0.073 8.63 1.43 15.21
12/23/2021 12:00:00 PM 0.81 33.458 0.073 8.7 1.41 15.19
12/23/2021 12:15:00 PM 0.9 33.62 0.073 8.76 1.36 15.19
12/23/2021 12:30:00 PM 0.97 33.746 0.072 8.82 1.35 15.18
12/23/2021 12:45:00 PM 0.99 33.782 0.072 8.84 1.4 15.15
12/23/2021 1:00:00 PM 1.01 33.818 0.072 8.87 1.38 15.12
12/23/2021 1:15:00 PM 1.02 33.836 0.072 8.91 1.41 15.12
12/23/2021 1:30:00 PM 1.05 33.89 0.072 8.93 1.42 15.1
12/23/2021 1:45:00 PM 1.13 34.034 0.072 8.95 1.39 15.09
12/23/2021 2:00:00 PM 1.16 34.088 0.072 8.96 1.42 15.04
12/23/2021 2:15:00 PM 1.19 34.142 0.072 9 1.41 15.04
12/23/2021 2:30:00 PM 1.19 34.142 0.072 8.99 1.4 14.99
12/23/2021 2:45:00 PM 1.2 34.16 0.072 8.98 1.37 14.92
12/23/2021 3:00:00 PM 1.17 34.106 0.072 8.89 1.36 14.8
12/23/2021 3:15:00 PM 1.12 34.016 0.072 8.77 1.35 14.66
12/23/2021 3:30:00 PM 1.1 33.98 0.072 8.56 1.4 14.5
12/23/2021 3:45:00 PM 1.08 33.944 0.072 8.41 1.39 14.45
12/23/2021 4:00:00 PM 1.06 33.908 0.072 8.17 1.37 14.33
12/23/2021 4:15:00 PM 1.02 33.836 0.072 7.98 1.42 14.23
12/23/2021 4:30:00 PM 0.99 33.782 0.073 7.8 1.43 14.13
12/23/2021 4:45:00 PM 0.95 33.71 0.073 7.68 1.43 14.01
12/23/2021 5:00:00 PM 0.92 33.656 0.073 7.59 1.41 13.89
12/23/2021 5:15:00 PM 0.9 33.62 0.073 7.53 1.43 13.8
12/23/2021 5:30:00 PM 0.88 33.584 0.073 7.47 1.43 13.73
12/23/2021 5:45:00 PM 0.83 33.494 0.074 7.45 1.44 13.69
12/23/2021 6:00:00 PM 0.82 33.476 0.074 7.42 1.45 13.66
12/23/2021 6:15:00 PM 0.79 33.422 0.074 7.41 1.51 13.64
12/23/2021 6:30:00 PM 0.8 33.44 0.074 7.38 1.53 13.61
12/23/2021 6:45:00 PM 0.77 33.386 0.074 7.34 1.53 13.61
12/23/2021 7:00:00 PM 0.78 33.404 0.074 7.35 1.52 13.59
12/23/2021 7:15:00 PM 0.76 33.368 0.074 7.35 1.51 13.6
12/23/2021 7:30:00 PM 0.77 33.386 0.074 7.35 1.51 13.6
12/23/2021 7:45:00 PM 0.78 33.404 0.075 7.33 1.58 13.59
12/23/2021 8:00:00 PM 0.75 33.35 0.075 7.33 1.53 13.62
12/23/2021 8:15:00 PM 0.75 33.35 0.075 7.35 1.58 13.62
12/23/2021 8:30:00 PM 0.76 33.368 0.075 7.33 1.59 13.59
12/23/2021 8:45:00 PM 0.76 33.368 0.075 7.32 1.58 13.6
12/23/2021 9:00:00 PM 0.74 33.332 0.075 7.33 1.65 13.61
12/23/2021 9:15:00 PM 0.74 33.332 0.075 7.32 1.62 13.61
12/23/2021 9:30:00 PM 0.7 33.26 0.075 7.32 1.62 13.6
12/23/2021 9:45:00 PM 0.65 33.17 0.075 7.33 1.59 13.62
12/23/2021 10:00:00 PM 0.64 33.152 0.075 7.3 1.56 13.63
12/23/2021 10:15:00 PM 0.64 33.152 0.075 7.32 1.62 13.63
12/23/2021 10:30:00 PM 0.62 33.116 0.075 7.32 1.59 13.65
12/23/2021 10:45:00 PM 0.61 33.098 0.075 7.32 1.64 13.64
12/23/2021 11:00:00 PM 0.61 33.098 0.076 7.32 1.61 13.65
12/23/2021 11:15:00 PM 0.62 33.116 0.076 7.31 1.64 13.64
12/23/2021 11:30:00 PM 0.61 33.098 0.076 7.32 1.63 13.65
12/23/2021 11:45:00 PM 0.61 33.098 0.076 7.32 1.57 13.64
12/24/2021 12:00:00 AM 0.6 33.08 0.076 7.31 1.54 13.64
12/24/2021 12:15:00 AM 0.6 33.08 0.076 7.32 1.59 13.65
12/24/2021 12:30:00 AM 0.6 33.08 0.076 7.32 1.61 13.65
12/24/2021 12:45:00 AM 0.59 33.062 0.076 7.32 1.59 13.65
12/24/2021 1:00:00 AM 0.6 33.08 0.076 7.31 1.64 13.64
12/24/2021 1:15:00 AM 0.57 33.026 0.076 7.31 1.64 13.65
12/24/2021 1:30:00 AM 0.52 32.936 0.076 7.31 1.66 13.65
12/24/2021 1:45:00 AM 0.47 32.846 0.076 7.31 1.63 13.64
12/24/2021 2:00:00 AM 0.46 32.828 0.076 7.32 1.59 13.66
12/24/2021 2:15:00 AM 0.38 32.684 0.076 7.31 1.57 13.67
12/24/2021 2:30:00 AM 0.33 32.594 0.077 7.32 1.52 13.69
12/24/2021 2:45:00 AM 0.22 32.396 0.076 7.31 1.5 13.7
12/24/2021 3:00:00 AM 0.2 32.36 0.076 7.29 1.49 13.72
12/24/2021 3:15:00 AM 0.2 32.36 0.076 7.3 1.49 13.72
12/24/2021 3:30:00 AM 0.17 32.306 0.076 7.3 1.52 13.74
12/24/2021 3:45:00 AM 0.14 32.252 0.076 7.3 1.47 13.75
12/24/2021 4:00:00 AM 0.11 32.198 0.076 7.3 1.55 13.77
12/24/2021 4:15:00 AM 0.1 32.18 0.076 7.3 1.46 13.78
12/24/2021 4:30:00 AM 0.08 32.144 0.076 7.31 1.47 13.8
12/24/2021 4:45:00 AM 0.09 32.162 0.076 7.31 1.48 13.81
12/24/2021 5:00:00 AM 0.09 32.162 0.076 7.31 1.46 13.81
12/24/2021 5:15:00 AM 0.11 32.198 0.076 7.3 1.49 13.81
12/24/2021 5:30:00 AM 0.12 32.216 0.076 7.3 1.46 13.82
12/24/2021 5:45:00 AM 0.13 32.234 0.076 7.3 1.46 13.82
12/24/2021 6:00:00 AM 0.14 32.252 0.076 7.3 1.44 13.82
12/24/2021 6:15:00 AM 0.15 32.27 0.076 7.3 1.47 13.82
12/24/2021 6:30:00 AM 0.17 32.306 0.076 7.3 1.4 13.81
12/24/2021 6:45:00 AM 0.18 32.324 0.076 7.29 1.46 13.81
12/24/2021 7:00:00 AM 0.19 32.342 0.076 7.3 1.41 13.81
12/24/2021 7:15:00 AM 0.21 32.378 0.076 7.29 1.46 13.8
12/24/2021 7:30:00 AM 0.21 32.378 0.076 7.3 1.5 13.81
12/24/2021 7:45:00 AM 0.21 32.378 0.076 7.3 1.49 13.83
12/24/2021 8:00:00 AM 0.23 32.414 0.076 7.32 1.48 13.88
12/24/2021 8:15:00 AM 0.24 32.432 0.076 7.35 1.45 13.99
12/24/2021 8:30:00 AM 0.28 32.504 0.075 7.38 1.39 14.12
12/24/2021 8:45:00 AM 0.32 32.576 0.075 7.42 1.45 14.27
12/24/2021 9:00:00 AM 0.35 32.63 0.075 7.46 1.41 14.39
12/24/2021 9:15:00 AM 0.4 32.72 0.075 7.52 1.46 14.5
12/24/2021 9:30:00 AM 0.43 32.774 0.075 7.59 1.41 14.62
12/24/2021 9:45:00 AM 0.49 32.882 0.074 7.67 1.41 14.77
12/24/2021 10:00:00 AM 0.55 32.99 0.074 7.81 1.43 14.89
12/24/2021 10:15:00 AM 0.62 33.116 0.074 7.92 1.43 14.96
12/24/2021 10:30:00 AM 0.7 33.26 0.074 8.06 1.42 15.02
12/24/2021 10:45:00 AM 0.76 33.368 0.074 8.22 1.42 15.08
12/24/2021 11:00:00 AM 0.83 33.494 0.074 8.36 1.42 15.09
12/24/2021 11:15:00 AM 0.91 33.638 0.074 8.45 1.41 15.11
12/24/2021 11:30:00 AM 0.96 33.728 0.073 8.54 1.43 15.09
12/24/2021 11:45:00 AM 1.03 33.854 0.073 8.61 1.44 15.07
12/24/2021 12:00:00 PM 1.09 33.962 0.073 8.66 1.45 15.04
12/24/2021 12:15:00 PM 1.15 34.07 0.073 8.71 1.4 15
12/24/2021 12:30:00 PM 1.2 34.16 0.073 8.73 1.41 14.95
12/24/2021 12:45:00 PM 1.26 34.268 0.073 8.76 1.41 14.91
12/24/2021 1:00:00 PM 1.31 34.358 0.073 8.75 1.42 14.83
12/24/2021 1:15:00 PM 1.37 34.466 0.072 8.75 1.4 14.78
12/24/2021 1:30:00 PM 1.41 34.538 0.072 8.78 1.45 14.74
12/24/2021 1:45:00 PM 1.47 34.646 0.072 8.78 1.39 14.71
12/24/2021 2:00:00 PM 1.54 34.772 0.072 8.84 1.42 14.72
12/24/2021 2:15:00 PM 1.62 34.916 0.072 8.86 1.4 14.72
12/24/2021 2:30:00 PM 1.69 35.042 0.072 8.92 1.4 14.72
12/24/2021 2:45:00 PM 1.76 35.168 0.072 8.96 1.42 14.71
12/24/2021 3:00:00 PM 1.78 35.204 0.072 8.92 1.4 14.59
12/24/2021 3:15:00 PM 1.79 35.222 0.072 8.86 1.39 14.49
12/24/2021 3:30:00 PM 1.79 35.222 0.072 8.78 1.43 14.37
12/24/2021 3:45:00 PM 1.79 35.222 0.072 8.66 1.4 14.24
12/24/2021 4:00:00 PM 1.81 35.258 0.072 8.5 1.43 14.14
12/24/2021 4:15:00 PM 1.8 35.24 0.072 8.24 1.43 13.99
12/24/2021 4:30:00 PM 1.78 35.204 0.072 7.96 1.46 13.82
12/24/2021 4:45:00 PM 1.78 35.204 0.073 7.75 1.46 13.65
12/24/2021 5:00:00 PM 1.76 35.168 0.073 7.65 1.44 13.54
12/24/2021 5:15:00 PM 1.76 35.168 0.073 7.56 1.46 13.41
12/24/2021 5:30:00 PM 1.74 35.132 0.073 7.51 1.45 13.35
12/24/2021 5:45:00 PM 1.72 35.096 0.074 7.47 1.54 13.27
12/24/2021 6:00:00 PM 1.71 35.078 0.074 7.43 1.48 13.24
12/24/2021 6:15:00 PM 1.69 35.042 0.074 7.42 1.44 13.21
12/24/2021 6:30:00 PM 1.68 35.024 0.074 7.4 1.48 13.18
12/24/2021 6:45:00 PM 1.69 35.042 0.074 7.38 1.43 13.16
12/24/2021 7:00:00 PM 1.68 35.024 0.074 7.37 1.47 13.16
12/24/2021 7:15:00 PM 1.68 35.024 0.074 7.36 1.46 13.16
12/24/2021 7:30:00 PM 1.67 35.006 0.074 7.35 1.46 13.14
12/24/2021 7:45:00 PM 1.67 35.006 0.074 7.34 1.48 13.14
12/24/2021 8:00:00 PM 1.65 34.97 0.075 7.35 1.42 13.16
12/24/2021 8:15:00 PM 1.65 34.97 0.075 7.34 1.47 13.15
12/24/2021 8:30:00 PM 1.66 34.988 0.075 7.33 1.47 13.13
12/24/2021 8:45:00 PM 1.67 35.006 0.075 7.32 1.45 13.14
12/24/2021 9:00:00 PM 1.67 35.006 0.075 7.33 1.48 13.13
12/24/2021 9:15:00 PM 1.68 35.024 0.075 7.33 1.47 13.14
12/24/2021 9:30:00 PM 1.68 35.024 0.075 7.32 1.47 13.14
12/24/2021 9:45:00 PM 1.7 35.06 0.075 7.32 1.46 13.12
12/24/2021 10:00:00 PM 1.71 35.078 0.075 7.32 1.47 13.1
12/24/2021 10:15:00 PM 1.72 35.096 0.075 7.33 1.48 13.11
12/24/2021 10:30:00 PM 1.73 35.114 0.075 7.33 1.49 13.1
12/24/2021 10:45:00 PM 1.75 35.15 0.075 7.32 1.46 13.08
12/24/2021 11:00:00 PM 1.75 35.15 0.075 7.32 1.45 13.1
12/24/2021 11:15:00 PM 1.76 35.168 0.076 7.32 1.49 13.09
12/24/2021 11:30:00 PM 1.75 35.15 0.076 7.33 1.46 13.09
12/24/2021 11:45:00 PM 1.75 35.15 0.076 7.31 1.46 13.08
12/25/2021 12:00:00 AM 1.76 35.168 0.076 7.33 1.46 13.07
12/25/2021 12:15:00 AM 1.77 35.186 0.076 7.32 1.49 13.07
12/25/2021 12:30:00 AM 1.78 35.204 0.076 7.32 1.47 13.06
12/25/2021 12:45:00 AM 1.8 35.24 0.076 7.32 1.48 13.07
12/25/2021 1:00:00 AM 1.8 35.24 0.076 7.32 1.45 13.07
12/25/2021 1:15:00 AM 1.81 35.258 0.076 7.32 1.42 13.05
12/25/2021 1:30:00 AM 1.84 35.312 0.076 7.31 1.43 13.03
12/25/2021 1:45:00 AM 1.83 35.294 0.076 7.33 1.45 13.03
12/25/2021 2:00:00 AM 1.87 35.366 0.076 7.3 1.46 13
12/25/2021 2:15:00 AM 1.88 35.384 0.076 7.31 1.43 13
12/25/2021 2:30:00 AM 1.88 35.384 0.076 7.32 1.45 13
12/25/2021 2:45:00 AM 1.89 35.402 0.076 7.31 1.48 12.99
12/25/2021 3:00:00 AM 1.89 35.402 0.076 7.32 1.5 13
12/25/2021 3:15:00 AM 1.92 35.456 0.076 7.32 1.43 12.98
12/25/2021 3:30:00 AM 1.94 35.492 0.076 7.31 1.42 12.96
12/25/2021 3:45:00 AM 1.93 35.474 0.076 7.32 1.47 12.97
12/25/2021 4:00:00 AM 1.94 35.492 0.076 7.32 1.45 12.96
12/25/2021 4:15:00 AM 1.95 35.51 0.076 7.32 1.4 12.94
12/25/2021 4:30:00 AM 1.96 35.528 0.076 7.32 1.51 12.95
12/25/2021 4:45:00 AM 1.97 35.546 0.076 7.32 1.46 12.94
12/25/2021 5:00:00 AM 1.98 35.564 0.076 7.31 1.46 12.92
12/25/2021 5:15:00 AM 1.99 35.582 0.076 7.32 1.48 12.92
12/25/2021 5:30:00 AM 2.01 35.618 0.076 7.31 1.5 12.9
12/25/2021 5:45:00 AM 2.01 35.618 0.076 7.31 1.54 12.9
12/25/2021 6:00:00 AM 2.01 35.618 0.076 7.31 1.46 12.9
12/25/2021 6:15:00 AM 2.03 35.654 0.076 7.31 1.44 12.89
12/25/2021 6:30:00 AM 2.05 35.69 0.076 7.3 1.5 12.89
12/25/2021 6:45:00 AM 2.06 35.708 0.076 7.31 1.49 12.88
12/25/2021 7:00:00 AM 2.08 35.744 0.076 7.3 1.49 12.86
12/25/2021 7:15:00 AM 2.08 35.744 0.075 7.3 1.56 12.86
12/25/2021 7:30:00 AM 2.1 35.78 0.075 7.31 1.54 12.85
12/25/2021 7:45:00 AM 2.1 35.78 0.076 7.3 1.59 12.87
12/25/2021 8:00:00 AM 2.12 35.816 0.076 7.31 1.6 12.88
12/25/2021 8:15:00 AM 2.13 35.834 0.076 7.31 1.67 12.9
12/25/2021 8:30:00 AM 2.15 35.87 0.075 7.34 1.65 12.96
12/25/2021 8:45:00 AM 2.17 35.906 0.075 7.34 1.66 12.98
12/25/2021 9:00:00 AM 2.19 35.942 0.075 7.37 1.71 13.06
12/25/2021 9:15:00 AM 2.21 35.978 0.075 7.4 1.72 13.15
12/25/2021 9:30:00 AM 2.23 36.014 0.075 7.4 1.72 13.15
12/25/2021 9:45:00 AM 2.26 36.068 0.075 7.42 1.77 13.19
12/25/2021 10:00:00 AM 2.28 36.104 0.075 7.45 1.83 13.26
12/25/2021 10:15:00 AM 2.3 36.14 0.074 7.46 1.92 13.3
12/25/2021 10:30:00 AM 2.32 36.176 0.074 7.48 2.11 13.3
12/25/2021 10:45:00 AM 2.33 36.194 0.074 7.48 2.15 13.26
12/25/2021 11:00:00 AM 2.37 36.266 0.074 7.49 2.25 13.3
12/25/2021 11:15:00 AM 2.39 36.302 0.074 7.52 2.41 13.37
12/25/2021 11:30:00 AM 2.41 36.338 0.074 7.54 2.51 13.42
12/25/2021 11:45:00 AM 2.44 36.392 0.074 7.57 2.51 13.49
12/25/2021 12:00:00 PM 2.48 36.464 0.076 7.64 2.61 13.59
12/25/2021 12:15:00 PM 2.5 36.5 0.077 7.67 2.62 13.58
12/25/2021 12:30:00 PM 2.52 36.536 0.078 7.73 2.65 13.6
12/25/2021 12:45:00 PM 2.55 36.59 0.078 7.75 2.64 13.59
12/25/2021 1:00:00 PM 2.58 36.644 0.077 7.74 2.85 13.55
12/25/2021 1:15:00 PM 2.6 36.68 0.077 7.72 3.14 13.49
12/25/2021 1:30:00 PM 2.62 36.716 0.076 7.73 3.35 13.47
12/25/2021 1:45:00 PM 2.64 36.752 0.075 7.72 3.67 13.44
12/25/2021 2:00:00 PM 2.65 36.77 0.075 7.71 4.09 13.42
12/25/2021 2:15:00 PM 2.68 36.824 0.075 7.73 4.35 13.44
12/25/2021 2:30:00 PM 2.7 36.86 0.075 7.75 4.36 13.44
12/25/2021 2:45:00 PM 2.72 36.896 0.076 7.71 4.35 13.38
12/25/2021 3:00:00 PM 2.73 36.914 0.076 7.64 4.41 13.26
12/25/2021 3:15:00 PM 2.74 36.932 0.077 7.6 4.33 13.19
12/25/2021 3:30:00 PM 2.75 36.95 0.077 7.58 4.48 13.15
12/25/2021 3:45:00 PM 2.76 36.968 0.077 7.55 4.33 13.08
12/25/2021 4:00:00 PM 2.77 36.986 0.077 7.52 4.37 13.03
12/25/2021 4:15:00 PM 2.78 37.004 0.077 7.49 4.38 12.97
12/25/2021 4:30:00 PM 2.79 37.022 0.077 7.46 4.51 12.89
12/25/2021 4:45:00 PM 2.8 37.04 0.077 7.43 4.55 12.81
12/25/2021 5:00:00 PM 2.81 37.058 0.077 7.4 4.88 12.76
12/25/2021 5:15:00 PM 2.82 37.076 0.077 7.38 4.64 12.73
12/25/2021 5:30:00 PM 2.83 37.094 0.076 7.36 4.63 12.69
12/25/2021 5:45:00 PM 2.83 37.094 0.076 7.34 4.58 12.67
12/25/2021 6:00:00 PM 2.84 37.112 0.076 7.33 4.44 12.65
12/25/2021 6:15:00 PM 2.85 37.13 0.076 7.32 4.51 12.65
12/25/2021 6:30:00 PM 2.86 37.148 0.076 7.32 4.46 12.64
12/25/2021 6:45:00 PM 2.86 37.148 0.075 7.31 4.25 12.64
12/25/2021 7:00:00 PM 2.87 37.166 0.075 7.3 4.24 12.64
12/25/2021 7:15:00 PM 2.87 37.166 0.076 7.3 4.27 12.62
12/25/2021 7:30:00 PM 2.88 37.184 0.076 7.3 4.32 12.62
12/25/2021 7:45:00 PM 2.88 37.184 0.076 7.29 4.19 12.64
12/25/2021 8:00:00 PM 2.89 37.202 0.076 7.29 4.27 12.62
12/25/2021 8:15:00 PM 2.9 37.22 0.077 7.29 4.13 12.62
12/25/2021 8:30:00 PM 2.9 37.22 0.077 7.29 4.1 12.62
12/25/2021 8:45:00 PM 2.91 37.238 0.077 7.28 4.03 12.63
12/25/2021 9:00:00 PM 2.92 37.256 0.078 7.28 4.01 12.63
12/25/2021 9:15:00 PM 2.92 37.256 0.078 7.28 4 12.62
12/25/2021 9:30:00 PM 2.93 37.274 0.078 7.28 4.16 12.62
12/25/2021 9:45:00 PM 2.93 37.274 0.078 7.28 4.03 12.63
12/25/2021 10:00:00 PM 2.95 37.31 0.078 7.28 4.08 12.62
12/25/2021 10:15:00 PM 2.96 37.328 0.078 7.29 4.11 12.63
12/25/2021 10:30:00 PM 2.98 37.364 0.078 7.29 4.07 12.62
12/25/2021 10:45:00 PM 2.99 37.382 0.078 7.29 4.14 12.62
12/25/2021 11:00:00 PM 3.01 37.418 0.078 7.29 4.2 12.62
12/25/2021 11:15:00 PM 3.03 37.454 0.078 7.29 4.13 12.63
12/25/2021 11:30:00 PM 3.06 37.508 0.078 7.29 4.21 12.62
12/25/2021 11:45:00 PM 3.08 37.544 0.077 7.29 4.19 12.61
12/26/2021 12:00:00 AM 3.1 37.58 0.077 7.29 4.33 12.6
12/26/2021 12:15:00 AM 3.12 37.616 0.077 7.29 4.43 12.61
12/26/2021 12:30:00 AM 3.13 37.634 0.076 7.29 4.74 12.6
12/26/2021 12:45:00 AM 3.14 37.652 0.076 7.29 4.8 12.6
12/26/2021 1:00:00 AM 3.15 37.67 0.076 7.29 4.78 12.6
12/26/2021 1:15:00 AM 3.16 37.688 0.076 7.29 4.8 12.6
12/26/2021 1:30:00 AM 3.17 37.706 0.075 7.29 4.78 12.59
12/26/2021 1:45:00 AM 3.19 37.742 0.075 7.29 4.65 12.59
12/26/2021 2:00:00 AM 3.2 37.76 0.075 7.29 4.64 12.59
12/26/2021 2:15:00 AM 3.21 37.778 0.075 7.29 4.47 12.59
12/26/2021 2:30:00 AM 3.21 37.778 0.075 7.29 4.38 12.59
12/26/2021 2:45:00 AM 3.21 37.778 0.075 7.29 4.43 12.59
12/26/2021 3:00:00 AM 3.21 37.778 0.075 7.29 4.53 12.59
12/26/2021 3:15:00 AM 3.21 37.778 0.075 7.29 4.44 12.59
12/26/2021 3:30:00 AM 3.22 37.796 0.075 7.29 4.32 12.59
12/26/2021 3:45:00 AM 3.22 37.796 0.075 7.29 4.01 12.58
12/26/2021 4:00:00 AM 3.22 37.796 0.075 7.29 4.07 12.59
12/26/2021 4:15:00 AM 3.22 37.796 0.075 7.29 3.99 12.59
12/26/2021 4:30:00 AM 3.21 37.778 0.075 7.29 441.79 12.59
12/26/2021 4:45:00 AM 3.21 37.778 0.075 7.27 3.77 12.6
12/26/2021 5:00:00 AM 3.2 37.76 0.075 7.29 3.77 12.6
12/26/2021 5:15:00 AM 3.2 37.76 0.075 7.28 3.78 12.61
12/26/2021 5:30:00 AM 3.19 37.742 0.075 7.29 3.67 12.61
12/26/2021 5:45:00 AM 3.18 37.724 0.075 7.28 3.56 12.62
12/26/2021 6:00:00 AM 3.17 37.706 0.075 7.28 3.63 12.63
12/26/2021 6:15:00 AM 3.17 37.706 0.075 7.29 3.5 12.63
12/26/2021 6:30:00 AM 3.15 37.67 0.075 7.28 3.38 12.64
12/26/2021 6:45:00 AM 3.14 37.652 0.075 7.28 3.42 12.65
12/26/2021 7:00:00 AM 3.11 37.598 0.075 7.28 3.48 12.66
12/26/2021 7:15:00 AM 3.07 37.526 0.075 7.28 3.3 12.67
12/26/2021 7:30:00 AM 3.04 37.472 0.075 7.28 3.3 12.68
12/26/2021 7:45:00 AM 3.01 37.418 0.075 7.29 3.27 12.73
12/26/2021 8:00:00 AM 2.98 37.364 0.075 7.3 3.1 12.81
12/26/2021 8:15:00 AM 2.95 37.31 0.075 7.33 2.99 12.9
12/26/2021 8:30:00 AM 2.93 37.274 0.075 7.36 3 13
12/26/2021 8:45:00 AM 2.93 37.274 0.074 7.41 2.95 13.15
12/26/2021 9:00:00 AM 2.93 37.274 0.074 7.46 2.91 13.27
12/26/2021 9:15:00 AM 2.93 37.274 0.074 7.51 2.73 13.39
12/26/2021 9:30:00 AM 2.95 37.31 0.074 7.59 2.64 13.53
12/26/2021 9:45:00 AM 2.98 37.364 0.074 7.67 2.6 13.66
12/26/2021 10:00:00 AM 3.01 37.418 0.074 7.77 2.65 13.74
12/26/2021 10:15:00 AM 3.04 37.472 0.073 7.86 2.57 13.82
12/26/2021 10:30:00 AM 3.09 37.562 0.073 7.95 2.56 13.86
12/26/2021 10:45:00 AM 3.12 37.616 0.073 8.04 2.5 13.88
12/26/2021 11:00:00 AM 3.15 37.67 0.073 8.11 2.49 13.89
12/26/2021 11:15:00 AM 3.17 37.706 0.073 8.15 2.42 13.88
12/26/2021 11:30:00 AM 3.19 37.742 0.073 8.2 2.42 13.88
12/26/2021 11:45:00 AM 3.23 37.814 0.073 8.29 2.4 13.9
12/26/2021 12:00:00 PM 3.25 37.85 0.073 8.27 2.48 13.85
12/26/2021 12:15:00 PM 3.26 37.868 0.072 8.18 2.45 13.75
12/26/2021 12:30:00 PM 3.27 37.886 0.072 8.11 2.51 13.68
12/26/2021 12:45:00 PM 3.3 37.94 0.072 8.08 2.45 13.64
12/26/2021 1:00:00 PM 3.3 37.94 0.072 7.98 2.48 13.56
12/26/2021 1:15:00 PM 3.3 37.94 0.072 7.9 2.37 13.49
12/26/2021 1:30:00 PM 3.31 37.958 0.072 7.9 2.38 13.5
12/26/2021 1:45:00 PM 3.31 37.958 0.072 7.92 2.4 13.52
12/26/2021 2:00:00 PM 3.31 37.958 0.072 7.89 2.35 13.5
12/26/2021 2:15:00 PM 3.31 37.958 0.072 7.88 2.46 13.5
12/26/2021 2:30:00 PM 3.31 37.958 0.072 7.86 2.41 13.47
12/26/2021 2:45:00 PM 3.31 37.958 0.072 7.81 2.34 13.43
12/26/2021 3:00:00 PM 3.3 37.94 0.072 7.77 2.32 13.37
12/26/2021 3:15:00 PM 3.29 37.922 0.072 7.74 2.25 13.36
12/26/2021 3:30:00 PM 3.28 37.904 0.072 7.7 2.18 13.31
12/26/2021 3:45:00 PM 3.28 37.904 0.072 7.65 2.2 13.23
12/26/2021 4:00:00 PM 3.26 37.868 0.072 7.59 2.32 13.15
12/26/2021 4:15:00 PM 3.25 37.85 0.073 7.54 2.32 13.07
12/26/2021 4:30:00 PM 3.23 37.814 0.073 7.49 2.34 12.98
12/26/2021 4:45:00 PM 3.21 37.778 0.073 7.45 2.25 12.9
12/26/2021 5:00:00 PM 3.18 37.724 0.073 7.41 2.32 12.84
12/26/2021 5:15:00 PM 3.16 37.688 0.073 7.39 2.27 12.8
12/26/2021 5:30:00 PM 3.13 37.634 0.073 7.36 2.28 12.76
12/26/2021 5:45:00 PM 3.11 37.598 0.073 7.35 2.31 12.75
12/26/2021 6:00:00 PM 3.09 37.562 0.073 7.33 2.21 12.74
12/26/2021 6:15:00 PM 3.06 37.508 0.073 7.33 2.23 12.74
12/26/2021 6:30:00 PM 3.04 37.472 0.073 7.32 2.28 12.75
12/26/2021 6:45:00 PM 3.02 37.436 0.073 7.31 2.28 12.74
12/26/2021 7:00:00 PM 3 37.4 0.074 7.3 2.27 12.74
12/26/2021 7:15:00 PM 2.99 37.382 0.074 7.3 2.32 12.75
12/26/2021 7:30:00 PM 2.98 37.364 0.074 7.3 2.26 12.76
12/26/2021 7:45:00 PM 2.96 37.328 0.074 7.29 2.2 12.77
12/26/2021 8:00:00 PM 2.94 37.292 0.074 7.29 2.15 12.78
12/26/2021 8:15:00 PM 2.92 37.256 0.074 7.29 2.11 12.78
12/26/2021 8:30:00 PM 2.9 37.22 0.074 7.29 2.12 12.79
12/26/2021 8:45:00 PM 2.88 37.184 0.074 7.29 2.19 12.79
12/26/2021 9:00:00 PM 2.86 37.148 0.074 7.29 2.16 12.8
12/26/2021 9:15:00 PM 2.84 37.112 0.074 7.29 2.21 12.82
12/26/2021 9:30:00 PM 2.82 37.076 0.074 7.28 2.16 12.82
12/26/2021 9:45:00 PM 2.79 37.022 0.074 7.28 2.16 12.84
12/26/2021 10:00:00 PM 2.78 37.004 0.074 7.28 2.17 12.84
12/26/2021 10:15:00 PM 2.76 36.968 0.074 7.29 2.14 12.85
12/26/2021 10:30:00 PM 2.74 36.932 0.074 7.29 2.14 12.87
12/26/2021 10:45:00 PM 2.72 36.896 0.074 7.29 2.13 12.87
12/26/2021 11:00:00 PM 2.7 36.86 0.074 7.28 2.18 12.88
12/26/2021 11:15:00 PM 2.67 36.806 0.074 7.28 2.11 12.89
12/26/2021 11:30:00 PM 2.66 36.788 0.074 7.28 2.1 12.89
12/26/2021 11:45:00 PM 2.64 36.752 0.074 7.28 2.15 12.9
12/27/2021 12:00:00 AM 2.61 36.698 0.074 7.28 2.05 12.91
12/27/2021 12:15:00 AM 2.59 36.662 0.074 7.28 2.07 12.91
12/27/2021 12:30:00 AM 2.56 36.608 0.074 7.28 2.08 12.93
12/27/2021 12:45:00 AM 2.52 36.536 0.074 7.28 2.12 12.94
12/27/2021 1:00:00 AM 2.48 36.464 0.074 7.28 2.12 12.96
12/27/2021 1:15:00 AM 2.43 36.374 0.074 7.28 2.11 12.97
12/27/2021 1:30:00 AM 2.38 36.284 0.074 7.28 2.06 12.99
12/27/2021 1:45:00 AM 2.34 36.212 0.074 7.28 2.11 13.01
12/27/2021 2:00:00 AM 2.3 36.14 0.074 7.27 2.07 13.02
12/27/2021 2:15:00 AM 2.27 36.086 0.074 7.28 2.1 13.03
12/27/2021 2:30:00 AM 2.24 36.032 0.074 7.28 2 13.04
12/27/2021 2:45:00 AM 2.22 35.996 0.074 7.27 2.01 13.04
12/27/2021 3:00:00 AM 2.19 35.942 0.074 7.27 2.01 13.05
12/27/2021 3:15:00 AM 2.15 35.87 0.074 7.27 1.94 13.07
12/27/2021 3:30:00 AM 2.11 35.798 0.074 7.27 1.93 13.08
12/27/2021 3:45:00 AM 2.07 35.726 0.074 7.27 1.96 13.09
12/27/2021 4:00:00 AM 2.04 35.672 0.073 7.27 1.85 13.1
12/27/2021 4:15:00 AM 2.01 35.618 0.073 7.27 1.91 13.12
12/27/2021 4:30:00 AM 1.98 35.564 0.073 7.27 1.87 13.13
12/27/2021 4:45:00 AM 1.95 35.51 0.073 7.27 1.89 13.14
12/27/2021 5:00:00 AM 1.93 35.474 0.073 7.27 1.84 13.15
12/27/2021 5:15:00 AM 1.92 35.456 0.073 7.27 1.86 13.15
12/27/2021 5:30:00 AM 1.9 35.42 0.073 7.27 1.83 13.17
12/27/2021 5:45:00 AM 1.88 35.384 0.073 7.26 1.83 13.17
12/27/2021 6:00:00 AM 1.87 35.366 0.073 7.27 1.82 13.17
12/27/2021 6:15:00 AM 1.86 35.348 0.073 7.26 1.76 13.18
12/27/2021 6:30:00 AM 1.84 35.312 0.073 7.26 1.83 13.18
12/27/2021 6:45:00 AM 1.82 35.276 0.073 7.26 1.84 13.2
12/27/2021 7:00:00 AM 1.8 35.24 0.073 7.26 1.77 13.21
12/27/2021 7:15:00 AM 1.78 35.204 0.073 7.26 1.8 13.2
12/27/2021 7:30:00 AM 1.77 35.186 0.073 7.26 1.87 13.22
12/27/2021 7:45:00 AM 1.76 35.168 0.073 7.26 1.8 13.23
12/27/2021 8:00:00 AM 1.75 35.15 0.073 7.26 1.8 13.26
12/27/2021 8:15:00 AM 1.74 35.132 0.073 7.27 1.83 13.3
12/27/2021 8:30:00 AM 1.74 35.132 0.073 7.28 1.76 13.35
12/27/2021 8:45:00 AM 1.73 35.114 0.073 7.3 1.83 13.42
12/27/2021 9:00:00 AM 1.73 35.114 0.073 7.32 1.8 13.47
12/27/2021 9:15:00 AM 1.73 35.114 0.073 7.33 1.79 13.53
12/27/2021 9:30:00 AM 1.73 35.114 0.073 7.35 1.74 13.57
12/27/2021 9:45:00 AM 1.73 35.114 0.073 7.36 1.81 13.6
12/27/2021 10:00:00 AM 1.74 35.132 0.073 7.36 1.69 13.6
12/27/2021 10:15:00 AM 1.75 35.15 0.073 7.39 1.74 13.67
12/27/2021 10:30:00 AM 1.78 35.204 0.072 7.46 1.75 13.87
12/27/2021 10:45:00 AM 1.79 35.222 0.072 7.51 1.72 13.93
12/27/2021 11:00:00 AM 1.81 35.258 0.072 7.56 1.75 14.03
12/27/2021 11:15:00 AM 1.83 35.294 0.072 7.6 1.72 14.09
12/27/2021 11:30:00 AM 1.86 35.348 0.072 7.7 1.67 14.18
12/27/2021 11:45:00 AM 1.88 35.384 0.072 7.73 1.72 14.17
12/27/2021 12:00:00 PM 1.9 35.42 0.072 7.75 1.72 14.19
12/27/2021 12:15:00 PM 1.93 35.474 0.072 7.8 1.64 14.2
12/27/2021 12:30:00 PM 1.96 35.528 0.072 7.86 1.67 14.22
12/27/2021 12:45:00 PM 1.98 35.564 0.072 7.85 1.66 14.17
12/27/2021 1:00:00 PM 1.99 35.582 0.072 7.79 1.62 14.09
12/27/2021 1:15:00 PM 2 35.6 0.072 7.86 1.58 14.13
12/27/2021 1:30:00 PM 2.03 35.654 0.071 7.92 1.61 14.17
12/27/2021 1:45:00 PM 2.07 35.726 0.071 8.02 1.59 14.22
12/27/2021 2:00:00 PM 2.08 35.744 0.071 8.03 1.56 14.2
12/27/2021 2:15:00 PM 2.1 35.78 0.071 8 1.62 14.15
12/27/2021 2:30:00 PM 2.12 35.816 0.071 7.96 1.58 14.09
12/27/2021 2:45:00 PM 2.14 35.852 0.071 7.87 1.62 13.99
12/27/2021 3:00:00 PM 2.14 35.852 0.071 7.78 1.62 13.9
12/27/2021 3:15:00 PM 2.14 35.852 0.071 7.7 1.6 13.79
12/27/2021 3:30:00 PM 2.14 35.852 0.071 7.62 1.58 13.67
12/27/2021 3:45:00 PM 2.13 35.834 0.071 7.56 1.63 13.58
12/27/2021 4:00:00 PM 2.13 35.834 0.072 7.54 1.63 13.52
12/27/2021 4:15:00 PM 2.13 35.834 0.072 7.48 1.59 13.42
12/27/2021 4:30:00 PM 2.13 35.834 0.072 7.44 1.59 13.33
12/27/2021 4:45:00 PM 2.12 35.816 0.072 7.4 1.58 13.24
12/27/2021 5:00:00 PM 2.12 35.816 0.072 7.36 1.6 13.18
12/27/2021 5:15:00 PM 2.11 35.798 0.072 7.35 1.65 13.13
12/27/2021 5:30:00 PM 2.1 35.78 0.072 7.33 1.64 13.1
12/27/2021 5:45:00 PM 2.1 35.78 0.072 7.31 1.65 13.06
12/27/2021 6:00:00 PM 2.05 35.69 0.072 7.29 1.7 13.04
12/27/2021 6:15:00 PM 2.05 35.69 0.072 7.3 1.71 13.03
12/27/2021 6:30:00 PM 2.06 35.708 0.072 7.29 1.69 13.03
12/27/2021 6:45:00 PM 2.04 35.672 0.072 7.27 1.71 13.02
12/27/2021 7:00:00 PM 2.04 35.672 0.072 7.27 1.64 13.02
12/27/2021 7:15:00 PM 2.02 35.636 0.072 7.27 1.64 13.02
12/27/2021 7:30:00 PM 2.02 35.636 0.072 7.27 1.63 13.02
12/27/2021 7:45:00 PM 2.02 35.636 0.072 7.27 1.62 13.02
12/27/2021 8:00:00 PM 2.02 35.636 0.072 7.26 1.66 13.01
12/27/2021 8:15:00 PM 1.87 35.366 0.072 7.26 1.68 13.02
12/27/2021 8:30:00 PM 1.91 35.438 0.072 7.26 1.7 13.03
12/27/2021 8:45:00 PM 1.93 35.474 0.072 7.26 1.66 13.03
12/27/2021 9:00:00 PM 1.94 35.492 0.072 7.25 1.63 13.02
12/27/2021 9:15:00 PM 1.94 35.492 0.072 7.26 1.65 13.03
12/27/2021 9:30:00 PM 1.94 35.492 0.072 7.26 1.63 13.03
12/27/2021 9:45:00 PM 1.93 35.474 0.072 7.26 1.68 13.03
12/27/2021 10:00:00 PM 1.92 35.456 0.072 7.25 1.71 13.03
12/27/2021 10:15:00 PM 1.91 35.438 0.072 7.25 1.69 13.04
12/27/2021 10:30:00 PM 1.91 35.438 0.072 7.26 1.7 13.05
12/27/2021 10:45:00 PM 1.9 35.42 0.072 7.26 1.66 13.05
12/27/2021 11:00:00 PM 1.91 35.438 0.072 7.25 1.62 13.04
12/27/2021 11:15:00 PM 1.91 35.438 0.073 7.26 1.63 13.04
12/27/2021 11:30:00 PM 1.91 35.438 0.073 7.25 1.66 13.04
12/27/2021 11:45:00 PM 1.92 35.456 0.073 7.26 1.69 13.03
12/28/2021 12:00:00 AM 1.92 35.456 0.073 7.25 1.68 13.03
12/28/2021 12:15:00 AM 1.92 35.456 0.073 7.26 1.64 13.04
12/28/2021 12:30:00 AM 1.92 35.456 0.073 7.25 1.63 13.03
12/28/2021 12:45:00 AM 1.92 35.456 0.073 7.25 1.65 13.04
12/28/2021 1:00:00 AM 1.92 35.456 0.073 7.25 1.65 13.04
12/28/2021 1:15:00 AM 1.92 35.456 0.073 7.25 1.63 13.04
12/28/2021 1:30:00 AM 1.93 35.474 0.073 7.25 1.63 13.03
12/28/2021 1:45:00 AM 1.93 35.474 0.073 7.25 1.64 13.03
12/28/2021 2:00:00 AM 1.95 35.51 0.073 7.25 1.65 13.02
12/28/2021 2:15:00 AM 1.96 35.528 0.073 7.25 1.69 13.01
12/28/2021 2:30:00 AM 1.98 35.564 0.073 7.25 1.65 13.01
12/28/2021 2:45:00 AM 2 35.6 0.073 7.24 1.61 13
12/28/2021 3:00:00 AM 2.01 35.618 0.073 7.25 1.63 13
12/28/2021 3:15:00 AM 2.03 35.654 0.073 7.25 1.56 12.99
12/28/2021 3:30:00 AM 2.05 35.69 0.073 7.25 1.66 12.98
12/28/2021 3:45:00 AM 2.07 35.726 0.073 7.25 1.66 12.98
12/28/2021 4:00:00 AM 2.09 35.762 0.073 7.24 1.6 12.97
12/28/2021 4:15:00 AM 2.1 35.78 0.073 7.24 1.57 12.97
12/28/2021 4:30:00 AM 2.12 35.816 0.073 7.24 1.6 12.96
12/28/2021 4:45:00 AM 2.13 35.834 0.073 7.25 1.6 12.95
12/28/2021 5:00:00 AM 2.15 35.87 0.073 7.25 1.61 12.95
12/28/2021 5:15:00 AM 2.17 35.906 0.073 7.25 1.57 12.94
12/28/2021 5:30:00 AM 2.19 35.942 0.073 7.23 1.63 12.93
12/28/2021 5:45:00 AM 2.21 35.978 0.073 7.24 1.6 12.92
12/28/2021 6:00:00 AM 2.22 35.996 0.073 7.25 1.53 12.91
12/28/2021 6:15:00 AM 2.21 35.978 0.073 7.24 1.63 12.91
12/28/2021 6:30:00 AM 2.21 35.978 0.073 7.24 1.59 12.91
12/28/2021 6:45:00 AM 2.21 35.978 0.073 7.23 1.6 12.91
12/28/2021 7:00:00 AM 2.21 35.978 0.073 7.24 1.62 12.91
12/28/2021 7:15:00 AM 2.2 35.96 0.073 7.24 1.6 12.93
12/28/2021 7:30:00 AM 2.18 35.924 0.073 7.24 1.55 12.95
12/28/2021 7:45:00 AM 2.18 35.924 0.073 7.26 1.59 12.99
12/28/2021 8:00:00 AM 2.17 35.906 0.073 7.27 1.57 13.07
12/28/2021 8:15:00 AM 2.16 35.888 0.073 7.3 1.59 13.17
12/28/2021 8:30:00 AM 2.16 35.888 0.073 7.34 1.6 13.3
12/28/2021 8:45:00 AM 2.18 35.924 0.072 7.38 1.57 13.43
12/28/2021 9:00:00 AM 2.19 35.942 0.072 7.44 1.58 13.58
12/28/2021 9:15:00 AM 2.25 36.05 0.072 7.51 1.58 13.74
12/28/2021 9:30:00 AM 2.3 36.14 0.072 7.59 1.56 13.87
12/28/2021 9:45:00 AM 2.35 36.23 0.072 7.69 1.58 13.97
12/28/2021 10:00:00 AM 2.44 36.392 0.071 7.79 1.53 14.05
12/28/2021 10:15:00 AM 2.55 36.59 0.071 7.94 1.58 14.13
12/28/2021 10:30:00 AM 2.68 36.824 0.071 8.12 1.52 14.19
12/28/2021 10:45:00 AM 2.81 37.058 0.071 8.27 1.51 14.19
12/28/2021 11:00:00 AM 2.94 37.292 0.071 8.38 1.56 14.19
12/28/2021 11:15:00 AM 3.06 37.508 0.071 8.48 1.6 14.17
12/28/2021 11:30:00 AM 3.19 37.742 0.07 8.53 1.59 14.11
12/28/2021 11:45:00 AM 3.31 37.958 0.07 8.57 1.68 14.04
12/28/2021 12:00:00 PM 3.39 38.102 0.07 8.56 1.74 13.97
12/28/2021 12:15:00 PM 3.44 38.192 0.07 8.56 1.85 13.91
12/28/2021 12:30:00 PM 3.45 38.21 0.07 8.55 1.9 13.86
12/28/2021 12:45:00 PM 3.49 38.282 0.07 8.6 1.8 13.85
12/28/2021 1:00:00 PM 3.54 38.372 0.07 8.63 1.74 13.83
12/28/2021 1:15:00 PM 3.58 38.444 0.07 8.62 1.71 13.81
12/28/2021 1:30:00 PM 3.59 38.462 0.07 8.66 1.85 13.79
12/28/2021 1:45:00 PM 3.6 38.48 0.07 8.63 1.87 13.74
12/28/2021 2:00:00 PM 3.64 38.552 0.07 8.6 1.97 13.67
12/28/2021 2:15:00 PM 3.66 38.588 0.07 8.53 2.02 13.57
12/28/2021 2:30:00 PM 3.68 38.624 0.07 8.39 1.99 13.45
12/28/2021 2:45:00 PM 3.7 38.66 0.07 8.21 1.94 13.35
12/28/2021 3:00:00 PM 3.72 38.696 0.07 8.16 1.94 13.33
12/28/2021 3:15:00 PM 3.74 38.732 0.07 8.09 1.89 13.3
12/28/2021 3:30:00 PM 3.75 38.75 0.07 7.94 1.82 13.2
12/28/2021 3:45:00 PM 3.75 38.75 0.07 7.77 1.86 13.06
12/28/2021 4:00:00 PM 3.74 38.732 0.07 7.66 1.85 12.93
12/28/2021 4:15:00 PM 3.73 38.714 0.071 7.59 1.73 12.83
12/28/2021 4:30:00 PM 3.71 38.678 0.071 7.52 1.75 12.72
12/28/2021 4:45:00 PM 3.69 38.642 0.071 7.46 1.69 12.64
12/28/2021 5:00:00 PM 3.67 38.606 0.071 7.42 1.72 12.57
12/28/2021 5:15:00 PM 3.65 38.57 0.071 7.39 1.67 12.53
12/28/2021 5:30:00 PM 3.64 38.552 0.071 7.36 1.72 12.49
12/28/2021 5:45:00 PM 3.62 38.516 0.071 7.35 1.73 12.47
12/28/2021 6:00:00 PM 3.61 38.498 0.072 7.33 1.74 12.46
12/28/2021 6:15:00 PM 3.6 38.48 0.072 7.32 1.78 12.45
12/28/2021 6:30:00 PM 3.59 38.462 0.072 7.31 1.78 12.45
12/28/2021 6:45:00 PM 3.57 38.426 0.072 7.3 1.78 12.44
12/28/2021 7:00:00 PM 3.5 38.3 0.072 7.3 1.78 12.45
12/28/2021 7:15:00 PM 3.42 38.156 0.072 7.3 1.86 12.46
12/28/2021 7:30:00 PM 3.28 37.904 0.072 7.29 1.85 12.47
12/28/2021 7:45:00 PM 3.16 37.688 0.072 7.28 1.82 12.5
12/28/2021 8:00:00 PM 3.07 37.526 0.072 7.28 1.9 12.53
12/28/2021 8:15:00 PM 3.01 37.418 0.072 7.27 1.86 12.56
12/28/2021 8:30:00 PM 2.95 37.31 0.072 7.28 1.82 12.6
12/28/2021 8:45:00 PM 2.89 37.202 0.072 7.27 1.86 12.62
12/28/2021 9:00:00 PM 2.85 37.13 0.072 7.27 1.8 12.65
12/28/2021 9:15:00 PM 2.77 36.986 0.072 7.27 1.83 12.66
12/28/2021 9:30:00 PM 2.72 36.896 0.072 7.27 1.82 12.68
12/28/2021 9:45:00 PM 2.72 36.896 0.072 7.27 1.84 12.69
12/28/2021 10:00:00 PM 2.73 36.914 0.072 7.27 1.86 12.71
12/28/2021 10:15:00 PM 2.71 36.878 0.072 7.27 1.83 12.72
12/28/2021 10:30:00 PM 2.7 36.86 0.072 7.27 1.84 12.73
12/28/2021 10:45:00 PM 2.69 36.842 0.072 7.27 1.82 12.73
12/28/2021 11:00:00 PM 2.69 36.842 0.072 7.27 1.83 12.75
12/28/2021 11:15:00 PM 2.68 36.824 0.072 7.27 1.9 12.75
12/28/2021 11:30:00 PM 2.67 36.806 0.072 7.27 1.88 12.76
12/28/2021 11:45:00 PM 2.67 36.806 0.072 7.26 1.81 12.76
12/29/2021 12:00:00 AM 2.67 36.806 0.072 7.27 1.85 12.75
12/29/2021 12:15:00 AM 2.66 36.788 0.072 7.26 1.86 12.76
12/29/2021 12:30:00 AM 2.66 36.788 0.072 7.26 1.83 12.74
12/29/2021 12:45:00 AM 2.66 36.788 0.072 7.26 1.8 12.75
12/29/2021 1:00:00 AM 2.66 36.788 0.072 7.26 1.79 12.76
12/29/2021 1:15:00 AM 2.66 36.788 0.072 7.27 1.81 12.76
12/29/2021 1:30:00 AM 2.66 36.788 0.072 7.26 1.78 12.75
12/29/2021 1:45:00 AM 2.66 36.788 0.072 7.26 1.82 12.74
12/29/2021 2:00:00 AM 2.67 36.806 0.072 7.26 1.82 12.75
12/29/2021 2:15:00 AM 2.67 36.806 0.072 7.27 1.79 12.74
12/29/2021 2:30:00 AM 2.68 36.824 0.072 7.26 1.8 12.74
12/29/2021 2:45:00 AM 2.68 36.824 0.072 7.26 1.85 12.73
12/29/2021 3:00:00 AM 2.69 36.842 0.072 7.26 1.88 12.74
12/29/2021 3:15:00 AM 2.69 36.842 0.072 7.26 1.86 12.73
12/29/2021 3:30:00 AM 2.69 36.842 0.072 7.26 1.84 12.74
12/29/2021 3:45:00 AM 2.7 36.86 0.072 7.26 1.82 12.72
12/29/2021 4:00:00 AM 2.71 36.878 0.073 7.26 1.83 12.73
12/29/2021 4:15:00 AM 2.71 36.878 0.073 7.25 1.85 12.73
12/29/2021 4:30:00 AM 2.71 36.878 0.073 7.25 1.82 12.73
12/29/2021 4:45:00 AM 2.72 36.896 0.073 7.26 1.84 12.72
12/29/2021 5:00:00 AM 2.72 36.896 0.073 7.25 1.92 12.73
12/29/2021 5:15:00 AM 2.73 36.914 0.073 7.25 1.91 12.72
12/29/2021 5:30:00 AM 2.74 36.932 0.074 7.25 1.91 12.71
12/29/2021 5:45:00 AM 2.75 36.95 0.074 7.25 2.01 12.7
12/29/2021 6:00:00 AM 2.75 36.95 0.074 7.26 1.91 12.71
12/29/2021 6:15:00 AM 2.77 36.986 0.074 7.25 1.89 12.71
12/29/2021 6:30:00 AM 2.78 37.004 0.074 7.25 1.88 12.7
12/29/2021 6:45:00 AM 2.79 37.022 0.074 7.25 1.98 12.69
12/29/2021 7:00:00 AM 2.8 37.04 0.074 7.26 1.99 12.69
12/29/2021 7:15:00 AM 2.81 37.058 0.074 7.25 1.98 12.7
12/29/2021 7:30:00 AM 2.82 37.076 0.074 7.25 1.95 12.69
12/29/2021 7:45:00 AM 2.83 37.094 0.074 7.26 1.93 12.71
12/29/2021 8:00:00 AM 2.85 37.13 0.074 7.26 1.91 12.71
12/29/2021 8:15:00 AM 2.86 37.148 0.074 7.27 1.95 12.77
12/29/2021 8:30:00 AM 2.88 37.184 0.074 7.28 1.95 12.8
12/29/2021 8:45:00 AM 2.9 37.22 0.074 7.31 2 12.88
12/29/2021 9:00:00 AM 2.92 37.256 0.074 7.34 2 12.98
12/29/2021 9:15:00 AM 2.95 37.31 0.074 7.39 1.95 13.13
12/29/2021 9:30:00 AM 2.97 37.346 0.074 7.43 1.94 13.23
12/29/2021 9:45:00 AM 3 37.4 0.074 7.48 1.88 13.33
12/29/2021 10:00:00 AM 3.04 37.472 0.073 7.53 1.88 13.44
12/29/2021 10:15:00 AM 3.07 37.526 0.073 7.58 1.88 13.49
12/29/2021 10:30:00 AM 3.1 37.58 0.073 7.63 1.86 13.54
12/29/2021 10:45:00 AM 3.14 37.652 0.073 7.71 1.86 13.63
12/29/2021 11:00:00 AM 3.18 37.724 0.073 7.76 1.87 13.66
12/29/2021 11:15:00 AM 3.21 37.778 0.073 7.82 1.8 13.68
12/29/2021 11:30:00 AM 3.25 37.85 0.073 7.88 1.84 13.69
12/29/2021 11:45:00 AM 3.28 37.904 0.073 7.93 1.88 13.7
12/29/2021 12:00:00 PM 3.32 37.976 0.073 7.98 1.83 13.71
12/29/2021 12:15:00 PM 3.36 38.048 0.073 8.05 1.78 13.72
12/29/2021 12:30:00 PM 3.4 38.12 0.073 8.09 1.82 13.72
12/29/2021 12:45:00 PM 3.43 38.174 0.074 8.14 1.82 13.7
12/29/2021 1:00:00 PM 3.47 38.246 0.074 8.17 1.82 13.69
12/29/2021 1:15:00 PM 3.5 38.3 0.074 8.18 1.83 13.66
12/29/2021 1:30:00 PM 3.54 38.372 0.074 8.22 1.83 13.66
12/29/2021 1:45:00 PM 3.57 38.426 0.074 8.23 1.87 13.62
12/29/2021 2:00:00 PM 3.6 38.48 0.074 8.23 1.85 13.6
12/29/2021 2:15:00 PM 3.63 38.534 0.074 8.2 1.93 13.55
12/29/2021 2:30:00 PM 3.65 38.57 0.074 8.1 2 13.48
12/29/2021 2:45:00 PM 3.66 38.588 0.074 8.02 1.99 13.41
12/29/2021 3:00:00 PM 3.69 38.642 0.074 8.02 2 13.41
12/29/2021 3:15:00 PM 3.71 38.678 0.074 7.96 2 13.36
12/29/2021 3:30:00 PM 3.72 38.696 0.074 7.84 2 13.24
12/29/2021 3:45:00 PM 3.73 38.714 0.074 7.76 2.43 13.15
12/29/2021 4:00:00 PM 3.74 38.732 0.074 7.67 1.99 13.04
12/29/2021 4:15:00 PM 3.74 38.732 0.074 7.6 2.08 12.93
12/29/2021 4:30:00 PM 3.74 38.732 0.074 7.55 2.06 12.83
12/29/2021 4:45:00 PM 3.74 38.732 0.074 7.49 2.12 12.72
12/29/2021 5:00:00 PM 3.74 38.732 0.074 7.44 2.13 12.63
12/29/2021 5:15:00 PM 3.75 38.75 0.075 7.4 2.17 12.57
12/29/2021 5:30:00 PM 3.75 38.75 0.075 7.38 2.17 12.52
12/29/2021 5:45:00 PM 3.75 38.75 0.075 7.36 2.28 12.49
12/29/2021 6:00:00 PM 3.75 38.75 0.075 7.35 2.29 12.46
12/29/2021 6:15:00 PM 3.75 38.75 0.075 7.34 2.37 12.44
12/29/2021 6:30:00 PM 3.75 38.75 0.075 7.33 2.48 12.44
12/29/2021 6:45:00 PM 3.75 38.75 0.076 7.32 2.54 12.43
12/29/2021 7:00:00 PM 3.75 38.75 0.076 7.31 2.59 12.43
12/29/2021 7:15:00 PM 3.75 38.75 0.076 7.31 2.54 12.43
12/29/2021 7:30:00 PM 3.74 38.732 0.076 7.31 2.45 12.44
12/29/2021 7:45:00 PM 3.74 38.732 0.076 7.3 2.49 12.44
12/29/2021 8:00:00 PM 3.74 38.732 0.076 7.3 2.5 12.44
12/29/2021 8:15:00 PM 3.74 38.732 0.076 7.29 2.51 12.44
12/29/2021 8:30:00 PM 3.73 38.714 0.076 7.29 2.47 12.44
12/29/2021 8:45:00 PM 3.73 38.714 0.076 7.29 2.43 12.45
12/29/2021 9:00:00 PM 3.73 38.714 0.076 7.29 2.4 12.45
12/29/2021 9:15:00 PM 3.73 38.714 0.076 7.29 2.48 12.45
12/29/2021 9:30:00 PM 3.72 38.696 0.076 7.28 2.46 12.45
12/29/2021 9:45:00 PM 3.72 38.696 0.076 7.29 2.31 12.45
12/29/2021 10:00:00 PM 3.72 38.696 0.076 7.28 2.34 12.45
12/29/2021 10:15:00 PM 3.71 38.678 0.076 7.28 2.57 12.45
12/29/2021 10:30:00 PM 3.71 38.678 0.076 7.28 2.3 12.45
12/29/2021 10:45:00 PM 3.71 38.678 0.076 7.28 2.26 12.46
12/29/2021 11:00:00 PM 3.71 38.678 0.077 7.28 2.26 12.45
12/29/2021 11:15:00 PM 3.71 38.678 0.077 7.28 2.29 12.45
12/29/2021 11:30:00 PM 3.7 38.66 0.077 7.28 2.23 12.45
12/29/2021 11:45:00 PM 3.7 38.66 0.077 7.28 2.21 12.45
12/30/2021 12:00:00 AM 3.7 38.66 0.077 7.27 2.17 12.45
12/30/2021 12:15:00 AM 3.69 38.642 0.077 7.28 2.2 12.45
12/30/2021 12:30:00 AM 3.69 38.642 0.077 7.28 2.16 12.45
12/30/2021 12:45:00 AM 3.69 38.642 0.077 7.28 2.15 12.45
12/30/2021 1:00:00 AM 3.69 38.642 0.077 7.28 2.09 12.45
12/30/2021 1:15:00 AM 3.69 38.642 0.077 7.28 2.12 12.45
12/30/2021 1:30:00 AM 3.69 38.642 0.077 7.28 2.13 12.45
12/30/2021 1:45:00 AM 3.69 38.642 0.077 7.28 2.07 12.45
12/30/2021 2:00:00 AM 3.69 38.642 0.077 7.27 2.05 12.45
12/30/2021 2:15:00 AM 3.69 38.642 0.077 7.27 2.09 12.45
12/30/2021 2:30:00 AM 3.69 38.642 0.077 7.27 2.11 12.45
12/30/2021 2:45:00 AM 3.69 38.642 0.077 7.27 2.06 12.45
12/30/2021 3:00:00 AM 3.69 38.642 0.077 7.27 2.07 12.44
12/30/2021 3:15:00 AM 3.69 38.642 0.077 7.27 2.06 12.45
12/30/2021 3:30:00 AM 3.68 38.624 0.077 7.27 2.04 12.45
12/30/2021 3:45:00 AM 3.68 38.624 0.077 7.27 2.01 12.44
12/30/2021 4:00:00 AM 3.69 38.642 0.077 7.27 2.09 12.44
12/30/2021 4:15:00 AM 3.69 38.642 0.077 7.27 2.02 12.44
12/30/2021 4:30:00 AM 3.69 38.642 0.077 7.27 1.95 12.44
12/30/2021 4:45:00 AM 3.69 38.642 0.077 7.27 1.95 12.44
12/30/2021 5:00:00 AM 3.69 38.642 0.077 7.26 1.96 12.44
12/30/2021 5:15:00 AM 3.69 38.642 0.077 7.27 1.9 12.44
12/30/2021 5:30:00 AM 3.69 38.642 0.077 7.26 1.93 12.44
12/30/2021 5:45:00 AM 3.7 38.66 0.077 7.26 1.89 12.44
12/30/2021 6:00:00 AM 3.7 38.66 0.077 7.26 1.95 12.44
12/30/2021 6:15:00 AM 3.7 38.66 0.077 7.26 1.94 12.43
12/30/2021 6:30:00 AM 3.71 38.678 0.077 7.26 1.89 12.44
12/30/2021 6:45:00 AM 3.71 38.678 0.077 7.26 1.86 12.44
12/30/2021 7:00:00 AM 3.71 38.678 0.077 7.26 1.82 12.43
12/30/2021 7:15:00 AM 3.71 38.678 0.076 7.26 1.91 12.44
12/30/2021 7:30:00 AM 3.72 38.696 0.076 7.26 1.88 12.44
12/30/2021 7:45:00 AM 3.72 38.696 0.076 7.26 1.82 12.44
12/30/2021 8:00:00 AM 3.72 38.696 0.076 7.26 1.82 12.46
12/30/2021 8:15:00 AM 3.73 38.714 0.076 7.27 1.9 12.48
12/30/2021 8:30:00 AM 3.74 38.732 0.076 7.28 1.88 12.53
12/30/2021 8:45:00 AM 3.75 38.75 0.076 7.31 1.85 12.6
12/30/2021 9:00:00 AM 3.76 38.768 0.076 7.33 1.84 12.66
12/30/2021 9:15:00 AM 3.77 38.786 0.076 7.35 1.86 12.72
12/30/2021 9:30:00 AM 3.79 38.822 0.076 7.39 1.83 12.82
12/30/2021 9:45:00 AM 3.81 38.858 0.075 7.43 1.85 12.91
12/30/2021 10:00:00 AM 3.83 38.894 0.075 7.47 1.86 12.99
12/30/2021 10:15:00 AM 3.86 38.948 0.075 7.52 1.82 13.08
12/30/2021 10:30:00 AM 3.89 39.002 0.075 7.57 1.82 13.15
12/30/2021 10:45:00 AM 3.91 39.038 0.075 7.62 1.88 13.23
12/30/2021 11:00:00 AM 3.94 39.092 0.075 7.68 1.86 13.28
12/30/2021 11:15:00 AM 3.97 39.146 0.075 7.75 1.88 13.34
12/30/2021 11:30:00 AM 4.01 39.218 0.074 7.81 1.89 13.38
12/30/2021 11:45:00 AM 4.05 39.29 0.074 7.88 1.91 13.42
12/30/2021 12:00:00 PM 4.09 39.362 0.074 8 1.87 13.47
12/30/2021 12:15:00 PM 4.14 39.452 0.074 8.12 1.92 13.52
12/30/2021 12:30:00 PM 4.22 39.596 0.074 8.31 1.87 13.61
12/30/2021 12:45:00 PM 4.27 39.686 0.074 8.39 1.9 13.6
12/30/2021 1:00:00 PM 4.3 39.74 0.073 8.41 1.87 13.56
12/30/2021 1:15:00 PM 4.34 39.812 0.073 8.42 1.88 13.51
12/30/2021 1:30:00 PM 4.38 39.884 0.073 8.43 1.88 13.47
12/30/2021 1:45:00 PM 4.41 39.938 0.073 8.37 1.87 13.38
12/30/2021 2:00:00 PM 4.42 39.956 0.073 8.19 1.84 13.24
12/30/2021 2:15:00 PM 4.43 39.974 0.073 8.05 1.88 13.13
12/30/2021 2:30:00 PM 4.46 40.028 0.073 8 1.88 13.09
12/30/2021 2:45:00 PM 4.48 40.064 0.073 7.93 1.87 13.03
12/30/2021 3:00:00 PM 4.5 40.1 0.073 7.84 1.99 12.94
12/30/2021 3:15:00 PM 4.53 40.154 0.073 7.84 2.11 12.94
12/30/2021 3:30:00 PM 4.56 40.208 0.074 7.76 2.29 12.84
12/30/2021 3:45:00 PM 4.58 40.244 0.074 7.69 2.25 12.75
12/30/2021 4:00:00 PM 4.59 40.262 0.074 7.62 2.15 12.64
12/30/2021 4:15:00 PM 4.6 40.28 0.074 7.55 2.09 12.54
12/30/2021 4:30:00 PM 4.6 40.28 0.074 7.51 2.17 12.44
12/30/2021 4:45:00 PM 4.61 40.298 0.074 7.45 2.04 12.35
12/30/2021 5:00:00 PM 4.61 40.298 0.074 7.41 2 12.28
12/30/2021 5:15:00 PM 4.62 40.316 0.074 7.38 2.02 12.22
12/30/2021 5:30:00 PM 4.62 40.316 0.074 7.35 1.97 12.18
12/30/2021 5:45:00 PM 4.63 40.334 0.074 7.34 1.98 12.16
12/30/2021 6:00:00 PM 4.63 40.334 0.074 7.33 1.99 12.14
12/30/2021 6:15:00 PM 4.63 40.334 0.074 7.32 2.01 12.13
12/30/2021 6:30:00 PM 4.63 40.334 0.074 7.31 2.05 12.12
12/30/2021 6:45:00 PM 4.63 40.334 0.075 7.3 2.02 12.12
12/30/2021 7:00:00 PM 4.63 40.334 0.075 7.3 2.11 12.11
12/30/2021 7:15:00 PM 4.63 40.334 0.075 7.29 2.04 12.11
12/30/2021 7:30:00 PM 4.63 40.334 0.075 7.29 2.03 12.11
12/30/2021 7:45:00 PM 4.63 40.334 0.075 7.29 2.06 12.11
12/30/2021 8:00:00 PM 4.63 40.334 0.075 7.29 2.05 12.11
12/30/2021 8:15:00 PM 4.63 40.334 0.075 7.29 2.11 12.11
12/30/2021 8:30:00 PM 4.63 40.334 0.075 7.28 2.12 12.11
12/30/2021 8:45:00 PM 4.63 40.334 0.075 7.28 2.08 12.11
12/30/2021 9:00:00 PM 4.63 40.334 0.075 7.28 2.01 12.1
12/30/2021 9:15:00 PM 4.63 40.334 0.075 7.28 2.04 12.11
12/30/2021 9:30:00 PM 4.63 40.334 0.075 7.28 2.01 12.11
12/30/2021 9:45:00 PM 4.63 40.334 0.075 7.27 1.97 12.11
12/30/2021 10:00:00 PM 4.63 40.334 0.075 7.27 1.99 12.1
12/30/2021 10:15:00 PM 4.63 40.334 0.075 7.27 2.05 12.1
12/30/2021 10:30:00 PM 4.63 40.334 0.075 7.27 2.03 12.11
12/30/2021 10:45:00 PM 4.63 40.334 0.075 7.27 2.09 12.11
12/30/2021 11:00:00 PM 4.63 40.334 0.075 7.27 2.12 12.11
12/30/2021 11:15:00 PM 4.62 40.316 0.075 7.27 1.99 12.11
12/30/2021 11:30:00 PM 4.62 40.316 0.075 7.27 1.99 12.11
12/30/2021 11:45:00 PM 4.6 40.28 0.075 7.26 1.99 12.11
12/31/2021 12:00:00 AM 4.58 40.244 0.075 7.26 2.01 12.12
12/31/2021 12:15:00 AM 4.57 40.226 0.075 7.26 1.99 12.12
12/31/2021 12:30:00 AM 4.55 40.19 0.075 7.26 1.96 12.13
12/31/2021 12:45:00 AM 4.54 40.172 0.075 7.26 2.03 12.13
12/31/2021 1:00:00 AM 4.53 40.154 0.075 7.26 1.99 12.14
12/31/2021 1:15:00 AM 4.52 40.136 0.075 7.26 1.98 12.14
12/31/2021 1:30:00 AM 4.51 40.118 0.075 7.26 2.09 12.15
12/31/2021 1:45:00 AM 4.51 40.118 0.075 7.26 2.06 12.15
12/31/2021 2:00:00 AM 4.51 40.118 0.075 7.26 2.07 12.15
12/31/2021 2:15:00 AM 4.5 40.1 0.075 7.26 2.03 12.16
12/31/2021 2:30:00 AM 4.49 40.082 0.075 7.26 1.97 12.16
12/31/2021 2:45:00 AM 4.47 40.046 0.075 7.25 2 12.16
12/31/2021 3:00:00 AM 4.46 40.028 0.075 7.25 1.97 12.17
12/31/2021 3:15:00 AM 4.46 40.028 0.075 7.25 1.94 12.17
12/31/2021 3:30:00 AM 4.45 40.01 0.075 7.25 1.95 12.17
12/31/2021 3:45:00 AM 4.45 40.01 0.075 7.25 1.93 12.18
12/31/2021 4:00:00 AM 4.45 40.01 0.075 7.25 1.97 12.17
12/31/2021 4:15:00 AM 4.45 40.01 0.075 7.25 1.98 12.17
12/31/2021 4:30:00 AM 4.45 40.01 0.075 7.24 1.92 12.17
12/31/2021 4:45:00 AM 4.44 39.992 0.075 7.24 2 12.17
12/31/2021 5:00:00 AM 4.45 40.01 0.075 7.24 1.97 12.16
12/31/2021 5:15:00 AM 4.45 40.01 0.075 7.24 1.97 12.17
12/31/2021 5:30:00 AM 4.45 40.01 0.075 7.24 1.96 12.17
12/31/2021 5:45:00 AM 4.45 40.01 0.075 7.24 1.94 12.16
12/31/2021 6:00:00 AM 4.45 40.01 0.075 7.24 1.97 12.16
12/31/2021 6:15:00 AM 4.45 40.01 0.075 7.24 1.94 12.16
12/31/2021 6:30:00 AM 4.45 40.01 0.075 7.24 1.88 12.16
12/31/2021 6:45:00 AM 4.45 40.01 0.075 7.24 1.92 12.16
12/31/2021 7:00:00 AM 4.45 40.01 0.075 7.24 1.9 12.16
12/31/2021 7:15:00 AM 4.45 40.01 0.075 7.24 1.9 12.16
12/31/2021 7:30:00 AM 4.46 40.028 0.075 7.24 1.83 12.17
12/31/2021 7:45:00 AM 4.46 40.028 0.075 7.24 1.83 12.17
12/31/2021 8:00:00 AM 4.47 40.046 0.075 7.26 1.86 12.21
12/31/2021 8:15:00 AM 4.48 40.064 0.075 7.28 1.83 12.29
12/31/2021 8:30:00 AM 4.51 40.118 0.075 7.32 1.86 12.44
12/31/2021 8:45:00 AM 4.53 40.154 0.075 7.38 1.81 12.61
12/31/2021 9:00:00 AM 4.57 40.226 0.074 7.45 1.83 12.78
12/31/2021 9:15:00 AM 4.62 40.316 0.074 7.56 1.81 12.98
12/31/2021 9:30:00 AM 4.67 40.406 0.074 7.64 1.77 13.07
12/31/2021 9:45:00 AM 4.73 40.514 0.074 7.72 1.77 13.14
12/31/2021 10:00:00 AM 4.79 40.622 0.074 7.87 1.76 13.25
12/31/2021 10:15:00 AM 4.89 40.802 0.073 8.13 1.78 13.4
12/31/2021 10:30:00 AM 4.99 40.982 0.073 8.36 1.75 13.48
12/31/2021 10:45:00 AM 5.08 41.144 0.073 8.47 1.76 13.46
12/31/2021 11:00:00 AM 5.16 41.288 0.073 8.5 1.74 13.38
12/31/2021 11:15:00 AM 5.24 41.432 0.073 8.61 1.72 13.37
12/31/2021 11:30:00 AM 5.31 41.558 0.073 8.67 1.74 13.35
12/31/2021 11:45:00 AM 5.38 41.684 0.072 8.76 1.73 13.37
12/31/2021 12:00:00 PM 5.43 41.774 0.072 8.82 1.73 13.34
12/31/2021 12:15:00 PM 5.47 41.846 0.072 8.76 1.65 13.22
12/31/2021 12:30:00 PM 5.5 41.9 0.072 8.67 1.73 13.06
12/31/2021 12:45:00 PM 5.53 41.954 0.072 8.62 1.74 12.98
12/31/2021 1:00:00 PM 5.58 42.044 0.072 8.64 1.67 13
12/31/2021 1:15:00 PM 5.69 42.242 0.072 8.74 1.7 13.08
12/31/2021 1:30:00 PM 5.82 42.476 0.072 8.82 1.63 13.15
12/31/2021 1:45:00 PM 5.89 42.602 0.072 8.89 1.64 13.19
12/31/2021 2:00:00 PM 5.87 42.566 0.072 8.86 1.7 13.1
12/31/2021 2:15:00 PM 5.85 42.53 0.072 8.82 1.64 13.01
12/31/2021 2:30:00 PM 5.86 42.548 0.072 8.74 1.66 12.88
12/31/2021 2:45:00 PM 5.9 42.62 0.072 8.73 1.63 12.87
12/31/2021 3:00:00 PM 5.92 42.656 0.072 8.73 1.67 12.86
12/31/2021 3:15:00 PM 5.9 42.62 0.072 8.65 1.64 12.8
12/31/2021 3:30:00 PM 5.86 42.548 0.072 8.54 1.6 12.73
12/31/2021 3:45:00 PM 5.86 42.548 0.072 8.41 1.62 12.65
12/31/2021 4:00:00 PM 5.85 42.53 0.072 8.19 1.61 12.52
12/31/2021 4:15:00 PM 5.84 42.512 0.072 7.95 1.67 12.38
12/31/2021 4:30:00 PM 5.82 42.476 0.072 7.77 1.59 12.24
12/31/2021 4:45:00 PM 5.79 42.422 0.072 7.65 1.65 12.1
12/31/2021 5:00:00 PM 5.77 42.386 0.072 7.56 1.68 11.99
12/31/2021 5:15:00 PM 5.75 42.35 0.072 7.49 1.62 11.89
12/31/2021 5:30:00 PM 5.75 42.35 0.073 7.44 1.62 11.82
12/31/2021 5:45:00 PM 5.74 42.332 0.073 7.41 1.61 11.78
12/31/2021 6:00:00 PM 5.74 42.332 0.073 7.38 1.69 11.75
12/31/2021 6:15:00 PM 5.73 42.314 0.073 7.36 1.65 11.72
12/31/2021 6:30:00 PM 5.72 42.296 0.073 7.34 1.74 11.71
12/31/2021 6:45:00 PM 5.71 42.278 0.073 7.33 1.66 11.72
12/31/2021 7:00:00 PM 5.7 42.26 0.073 7.32 1.69 11.72
12/31/2021 7:15:00 PM 5.67 42.206 0.073 7.31 1.74 11.73
12/31/2021 7:30:00 PM 5.65 42.17 0.073 7.31 1.75 11.73
12/31/2021 7:45:00 PM 5.62 42.116 0.074 7.3 1.73 11.73
12/31/2021 8:00:00 PM 5.6 42.08 0.074 7.3 1.75 11.75
12/31/2021 8:15:00 PM 5.57 42.026 0.074 7.29 1.75 11.74
12/31/2021 8:30:00 PM 5.54 41.972 0.074 7.29 1.8 11.76
12/31/2021 8:45:00 PM 5.5 41.9 0.074 7.29 1.8 11.77
12/31/2021 9:00:00 PM 5.47 41.846 0.074 7.28 1.78 11.76
12/31/2021 9:15:00 PM 5.45 41.81 0.074 7.28 1.76 11.78
12/31/2021 9:30:00 PM 5.44 41.792 0.074 7.27 1.76 11.78
12/31/2021 9:45:00 PM 5.42 41.756 0.074 7.27 1.79 11.79
12/31/2021 10:00:00 PM 5.41 41.738 0.074 7.28 1.8 11.81
12/31/2021 10:15:00 PM 5.4 41.72 0.074 7.27 1.8 11.8
12/31/2021 10:30:00 PM 5.39 41.702 0.074 7.27 1.8 11.8
12/31/2021 10:45:00 PM 5.38 41.684 0.074 7.27 1.83 11.82
12/31/2021 11:00:00 PM 5.37 41.666 0.074 7.27 1.82 11.81
12/31/2021 11:15:00 PM 5.36 41.648 0.074 7.27 1.8 11.81
12/31/2021 11:30:00 PM 5.35 41.63 0.074 7.26 1.74 11.82
12/31/2021 11:45:00 PM 5.34 41.612 0.074 7.27 1.76 11.82
1/1/2022 12:00:00 AM 5.33 41.594 0.074 7.26 1.73 11.83
1/1/2022 12:15:00 AM 5.32 41.576 0.074 7.26 1.77 11.83
1/1/2022 12:30:00 AM 5.32 41.576 0.074 7.26 1.77 11.84
1/1/2022 12:45:00 AM 5.31 41.558 0.074 7.26 1.73 11.82
1/1/2022 1:00:00 AM 5.31 41.558 0.074 7.26 1.76 11.82
1/1/2022 1:15:00 AM 5.31 41.558 0.074 7.25 1.73 11.82
1/1/2022 1:30:00 AM 5.31 41.558 0.074 7.25 1.78 11.83
1/1/2022 1:45:00 AM 5.31 41.558 0.074 7.25 1.77 11.83
1/1/2022 2:00:00 AM 5.31 41.558 0.074 7.25 1.74 11.82
1/1/2022 2:15:00 AM 5.32 41.576 0.074 7.25 1.74 11.82
1/1/2022 2:30:00 AM 5.33 41.594 0.074 7.25 1.78 11.81
1/1/2022 2:45:00 AM 5.34 41.612 0.074 7.25 1.67 11.81
1/1/2022 3:00:00 AM 5.36 41.648 0.074 7.25 1.76 11.79
1/1/2022 3:15:00 AM 5.38 41.684 0.074 7.25 1.74 11.78
1/1/2022 3:30:00 AM 5.39 41.702 0.074 7.26 1.73 11.78
1/1/2022 3:45:00 AM 5.4 41.72 0.074 7.25 1.69 11.77
1/1/2022 4:00:00 AM 5.42 41.756 0.074 7.26 1.69 11.76
1/1/2022 4:15:00 AM 5.43 41.774 0.074 7.25 1.67 11.76
1/1/2022 4:30:00 AM 5.45 41.81 0.074 7.25 1.7 11.74
1/1/2022 4:45:00 AM 5.46 41.828 0.074 7.25 1.7 11.75
1/1/2022 5:00:00 AM 5.47 41.846 0.074 7.25 1.73 11.75
1/1/2022 5:15:00 AM 5.49 41.882 0.074 7.25 1.67 11.72
1/1/2022 5:30:00 AM 5.5 41.9 0.074 7.24 1.8 11.72
1/1/2022 5:45:00 AM 5.51 41.918 0.074 7.25 1.73 11.74
1/1/2022 6:00:00 AM 5.52 41.936 0.074 7.24 1.7 11.71
1/1/2022 6:15:00 AM 5.53 41.954 0.074 7.24 1.65 11.7
1/1/2022 6:30:00 AM 5.54 41.972 0.074 7.24 1.73 11.71
1/1/2022 6:45:00 AM 5.54 41.972 0.074 7.24 1.72 11.7
1/1/2022 7:00:00 AM 5.55 41.99 0.074 7.24 1.67 11.7
1/1/2022 7:15:00 AM 5.55 41.99 0.074 7.24 1.65 11.71
1/1/2022 7:30:00 AM 5.56 42.008 0.074 7.25 1.66 11.72
1/1/2022 7:45:00 AM 5.57 42.026 0.074 7.24 1.65 11.71
1/1/2022 8:00:00 AM 5.58 42.044 0.074 7.25 1.71 11.73
1/1/2022 8:15:00 AM 5.59 42.062 0.074 7.26 1.71 11.76
1/1/2022 8:30:00 AM 5.61 42.098 0.074 7.28 1.7 11.86
1/1/2022 8:45:00 AM 5.63 42.134 0.074 7.32 1.67 11.97
1/1/2022 9:00:00 AM 5.66 42.188 0.073 7.37 1.64 12.09
1/1/2022 9:15:00 AM 5.7 42.26 0.073 7.41 1.6 12.16
1/1/2022 9:30:00 AM 5.73 42.314 0.073 7.44 1.65 12.23
1/1/2022 9:45:00 AM 5.77 42.386 0.073 7.48 1.7 12.3
1/1/2022 10:00:00 AM 5.8 42.44 0.073 7.51 1.63 12.36
1/1/2022 10:15:00 AM 5.82 42.476 0.073 7.57 1.67 12.44
1/1/2022 10:30:00 AM 5.86 42.548 0.073 7.64 1.65 12.52
1/1/2022 10:45:00 AM 5.9 42.62 0.073 7.71 1.63 12.6
1/1/2022 11:00:00 AM 5.95 42.71 0.072 7.84 1.61 12.72
1/1/2022 11:15:00 AM 6.01 42.818 0.072 7.97 1.61 12.79
1/1/2022 11:30:00 AM 6.08 42.944 0.072 8.14 1.63 12.85
1/1/2022 11:45:00 AM 6.14 43.052 0.072 8.18 1.67 12.8
1/1/2022 12:00:00 PM 6.19 43.142 0.072 8.19 1.57 12.75
1/1/2022 12:15:00 PM 6.23 43.214 0.072 8.24 1.62 12.73
1/1/2022 12:30:00 PM 6.28 43.304 0.072 8.37 1.57 12.77
1/1/2022 12:45:00 PM 6.31 43.358 0.072 8.35 1.58 12.7
1/1/2022 1:00:00 PM 6.35 43.43 0.072 8.41 1.56 12.71
1/1/2022 1:15:00 PM 6.4 43.52 0.072 8.54 1.55 12.8
1/1/2022 1:30:00 PM 6.45 43.61 0.072 8.61 1.55 12.81
1/1/2022 1:45:00 PM 6.5 43.7 0.071 8.72 1.61 12.86
1/1/2022 2:00:00 PM 6.55 43.79 0.071 8.78 1.58 12.87
1/1/2022 2:15:00 PM 6.58 43.844 0.071 8.78 1.57 12.79
1/1/2022 2:30:00 PM 6.6 43.88 0.071 8.75 1.57 12.69
1/1/2022 2:45:00 PM 6.63 43.934 0.071 8.69 1.54 12.61
1/1/2022 3:00:00 PM 6.66 43.988 0.071 8.6 1.57 12.47
1/1/2022 3:15:00 PM 6.67 44.006 0.071 8.44 1.55 12.34
1/1/2022 3:30:00 PM 6.68 44.024 0.071 8.22 1.55 12.21
1/1/2022 3:45:00 PM 6.68 44.024 0.071 7.99 1.57 12.07
1/1/2022 4:00:00 PM 6.68 44.024 0.072 7.81 1.55 11.94
1/1/2022 4:15:00 PM 6.67 44.006 0.072 7.67 1.54 11.82
1/1/2022 4:30:00 PM 6.66 43.988 0.072 7.58 1.6 11.71
1/1/2022 4:45:00 PM 6.65 43.97 0.072 7.51 1.59 11.6
1/1/2022 5:00:00 PM 6.64 43.952 0.072 7.45 1.58 11.53
1/1/2022 5:15:00 PM 6.62 43.916 0.072 7.41 1.53 11.47
1/1/2022 5:30:00 PM 6.61 43.898 0.072 7.37 1.6 11.43
1/1/2022 5:45:00 PM 6.61 43.898 0.073 7.35 1.57 11.41
1/1/2022 6:00:00 PM 6.6 43.88 0.073 7.33 1.61 11.38
1/1/2022 6:15:00 PM 6.6 43.88 0.073 7.31 1.59 11.37
1/1/2022 6:30:00 PM 6.59 43.862 0.073 7.3 1.62 11.36
1/1/2022 6:45:00 PM 6.59 43.862 0.073 7.29 1.58 11.35
1/1/2022 7:00:00 PM 6.58 43.844 0.073 7.27 1.59 11.36
1/1/2022 7:15:00 PM 6.57 43.826 0.073 7.27 1.64 11.35
1/1/2022 7:30:00 PM 6.56 43.808 0.073 7.26 1.55 11.34
1/1/2022 7:45:00 PM 6.56 43.808 0.073 7.26 1.58 11.35
1/1/2022 8:00:00 PM 6.55 43.79 0.073 7.25 1.62 11.34
1/1/2022 8:15:00 PM 6.54 43.772 0.073 7.25 1.65 11.36
1/1/2022 8:30:00 PM 6.53 43.754 0.073 7.25 1.61 11.35
1/1/2022 8:45:00 PM 6.53 43.754 0.073 7.24 1.7 11.35
1/1/2022 9:00:00 PM 6.53 43.754 0.073 7.24 1.68 11.35
1/1/2022 9:15:00 PM 6.52 43.736 0.073 7.24 1.68 11.34
1/1/2022 9:30:00 PM 6.51 43.718 0.073 7.23 1.69 11.35
1/1/2022 9:45:00 PM 6.51 43.718 0.073 7.23 1.72 11.34
1/1/2022 10:00:00 PM 6.5 43.7 0.073 7.24 1.69 11.35
1/1/2022 10:15:00 PM 6.49 43.682 0.073 7.23 1.75 11.35
1/1/2022 10:30:00 PM 6.47 43.646 0.073 7.23 1.71 11.35
1/1/2022 10:45:00 PM 6.47 43.646 0.073 7.24 1.76 11.35
1/1/2022 11:00:00 PM 6.47 43.646 0.073 7.26 1.79 11.35
1/1/2022 11:15:00 PM 6.47 43.646 0.073 7.25 1.86 11.35
1/1/2022 11:30:00 PM 6.46 43.628 0.073 7.25 1.96 11.35
1/1/2022 11:45:00 PM 6.45 43.61 0.073 7.26 2.02 11.35
1/2/2022 12:00:00 AM 6.46 43.628 0.073 7.27 2.13 11.36
1/2/2022 12:15:00 AM 6.46 43.628 0.073 7.27 2.25 11.37
1/2/2022 12:30:00 AM 6.46 43.628 0.073 7.28 2.22 11.37
1/2/2022 12:45:00 AM 6.45 43.61 0.073 7.28 2.49 11.37
1/2/2022 1:00:00 AM 6.45 43.61 0.073 7.28 2.66 11.38
1/2/2022 1:15:00 AM 6.45 43.61 0.073 7.28 2.66 11.38
1/2/2022 1:30:00 AM 6.45 43.61 0.073 7.28 2.63 11.38
1/2/2022 1:45:00 AM 6.44 43.592 0.073 7.29 2.59 11.38
1/2/2022 2:00:00 AM 6.44 43.592 0.073 7.29 2.37 11.39
1/2/2022 2:15:00 AM 6.44 43.592 0.073 7.29 2.31 11.39
1/2/2022 2:30:00 AM 6.44 43.592 0.073 7.29 2.21 11.39
1/2/2022 2:45:00 AM 6.43 43.574 0.073 7.29 2.28 11.39
1/2/2022 3:00:00 AM 6.43 43.574 0.073 7.3 2.26 11.39
1/2/2022 3:15:00 AM 6.42 43.556 0.073 7.3 2.48 11.39
1/2/2022 3:30:00 AM 6.42 43.556 0.073 7.3 2.61 11.39
1/2/2022 3:45:00 AM 6.41 43.538 0.073 7.3 2.76 11.4
1/2/2022 4:00:00 AM 6.4 43.52 0.073 7.3 2.92 11.4
1/2/2022 4:15:00 AM 6.39 43.502 0.073 7.3 3.18 11.41
1/2/2022 4:30:00 AM 6.38 43.484 0.073 7.3 3.38 11.41
1/2/2022 4:45:00 AM 6.37 43.466 0.073 7.3 3.5 11.41
1/2/2022 5:00:00 AM 6.36 43.448 0.073 7.3 3.32 11.42
1/2/2022 5:15:00 AM 6.35 43.43 0.073 7.3 3.09 11.42
1/2/2022 5:30:00 AM 6.33 43.394 0.073 7.3 2.9 11.43
1/2/2022 5:45:00 AM 6.32 43.376 0.073 7.3 2.96 11.43
1/2/2022 6:00:00 AM 6.3 43.34 0.073 7.3 2.87 11.44
1/2/2022 6:15:00 AM 6.28 43.304 0.073 7.31 2.82 11.44
1/2/2022 6:30:00 AM 6.26 43.268 0.073 7.3 2.88 11.45
1/2/2022 6:45:00 AM 6.23 43.214 0.073 7.3 2.83 11.45
1/2/2022 7:00:00 AM 6.21 43.178 0.073 7.3 2.86 11.46
1/2/2022 7:15:00 AM 6.18 43.124 0.073 7.3 2.87 11.47
1/2/2022 7:30:00 AM 6.16 43.088 0.073 7.3 2.99 11.48
1/2/2022 7:45:00 AM 6.13 43.034 0.073 7.31 3.02 11.5
1/2/2022 8:00:00 AM 6.1 42.98 0.073 7.31 2.98 11.53
1/2/2022 8:15:00 AM 6.07 42.926 0.073 7.32 2.82 11.57
1/2/2022 8:30:00 AM 6.05 42.89 0.073 7.34 2.74 11.65
1/2/2022 8:45:00 AM 6.02 42.836 0.073 7.36 2.64 11.71
1/2/2022 9:00:00 AM 6 42.8 0.073 7.4 2.54 11.86
1/2/2022 9:15:00 AM 5.98 42.764 0.073 7.44 2.44 11.98
1/2/2022 9:30:00 AM 5.96 42.728 0.072 7.48 2.51 12.1
1/2/2022 9:45:00 AM 5.94 42.692 0.072 7.52 2.43 12.17
1/2/2022 10:00:00 AM 5.92 42.656 0.072 7.58 2.29 12.28
1/2/2022 10:15:00 AM 5.9 42.62 0.072 7.65 2.29 12.4
1/2/2022 10:30:00 AM 5.9 42.62 0.072 7.77 2.2 12.57
1/2/2022 10:45:00 AM 5.9 42.62 0.072 7.85 2.21 12.64
1/2/2022 11:00:00 AM 5.87 42.566 0.072 7.93 2.13 12.7
1/2/2022 11:15:00 AM 5.85 42.53 0.072 7.97 2.11 12.71
1/2/2022 11:30:00 AM 5.82 42.476 0.072 7.89 2.16 12.61
1/2/2022 11:45:00 AM 5.78 42.404 0.072 7.85 2.02 12.55
1/2/2022 12:00:00 PM 5.73 42.314 0.072 7.83 2.05 12.53
1/2/2022 12:15:00 PM 5.7 42.26 0.072 7.89 2.07 12.61
1/2/2022 12:30:00 PM 5.68 42.224 0.071 7.93 1.97 12.65
1/2/2022 12:45:00 PM 5.64 42.152 0.071 8 2.01 12.71
1/2/2022 1:00:00 PM 5.6 42.08 0.071 8.07 1.99 12.76
1/2/2022 1:15:00 PM 5.57 42.026 0.071 8.07 1.98 12.74
1/2/2022 1:30:00 PM 5.53 41.954 0.071 8.07 1.89 12.75
1/2/2022 1:45:00 PM 5.48 41.864 0.071 8.02 1.92 12.71
1/2/2022 2:00:00 PM 5.43 41.774 0.071 7.92 1.92 12.62
1/2/2022 2:15:00 PM 5.37 41.666 0.072 7.84 1.93 12.57
1/2/2022 2:30:00 PM 5.32 41.576 0.072 7.78 1.88 12.53
1/2/2022 2:45:00 PM 5.27 41.486 0.072 7.75 1.92 12.51
1/2/2022 3:00:00 PM 5.21 41.378 0.072 7.7 1.87 12.47
1/2/2022 3:15:00 PM 5.14 41.252 0.072 7.64 1.96 12.43
1/2/2022 3:30:00 PM 5.06 41.108 0.072 7.6 1.93 12.39
1/2/2022 3:45:00 PM 5 41 0.072 7.56 1.95 12.35
1/2/2022 4:00:00 PM 4.93 40.874 0.072 7.51 1.92 12.29
1/2/2022 4:15:00 PM 4.86 40.748 0.072 7.48 1.94 12.26
1/2/2022 4:30:00 PM 4.79 40.622 0.073 7.45 1.92 12.22
1/2/2022 4:45:00 PM 4.71 40.478 0.073 7.42 1.88 12.19
1/2/2022 5:00:00 PM 4.63 40.334 0.073 7.39 1.91 12.19
1/2/2022 5:15:00 PM 4.55 40.19 0.073 7.37 1.87 12.18
1/2/2022 5:30:00 PM 4.48 40.064 0.073 7.35 1.95 12.19
1/2/2022 5:45:00 PM 4.4 39.92 0.073 7.34 1.92 12.2
1/2/2022 6:00:00 PM 4.31 39.758 0.073 7.33 1.92 12.22
1/2/2022 6:15:00 PM 4.23 39.614 0.074 7.33 2.12 12.24
1/2/2022 6:30:00 PM 4.16 39.488 0.074 7.33 2.25 12.27
1/2/2022 6:45:00 PM 4.1 39.38 0.074 7.32 2.3 12.29
1/2/2022 7:00:00 PM 4.03 39.254 0.074 7.32 2.18 12.31
1/2/2022 7:15:00 PM 3.96 39.128 0.074 7.32 2.08 12.34
1/2/2022 7:30:00 PM 3.89 39.002 0.074 7.31 2.13 12.37
1/2/2022 7:45:00 PM 3.81 38.858 0.074 7.3 2 12.4
1/2/2022 8:00:00 PM 3.75 38.75 0.074 7.31 1.93 12.43
1/2/2022 8:15:00 PM 3.67 38.606 0.074 7.3 1.96 12.46
1/2/2022 8:30:00 PM 3.61 38.498 0.074 7.3 1.94 12.48
1/2/2022 8:45:00 PM 3.56 38.408 0.074 7.3 1.89 12.51
1/2/2022 9:00:00 PM 3.5 38.3 0.074 7.3 1.91 12.53
1/2/2022 9:15:00 PM 3.44 38.192 0.074 7.29 1.92 12.55
1/2/2022 9:30:00 PM 3.38 38.084 0.074 7.3 1.94 12.58
1/2/2022 9:45:00 PM 3.32 37.976 0.074 7.29 1.99 12.6
1/2/2022 10:00:00 PM 3.28 37.904 0.074 7.29 1.96 12.62
1/2/2022 10:15:00 PM 3.22 37.796 0.074 7.29 1.95 12.64
1/2/2022 10:30:00 PM 3.18 37.724 0.074 7.29 1.95 12.66
1/2/2022 10:45:00 PM 3.13 37.634 0.074 7.29 1.91 12.69
1/2/2022 11:00:00 PM 3.07 37.526 0.074 7.29 1.93 12.7
1/2/2022 11:15:00 PM 3.02 37.436 0.074 7.29 1.91 12.73
1/2/2022 11:30:00 PM 2.97 37.346 0.074 7.29 1.91 12.74
1/2/2022 11:45:00 PM 2.93 37.274 0.074 7.29 4.19 12.75
1/3/2022 12:00:00 AM 2.89 37.202 0.074 7.29 1.86 12.77
1/3/2022 12:15:00 AM 2.84 37.112 0.074 7.29 1.79 12.79
1/3/2022 12:30:00 AM 2.79 37.022 0.074 7.28 1.79 12.81
1/3/2022 12:45:00 AM 2.76 36.968 0.074 7.28 1.78 12.84
1/3/2022 1:00:00 AM 2.71 36.878 0.074 7.28 1.78 12.85
1/3/2022 1:15:00 AM 2.66 36.788 0.074 7.28 1.78 12.87
1/3/2022 1:30:00 AM 2.62 36.716 0.074 7.28 1.79 12.88
1/3/2022 1:45:00 AM 2.58 36.644 0.074 7.27 1.74 12.89
1/3/2022 2:00:00 AM 2.53 36.554 0.074 7.28 1.87 12.92
1/3/2022 2:15:00 AM 2.49 36.482 0.074 7.28 1.81 12.94
1/3/2022 2:30:00 AM 2.45 36.41 0.074 7.27 1.83 12.96
1/3/2022 2:45:00 AM 2.41 36.338 0.074 7.27 1.8 12.98
1/3/2022 3:00:00 AM 2.38 36.284 0.074 7.27 1.78 12.99
1/3/2022 3:15:00 AM 2.34 36.212 0.074 7.27 1.8 13
1/3/2022 3:30:00 AM 2.32 36.176 0.074 7.27 1.7 13.02
1/3/2022 3:45:00 AM 2.28 36.104 0.074 7.26 1.74 13.04
1/3/2022 4:00:00 AM 2.23 36.014 0.074 7.26 1.84 13.06
1/3/2022 4:15:00 AM 2.19 35.942 0.074 7.26 1.82 13.07
1/3/2022 4:30:00 AM 2.14 35.852 0.074 7.25 1.76 13.09
1/3/2022 4:45:00 AM 2.1 35.78 0.074 7.25 1.8 13.1
1/3/2022 5:00:00 AM 2.07 35.726 0.074 7.25 1.74 13.11
1/3/2022 5:15:00 AM 2.03 35.654 0.074 7.25 1.76 13.12
1/3/2022 5:30:00 AM 1.99 35.582 0.074 7.25 1.72 13.14
1/3/2022 5:45:00 AM 1.96 35.528 0.074 7.24 1.7 13.15
1/3/2022 6:00:00 AM 1.93 35.474 0.074 7.25 1.68 13.17
1/3/2022 6:15:00 AM 1.9 35.42 0.074 7.24 1.68 13.18
1/3/2022 6:30:00 AM 1.87 35.366 0.074 7.24 1.8 13.18
1/3/2022 6:45:00 AM 1.84 35.312 0.074 7.25 1.7 13.19
1/3/2022 7:00:00 AM 1.81 35.258 0.074 7.24 1.72 13.21
1/3/2022 7:15:00 AM 1.77 35.186 0.074 7.24 1.77 13.23
1/3/2022 7:30:00 AM 1.74 35.132 0.074 7.24 1.71 13.24
1/3/2022 7:45:00 AM 1.7 35.06 0.074 7.25 1.73 13.27
1/3/2022 8:00:00 AM 1.66 34.988 0.074 7.25 1.74 13.32
1/3/2022 8:15:00 AM 1.62 34.916 0.074 7.26 1.69 13.37
1/3/2022 8:30:00 AM 1.58 34.844 0.074 7.28 1.7 13.45
1/3/2022 8:45:00 AM 1.53 34.754 0.074 7.3 1.68 13.55
1/3/2022 9:00:00 AM 1.5 34.7 0.074 7.34 1.73 13.66
1/3/2022 9:15:00 AM 1.47 34.646 0.074 7.38 1.67 13.83
1/3/2022 9:30:00 AM 1.44 34.592 0.074 7.43 1.7 13.98
1/3/2022 9:45:00 AM 1.42 34.556 0.074 7.48 1.67 14.1
1/3/2022 10:00:00 AM 1.41 34.538 0.073 7.54 1.66 14.21
1/3/2022 10:15:00 AM 1.38 34.484 0.073 7.6 1.62 14.32
1/3/2022 10:30:00 AM 1.37 34.466 0.073 7.65 1.61 14.4
1/3/2022 10:45:00 AM 1.34 34.412 0.073 7.72 1.68 14.46
1/3/2022 11:00:00 AM 1.33 34.394 0.073 7.76 1.67 14.51
1/3/2022 11:15:00 AM 1.31 34.358 0.073 7.83 1.66 14.57
1/3/2022 11:30:00 AM 1.31 34.358 0.073 7.94 1.65 14.65
1/3/2022 11:45:00 AM 1.29 34.322 0.073 8.05 1.62 14.71
1/3/2022 12:00:00 PM 1.3 34.34 0.073 8.12 1.59 14.74
1/3/2022 12:15:00 PM 1.3 34.34 0.073 8.17 1.6 14.75
1/3/2022 12:30:00 PM 1.28 34.304 0.073 8.29 1.57 14.79
1/3/2022 12:45:00 PM 1.29 34.322 0.072 8.34 1.63 14.81
1/3/2022 1:00:00 PM 1.31 34.358 0.072 8.41 1.62 14.83
1/3/2022 1:15:00 PM 1.3 34.34 0.072 8.45 1.62 14.82
1/3/2022 1:30:00 PM 1.29 34.322 0.072 8.46 1.55 14.8
1/3/2022 1:45:00 PM 1.28 34.304 0.072 8.48 1.56 14.79
1/3/2022 2:00:00 PM 1.25 34.25 0.072 8.48 1.56 14.77
1/3/2022 2:15:00 PM 1.24 34.232 0.072 8.49 1.58 14.77
1/3/2022 2:30:00 PM 1.24 34.232 0.072 8.49 1.6 14.74
1/3/2022 2:45:00 PM 1.22 34.196 0.072 8.51 1.57 14.75
1/3/2022 3:00:00 PM 1.2 34.16 0.072 8.47 1.71 14.71
1/3/2022 3:15:00 PM 1.17 34.106 0.072 8.42 1.69 14.68
1/3/2022 3:30:00 PM 1.14 34.052 0.072 8.34 1.63 14.63
1/3/2022 3:45:00 PM 1.11 33.998 0.072 8.24 1.58 14.58
1/3/2022 4:00:00 PM 1.08 33.944 0.072 8.06 1.55 14.5
1/3/2022 4:15:00 PM 1.03 33.854 0.072 7.9 1.55 14.39
1/3/2022 4:30:00 PM 0.99 33.782 0.072 7.75 1.58 14.26
1/3/2022 4:45:00 PM 0.92 33.656 0.072 7.64 1.77 14.14
1/3/2022 5:00:00 PM 0.87 33.566 0.073 7.56 1.56 14.03
1/3/2022 5:15:00 PM 0.81 33.458 0.073 7.49 1.61 13.93
1/3/2022 5:30:00 PM 0.73 33.314 0.073 7.43 1.59 13.87
1/3/2022 5:45:00 PM 0.68 33.224 0.073 7.4 1.63 13.83
1/3/2022 6:00:00 PM 0.59 33.062 0.073 7.38 1.64 13.81
1/3/2022 6:15:00 PM 0.53 32.954 0.073 7.35 1.61 13.79
1/3/2022 6:30:00 PM -99999.99 -179968 -99999.99 -99999.99 -99999.99 -99999.99
1/3/2022 6:45:00 PM -99999.99 -179968 -99999.99 -99999.99 -99999.99 -99999.99
1/3/2022 7:00:00 PM -99999.99 -179968 -99999.99 -99999.99 -99999.99 -99999.99
1/3/2022 7:15:00 PM -99999.99 -179968 -99999.99 -99999.99 -99999.99 -99999.99
1/3/2022 7:30:00 PM -99999.99 -179968 -99999.99 -99999.99 -99999.99 -99999.99
1/3/2022 7:45:00 PM -99999.99 -179968 -99999.99 -99999.99 -99999.99 -99999.99
1/3/2022 8:00:00 PM -99999.99 -179968 -99999.99 -99999.99 -99999.99 -99999.99
1/3/2022 8:15:00 PM -99999.99 -179968 -99999.99 -99999.99 -99999.99 -99999.99
1/3/2022 8:30:00 PM -99999.99 -179968 -99999.99 -99999.99 -99999.99 -99999.99
1/3/2022 8:45:00 PM -99999.99 -179968 -99999.99 -99999.99 -99999.99 -99999.99
1/3/2022 9:00:00 PM -99999.99 -179968 -99999.99 -99999.99 -99999.99 -99999.99
1/3/2022 9:15:00 PM -99999.99 -179968 -99999.99 -99999.99 -99999.99 -99999.99
1/3/2022 9:30:00 PM -99999.99 -179968 -99999.99 -99999.99 -99999.99 -99999.99
1/3/2022 9:45:00 PM -99999.99 -179968 -99999.99 -99999.99 -99999.99 -99999.99
1/3/2022 10:00:00 PM -99999.99 -179968 -99999.99 -99999.99 -99999.99 -99999.99
1/3/2022 10:15:00 PM -99999.99 -179968 -99999.99 -99999.99 -99999.99 -99999.99
1/3/2022 10:30:00 PM -99999.99 -179968 -99999.99 -99999.99 -99999.99 -99999.99
1/3/2022 10:45:00 PM -99999.99 -179968 -99999.99 -99999.99 -99999.99 -99999.99
1/5/2022 7:45:00 AM -99999.99 -179968 -99999.99 -99999.99 -99999.99 -99999.99
1/5/2022 8:00:00 AM -99999.99 -179968 -99999.99 -99999.99 -99999.99 -99999.99
1/5/2022 8:15:00 AM -99999.99 -179968 -99999.99 -99999.99 -99999.99 -99999.99
1/5/2022 8:30:00 AM -99999.99 -179968 -99999.99 -99999.99 -99999.99 -99999.99
1/5/2022 8:45:00 AM -99999.99 -179968 -99999.99 -99999.99 -99999.99 -99999.99
1/5/2022 9:00:00 AM -99999.99 -179968 -99999.99 -99999.99 -99999.99 -99999.99
1/5/2022 9:15:00 AM -99999.99 -179968 -99999.99 -99999.99 -99999.99 -99999.99
1/5/2022 9:30:00 AM -99999.99 -179968 -99999.99 -99999.99 -99999.99 -99999.99
1/5/2022 9:45:00 AM -99999.99 -179968 -99999.99 -99999.99 -99999.99 -99999.99
1/5/2022 10:00:00 AM -99999.99 -179968 -99999.99 -99999.99 -99999.99 -99999.99
1/5/2022 10:15:00 AM -99999.99 -179968 -99999.99 -99999.99 -99999.99 -99999.99
1/5/2022 10:30:00 AM -99999.99 -179968 -99999.99 -99999.99 -99999.99 -99999.99
1/5/2022 10:45:00 AM -99999.99 -179968 -99999.99 -99999.99 -99999.99 -99999.99
1/5/2022 11:00:00 AM -99999.99 -179968 -99999.99 -99999.99 -99999.99 -99999.99
1/5/2022 11:15:00 AM -99999.99 -179968 -99999.99 -99999.99 -99999.99 -99999.99
1/5/2022 11:30:00 AM -99999.99 -179968 -99999.99 -99999.99 -99999.99 -99999.99
1/5/2022 11:45:00 AM -99999.99 -179968 -99999.99 -99999.99 -99999.99 -99999.99
1/5/2022 12:00:00 PM 0.87 33.566 0.074 8.06 1.69 14.71
1/5/2022 12:15:00 PM -99999.99 -179968 -99999.99 -99999.99 -99999.99 -99999.99
1/5/2022 12:30:00 PM -99999.99 -179968 -99999.99 -99999.99 -99999.99 -99999.99
1/5/2022 12:45:00 PM 1.19 34.142 0.074 8.11 1.71 14.61
1/5/2022 1:00:00 PM 1.28 34.304 0.073 8.13 1.67 14.58
1/5/2022 1:15:00 PM 1.37 34.466 0.073 8.16 1.62 14.52
1/5/2022 1:30:00 PM 1.44 34.592 0.073 8.17 1.64 14.49
1/5/2022 1:45:00 PM 1.51 34.718 0.073 8.2 1.68 14.43
1/5/2022 2:00:00 PM 1.57 34.826 0.073 8.19 1.68 14.39
1/5/2022 2:15:00 PM -99999.99 -179968 -99999.99 -99999.99 -99999.99 -99999.99
1/5/2022 2:30:00 PM 1.69 35.042 0.073 8.2 1.72 14.28
1/5/2022 2:45:00 PM -99999.99 -179968 -99999.99 -99999.99 -99999.99 -99999.99
1/5/2022 3:00:00 PM -99999.99 -179968 -99999.99 -99999.99 -99999.99 -99999.99
1/5/2022 3:15:00 PM -99999.99 -179968 -99999.99 -99999.99 -99999.99 -99999.99
1/5/2022 3:30:00 PM -99999.99 -179968 -99999.99 -99999.99 -99999.99 -99999.99
1/5/2022 3:45:00 PM -99999.99 -179968 -99999.99 -99999.99 -99999.99 -99999.99
1/5/2022 4:00:00 PM -99999.99 -179968 -99999.99 -99999.99 -99999.99 -99999.99
1/5/2022 4:15:00 PM -99999.99 -179968 -99999.99 -99999.99 -99999.99 -99999.99
1/5/2022 4:30:00 PM -99999.99 -179968 -99999.99 -99999.99 -99999.99 -99999.99
1/5/2022 4:45:00 PM -99999.99 -179968 -99999.99 -99999.99 -99999.99 -99999.99
1/5/2022 5:00:00 PM -99999.99 -179968 -99999.99 -99999.99 -99999.99 -99999.99
1/5/2022 5:15:00 PM -99999.99 -179968 -99999.99 -99999.99 -99999.99 -99999.99
1/5/2022 5:30:00 PM -99999.99